<?xml version="1.0" encoding="UTF-8" standalone="no" ?>
<gpx xmlns="http://www.topografix.com/GPX/1/1" xmlns:xsi="http://www.w3.org/2001/XMLSchema-instance" xsi:schemaLocation="http://www.topografix.com/GPX/1/1 http://www.topografix.com/GPX/1/1/gpx.xsd" version="1.1" creator="VisuGPX - https://www.visugpx.com">
  <metadata>
    <name>1. Moutiers &amp;gt; Plan Lombardie</name>
  </metadata>
  <trk>
    <name><![CDATA[1new. Moutiers > Plan Lombardie]]></name>
    <trkseg>
      <trkpt lat="45.48638" lon="6.53049">
        <ele>479.6994550934</ele>
        <time>2021-08-05T12:19:32.000Z</time>
      </trkpt>
      <trkpt lat="45.48614" lon="6.53118">
        <ele>479.52588385998</ele>
        <time>2021-08-05T12:19:32.072Z</time>
      </trkpt>
      <trkpt lat="45.4861" lon="6.53125">
        <ele>479.30671752607</ele>
        <time>2021-08-05T12:19:32.153Z</time>
      </trkpt>
      <trkpt lat="45.48607" lon="6.53128">
        <ele>479.0765379176</ele>
        <time>2021-08-05T12:19:32.239Z</time>
      </trkpt>
      <trkpt lat="45.48581" lon="6.53125">
        <ele>478.82483241816</ele>
        <time>2021-08-05T12:19:32.359Z</time>
      </trkpt>
      <trkpt lat="45.48536" lon="6.53116">
        <ele>478.48244329319</ele>
        <time>2021-08-05T12:19:32.540Z</time>
      </trkpt>
      <trkpt lat="45.48489" lon="6.53107">
        <ele>478.02358690688</ele>
        <time>2021-08-05T12:19:32.784Z</time>
      </trkpt>
      <trkpt lat="45.48485" lon="6.5311">
        <ele>477.64058762778</ele>
        <time>2021-08-05T12:19:33.034Z</time>
      </trkpt>
      <trkpt lat="45.48481" lon="6.53113">
        <ele>477.26744390888</ele>
        <time>2021-08-05T12:19:33.290Z</time>
      </trkpt>
      <trkpt lat="45.48476" lon="6.53099">
        <ele>476.80657929989</ele>
        <time>2021-08-05T12:19:33.561Z</time>
      </trkpt>
      <trkpt lat="45.48458" lon="6.53072">
        <ele>476.30860875412</ele>
        <time>2021-08-05T12:19:33.867Z</time>
      </trkpt>
      <trkpt lat="45.48434" lon="6.53041">
        <ele>475.89174012761</ele>
        <time>2021-08-05T12:19:34.216Z</time>
      </trkpt>
      <trkpt lat="45.48422" lon="6.53028">
        <ele>475.52391108002</ele>
        <time>2021-08-05T12:19:34.585Z</time>
      </trkpt>
      <trkpt lat="45.48387" lon="6.52997">
        <ele>475.27122373516</ele>
        <time>2021-08-05T12:19:35.009Z</time>
      </trkpt>
      <trkpt lat="45.48358" lon="6.52973">
        <ele>474.97658898704</ele>
        <time>2021-08-05T12:19:35.478Z</time>
      </trkpt>
      <trkpt lat="45.48315" lon="6.52942">
        <ele>474.79111437027</ele>
        <time>2021-08-05T12:19:36.011Z</time>
      </trkpt>
      <trkpt lat="45.48335" lon="6.52874">
        <ele>474.56829010854</ele>
        <time>2021-08-05T12:19:36.613Z</time>
      </trkpt>
      <trkpt lat="45.48362" lon="6.52753">
        <ele>474.30188246739</ele>
        <time>2021-08-05T12:19:37.335Z</time>
      </trkpt>
      <trkpt lat="45.4838" lon="6.52672">
        <ele>474.04830556926</ele>
        <time>2021-08-05T12:19:38.136Z</time>
      </trkpt>
      <trkpt lat="45.48394" lon="6.52601">
        <ele>473.80732397251</ele>
        <time>2021-08-05T12:19:39.006Z</time>
      </trkpt>
      <trkpt lat="45.48396" lon="6.52573">
        <ele>473.58998423946</ele>
        <time>2021-08-05T12:19:39.903Z</time>
      </trkpt>
      <trkpt lat="45.48395" lon="6.52518">
        <ele>473.4836103291</ele>
        <time>2021-08-05T12:19:40.851Z</time>
      </trkpt>
      <trkpt lat="45.48391" lon="6.52502">
        <ele>473.497789327</ele>
        <time>2021-08-05T12:19:41.815Z</time>
      </trkpt>
      <trkpt lat="45.48382" lon="6.52485">
        <ele>473.8644894921</ele>
        <time>2021-08-05T12:19:42.799Z</time>
      </trkpt>
      <trkpt lat="45.48364" lon="6.52466">
        <ele>474.63537167421</ele>
        <time>2021-08-05T12:19:43.813Z</time>
      </trkpt>
      <trkpt lat="45.48354" lon="6.52464">
        <ele>475.31231332591</ele>
        <time>2021-08-05T12:19:44.841Z</time>
      </trkpt>
      <trkpt lat="45.48336" lon="6.52472">
        <ele>475.82336704613</ele>
        <time>2021-08-05T12:19:45.894Z</time>
      </trkpt>
      <trkpt lat="45.48269" lon="6.52499">
        <ele>476.46237939086</ele>
        <time>2021-08-05T12:19:47.040Z</time>
      </trkpt>
      <trkpt lat="45.48233" lon="6.52512">
        <ele>476.92816190828</ele>
        <time>2021-08-05T12:19:48.235Z</time>
      </trkpt>
      <trkpt lat="45.48219" lon="6.52516">
        <ele>477.57118098139</ele>
        <time>2021-08-05T12:19:49.449Z</time>
      </trkpt>
      <trkpt lat="45.48203" lon="6.52519">
        <ele>478.205075642</ele>
        <time>2021-08-05T12:19:50.685Z</time>
      </trkpt>
      <trkpt lat="45.48167" lon="6.52517">
        <ele>479.0361800383</ele>
        <time>2021-08-05T12:19:51.969Z</time>
      </trkpt>
      <trkpt lat="45.48129" lon="6.52502">
        <ele>480.27591410246</ele>
        <time>2021-08-05T12:19:53.306Z</time>
      </trkpt>
      <trkpt lat="45.48088" lon="6.52492">
        <ele>481.60961824394</ele>
        <time>2021-08-05T12:19:54.698Z</time>
      </trkpt>
      <trkpt lat="45.48026" lon="6.52485">
        <ele>483.52372197935</ele>
        <time>2021-08-05T12:19:56.173Z</time>
      </trkpt>
      <trkpt lat="45.47994" lon="6.52488">
        <ele>485.36714056449</ele>
        <time>2021-08-05T12:19:57.691Z</time>
      </trkpt>
      <trkpt lat="45.47948" lon="6.52508">
        <ele>487.25971823318</ele>
        <time>2021-08-05T12:19:59.273Z</time>
      </trkpt>
      <trkpt lat="45.47931" lon="6.52515">
        <ele>488.82222709025</ele>
        <time>2021-08-05T12:20:00.878Z</time>
      </trkpt>
      <trkpt lat="45.47926" lon="6.52512">
        <ele>490.73165826265</ele>
        <time>2021-08-05T12:20:02.491Z</time>
      </trkpt>
      <trkpt lat="45.47923" lon="6.52504">
        <ele>495.05906620442</ele>
        <time>2021-08-05T12:20:04.112Z</time>
      </trkpt>
      <trkpt lat="45.47917" lon="6.52509">
        <ele>497.2416312725</ele>
        <time>2021-08-05T12:20:05.742Z</time>
      </trkpt>
      <trkpt lat="45.47912" lon="6.52509">
        <ele>499.67429981413</ele>
        <time>2021-08-05T12:20:07.379Z</time>
      </trkpt>
      <trkpt lat="45.47898" lon="6.52501">
        <ele>502.41800277905</ele>
        <time>2021-08-05T12:20:09.036Z</time>
      </trkpt>
      <trkpt lat="45.47878" lon="6.52484">
        <ele>505.71012038508</ele>
        <time>2021-08-05T12:20:10.724Z</time>
      </trkpt>
      <trkpt lat="45.47852" lon="6.52476">
        <ele>509.34883919148</ele>
        <time>2021-08-05T12:20:12.448Z</time>
      </trkpt>
      <trkpt lat="45.478" lon="6.5247">
        <ele>513.70745191643</ele>
        <time>2021-08-05T12:20:14.241Z</time>
      </trkpt>
      <trkpt lat="45.47782" lon="6.52467">
        <ele>517.92893978152</ele>
        <time>2021-08-05T12:20:16.059Z</time>
      </trkpt>
      <trkpt lat="45.47791" lon="6.52463">
        <ele>522.60826015055</ele>
        <time>2021-08-05T12:20:17.889Z</time>
      </trkpt>
      <trkpt lat="45.47804" lon="6.52453">
        <ele>527.49040059421</ele>
        <time>2021-08-05T12:20:19.739Z</time>
      </trkpt>
      <trkpt lat="45.47818" lon="6.52448">
        <ele>532.62110012352</ele>
        <time>2021-08-05T12:20:21.608Z</time>
      </trkpt>
      <trkpt lat="45.4783" lon="6.52444">
        <ele>538.09449810361</ele>
        <time>2021-08-05T12:20:23.494Z</time>
      </trkpt>
      <trkpt lat="45.47842" lon="6.52433">
        <ele>544.14513853382</ele>
        <time>2021-08-05T12:20:25.399Z</time>
      </trkpt>
      <trkpt lat="45.47845" lon="6.52429">
        <ele>550.51832711563</ele>
        <time>2021-08-05T12:20:27.309Z</time>
      </trkpt>
      <trkpt lat="45.47849" lon="6.52428">
        <ele>557.27246942966</ele>
        <time>2021-08-05T12:20:29.225Z</time>
      </trkpt>
      <trkpt lat="45.47853" lon="6.52427">
        <ele>564.43039953238</ele>
        <time>2021-08-05T12:20:31.146Z</time>
      </trkpt>
      <trkpt lat="45.47898" lon="6.52429">
        <ele>572.19220578441</ele>
        <time>2021-08-05T12:20:33.127Z</time>
      </trkpt>
      <trkpt lat="45.47908" lon="6.52431">
        <ele>580.25359311251</ele>
        <time>2021-08-05T12:20:35.121Z</time>
      </trkpt>
      <trkpt lat="45.47953" lon="6.52425">
        <ele>597.67072956914</ele>
        <time>2021-08-05T12:20:37.175Z</time>
      </trkpt>
      <trkpt lat="45.47954" lon="6.52385">
        <ele>617.87432083949</ele>
        <time>2021-08-05T12:20:39.267Z</time>
      </trkpt>
      <trkpt lat="45.48047" lon="6.52329">
        <ele>640.33398704793</ele>
        <time>2021-08-05T12:20:41.494Z</time>
      </trkpt>
      <trkpt lat="45.48017" lon="6.52306">
        <ele>663.36281521162</ele>
        <time>2021-08-05T12:20:43.766Z</time>
      </trkpt>
      <trkpt lat="45.48061" lon="6.52288">
        <ele>686.39924578767</ele>
        <time>2021-08-05T12:20:46.099Z</time>
      </trkpt>
      <trkpt lat="45.47876" lon="6.52044">
        <ele>716.66499720295</ele>
        <time>2021-08-05T12:20:48.768Z</time>
      </trkpt>
      <trkpt lat="45.47875" lon="6.52042">
        <ele>741.45040370737</ele>
        <time>2021-08-05T12:20:51.440Z</time>
      </trkpt>
      <trkpt lat="45.47907" lon="6.52024">
        <ele>753.84511465446</ele>
        <time>2021-08-05T12:20:54.158Z</time>
      </trkpt>
      <trkpt lat="45.47924" lon="6.52023">
        <ele>765.27545051218</ele>
        <time>2021-08-05T12:20:56.899Z</time>
      </trkpt>
      <trkpt lat="45.47961" lon="6.52022">
        <ele>786.21813559674</ele>
        <time>2021-08-05T12:20:59.689Z</time>
      </trkpt>
      <trkpt lat="45.47974" lon="6.52017">
        <ele>795.77839739782</ele>
        <time>2021-08-05T12:21:02.497Z</time>
      </trkpt>
      <trkpt lat="45.4799" lon="6.52016">
        <ele>804.5067640353</ele>
        <time>2021-08-05T12:21:05.326Z</time>
      </trkpt>
      <trkpt lat="45.47996" lon="6.52014">
        <ele>812.49746098832</ele>
        <time>2021-08-05T12:21:08.163Z</time>
      </trkpt>
      <trkpt lat="45.48006" lon="6.52007">
        <ele>819.93911052701</ele>
        <time>2021-08-05T12:21:11.015Z</time>
      </trkpt>
      <trkpt lat="45.48014" lon="6.52006">
        <ele>826.70142103919</ele>
        <time>2021-08-05T12:21:13.878Z</time>
      </trkpt>
      <trkpt lat="45.48024" lon="6.52006">
        <ele>832.82760429747</ele>
        <time>2021-08-05T12:21:16.754Z</time>
      </trkpt>
      <trkpt lat="45.48051" lon="6.52">
        <ele>838.64840405223</ele>
        <time>2021-08-05T12:21:19.667Z</time>
      </trkpt>
      <trkpt lat="45.48059" lon="6.51995">
        <ele>843.68242202005</ele>
        <time>2021-08-05T12:21:22.591Z</time>
      </trkpt>
      <trkpt lat="45.48065" lon="6.5199">
        <ele>848.16372708812</ele>
        <time>2021-08-05T12:21:25.525Z</time>
      </trkpt>
      <trkpt lat="45.48072" lon="6.51989">
        <ele>852.07467649082</ele>
        <time>2021-08-05T12:21:28.468Z</time>
      </trkpt>
      <trkpt lat="45.48089" lon="6.51986">
        <ele>855.60126871336</ele>
        <time>2021-08-05T12:21:31.434Z</time>
      </trkpt>
      <trkpt lat="45.48094" lon="6.51985">
        <ele>858.60893998177</ele>
        <time>2021-08-05T12:21:34.407Z</time>
      </trkpt>
      <trkpt lat="45.48098" lon="6.51977">
        <ele>861.38868185778</ele>
        <time>2021-08-05T12:21:37.389Z</time>
      </trkpt>
      <trkpt lat="45.48095" lon="6.5197">
        <ele>863.79716465968</ele>
        <time>2021-08-05T12:21:40.379Z</time>
      </trkpt>
      <trkpt lat="45.48085" lon="6.51972">
        <ele>865.70099703697</ele>
        <time>2021-08-05T12:21:43.382Z</time>
      </trkpt>
      <trkpt lat="45.48072" lon="6.51969">
        <ele>867.40202872696</ele>
        <time>2021-08-05T12:21:46.403Z</time>
      </trkpt>
      <trkpt lat="45.48048" lon="6.51957">
        <ele>869.05097306127</ele>
        <time>2021-08-05T12:21:49.458Z</time>
      </trkpt>
      <trkpt lat="45.48038" lon="6.5195">
        <ele>870.5277194416</ele>
        <time>2021-08-05T12:21:52.527Z</time>
      </trkpt>
      <trkpt lat="45.48036" lon="6.51948">
        <ele>871.77304210231</ele>
        <time>2021-08-05T12:21:55.600Z</time>
      </trkpt>
      <trkpt lat="45.48035" lon="6.51942">
        <ele>873.00858182108</ele>
        <time>2021-08-05T12:21:58.678Z</time>
      </trkpt>
      <trkpt lat="45.48042" lon="6.51932">
        <ele>874.28991761445</ele>
        <time>2021-08-05T12:22:01.770Z</time>
      </trkpt>
      <trkpt lat="45.48077" lon="6.51943">
        <ele>875.15678797805</ele>
        <time>2021-08-05T12:22:04.910Z</time>
      </trkpt>
      <trkpt lat="45.48082" lon="6.51944">
        <ele>876.1412088317</ele>
        <time>2021-08-05T12:22:08.056Z</time>
      </trkpt>
      <trkpt lat="45.48088" lon="6.5194">
        <ele>877.29853508159</ele>
        <time>2021-08-05T12:22:11.211Z</time>
      </trkpt>
      <trkpt lat="45.48088" lon="6.51931">
        <ele>878.61498412225</ele>
        <time>2021-08-05T12:22:14.375Z</time>
      </trkpt>
      <trkpt lat="45.48086" lon="6.51928">
        <ele>879.85215646054</ele>
        <time>2021-08-05T12:22:17.542Z</time>
      </trkpt>
      <trkpt lat="45.48073" lon="6.51919">
        <ele>881.31431008123</ele>
        <time>2021-08-05T12:22:20.729Z</time>
      </trkpt>
      <trkpt lat="45.4802" lon="6.51893">
        <ele>883.15992749422</ele>
        <time>2021-08-05T12:22:23.990Z</time>
      </trkpt>
      <trkpt lat="45.47994" lon="6.51876">
        <ele>884.81643428356</ele>
        <time>2021-08-05T12:22:27.290Z</time>
      </trkpt>
      <trkpt lat="45.47978" lon="6.51862">
        <ele>886.45927985542</ele>
        <time>2021-08-05T12:22:30.615Z</time>
      </trkpt>
      <trkpt lat="45.4797" lon="6.51848">
        <ele>888.46288845748</ele>
        <time>2021-08-05T12:22:33.957Z</time>
      </trkpt>
      <trkpt lat="45.47975" lon="6.5184">
        <ele>890.62961739315</ele>
        <time>2021-08-05T12:22:37.309Z</time>
      </trkpt>
      <trkpt lat="45.47981" lon="6.5184">
        <ele>892.80894657071</ele>
        <time>2021-08-05T12:22:40.669Z</time>
      </trkpt>
      <trkpt lat="45.48013" lon="6.51839">
        <ele>895.3187503143</ele>
        <time>2021-08-05T12:22:44.071Z</time>
      </trkpt>
      <trkpt lat="45.48003" lon="6.51833">
        <ele>897.82883312354</ele>
        <time>2021-08-05T12:22:47.488Z</time>
      </trkpt>
      <trkpt lat="45.47981" lon="6.51823">
        <ele>900.55014900361</ele>
        <time>2021-08-05T12:22:50.936Z</time>
      </trkpt>
      <trkpt lat="45.47953" lon="6.51807">
        <ele>903.41337238199</ele>
        <time>2021-08-05T12:22:54.424Z</time>
      </trkpt>
      <trkpt lat="45.47933" lon="6.51787">
        <ele>906.67974852141</ele>
        <time>2021-08-05T12:22:57.945Z</time>
      </trkpt>
      <trkpt lat="45.47895" lon="6.51755">
        <ele>910.24002628085</ele>
        <time>2021-08-05T12:23:01.524Z</time>
      </trkpt>
      <trkpt lat="45.47895" lon="6.5175">
        <ele>913.65570766982</ele>
        <time>2021-08-05T12:23:05.108Z</time>
      </trkpt>
      <trkpt lat="45.47901" lon="6.51749">
        <ele>917.14351845209</ele>
        <time>2021-08-05T12:23:08.700Z</time>
      </trkpt>
      <trkpt lat="45.4791" lon="6.51751">
        <ele>920.69869573376</ele>
        <time>2021-08-05T12:23:12.304Z</time>
      </trkpt>
      <trkpt lat="45.47931" lon="6.51754">
        <ele>924.58523861927</ele>
        <time>2021-08-05T12:23:15.936Z</time>
      </trkpt>
      <trkpt lat="45.47966" lon="6.51756">
        <ele>928.75928087936</ele>
        <time>2021-08-05T12:23:19.615Z</time>
      </trkpt>
      <trkpt lat="45.47984" lon="6.51755">
        <ele>932.85914756421</ele>
        <time>2021-08-05T12:23:23.318Z</time>
      </trkpt>
      <trkpt lat="45.47967" lon="6.51739">
        <ele>937.08691832952</ele>
        <time>2021-08-05T12:23:27.048Z</time>
      </trkpt>
      <trkpt lat="45.47957" lon="6.51726">
        <ele>941.40830564099</ele>
        <time>2021-08-05T12:23:30.796Z</time>
      </trkpt>
      <trkpt lat="45.47948" lon="6.51719">
        <ele>945.71998389231</ele>
        <time>2021-08-05T12:23:34.558Z</time>
      </trkpt>
      <trkpt lat="45.47915" lon="6.51681">
        <ele>950.46715015105</ele>
        <time>2021-08-05T12:23:38.377Z</time>
      </trkpt>
      <trkpt lat="45.47899" lon="6.5166">
        <ele>955.46547621386</ele>
        <time>2021-08-05T12:23:42.225Z</time>
      </trkpt>
      <trkpt lat="45.47893" lon="6.51652">
        <ele>964.66013417104</ele>
        <time>2021-08-05T12:23:46.084Z</time>
      </trkpt>
      <trkpt lat="45.47892" lon="6.51648">
        <ele>969.28672336421</ele>
        <time>2021-08-05T12:23:49.947Z</time>
      </trkpt>
      <trkpt lat="45.47894" lon="6.51645">
        <ele>973.87878977274</ele>
        <time>2021-08-05T12:23:53.814Z</time>
      </trkpt>
      <trkpt lat="45.47922" lon="6.51632">
        <ele>978.63643513285</ele>
        <time>2021-08-05T12:23:57.720Z</time>
      </trkpt>
      <trkpt lat="45.47935" lon="6.5163">
        <ele>983.28770441048</ele>
        <time>2021-08-05T12:24:01.643Z</time>
      </trkpt>
      <trkpt lat="45.47938" lon="6.51623">
        <ele>988.00045369122</ele>
        <time>2021-08-05T12:24:05.574Z</time>
      </trkpt>
      <trkpt lat="45.47929" lon="6.51603">
        <ele>992.97595778705</ele>
        <time>2021-08-05T12:24:09.527Z</time>
      </trkpt>
      <trkpt lat="45.47918" lon="6.51589">
        <ele>997.7584255544</ele>
        <time>2021-08-05T12:24:13.500Z</time>
      </trkpt>
      <trkpt lat="45.47921" lon="6.51586">
        <ele>1002.3016891685</ele>
        <time>2021-08-05T12:24:17.478Z</time>
      </trkpt>
      <trkpt lat="45.47937" lon="6.51586">
        <ele>1006.7377618072</ele>
        <time>2021-08-05T12:24:21.477Z</time>
      </trkpt>
      <trkpt lat="45.47957" lon="6.51581">
        <ele>1011.2626855074</ele>
        <time>2021-08-05T12:24:25.503Z</time>
      </trkpt>
      <trkpt lat="45.47971" lon="6.51582">
        <ele>1015.5995364519</ele>
        <time>2021-08-05T12:24:29.548Z</time>
      </trkpt>
      <trkpt lat="45.47976" lon="6.51582">
        <ele>1019.9040531986</ele>
        <time>2021-08-05T12:24:33.600Z</time>
      </trkpt>
      <trkpt lat="45.47978" lon="6.5158">
        <ele>1024.1780219233</ele>
        <time>2021-08-05T12:24:37.655Z</time>
      </trkpt>
      <trkpt lat="45.47979" lon="6.51577">
        <ele>1028.4166174827</ele>
        <time>2021-08-05T12:24:41.713Z</time>
      </trkpt>
      <trkpt lat="45.4795" lon="6.51547">
        <ele>1033.1570007552</ele>
        <time>2021-08-05T12:24:45.819Z</time>
      </trkpt>
      <trkpt lat="45.47941" lon="6.51534">
        <ele>1037.6523811398</ele>
        <time>2021-08-05T12:24:49.942Z</time>
      </trkpt>
      <trkpt lat="45.47927" lon="6.51522">
        <ele>1042.0957517142</ele>
        <time>2021-08-05T12:24:54.087Z</time>
      </trkpt>
      <trkpt lat="45.47926" lon="6.51517">
        <ele>1046.2855507073</ele>
        <time>2021-08-05T12:24:58.237Z</time>
      </trkpt>
      <trkpt lat="45.47927" lon="6.51516">
        <ele>1050.3044482742</ele>
        <time>2021-08-05T12:25:02.388Z</time>
      </trkpt>
      <trkpt lat="45.47937" lon="6.51514">
        <ele>1058.2189989438</ele>
        <time>2021-08-05T12:25:06.553Z</time>
      </trkpt>
      <trkpt lat="45.47977" lon="6.51506">
        <ele>1062.4400358193</ele>
        <time>2021-08-05T12:25:10.772Z</time>
      </trkpt>
      <trkpt lat="45.48008" lon="6.515">
        <ele>1066.411017101</ele>
        <time>2021-08-05T12:25:15.032Z</time>
      </trkpt>
      <trkpt lat="45.48026" lon="6.51493">
        <ele>1070.2980793209</ele>
        <time>2021-08-05T12:25:19.317Z</time>
      </trkpt>
      <trkpt lat="45.48059" lon="6.51474">
        <ele>1074.7257336192</ele>
        <time>2021-08-05T12:25:23.650Z</time>
      </trkpt>
      <trkpt lat="45.48077" lon="6.51474">
        <ele>1078.3775913589</ele>
        <time>2021-08-05T12:25:28.007Z</time>
      </trkpt>
      <trkpt lat="45.48097" lon="6.51479">
        <ele>1081.9127273861</ele>
        <time>2021-08-05T12:25:32.391Z</time>
      </trkpt>
      <trkpt lat="45.48123" lon="6.51482">
        <ele>1085.474550165</ele>
        <time>2021-08-05T12:25:36.810Z</time>
      </trkpt>
      <trkpt lat="45.48148" lon="6.51488">
        <ele>1089.0258307788</ele>
        <time>2021-08-05T12:25:41.262Z</time>
      </trkpt>
      <trkpt lat="45.48177" lon="6.5149">
        <ele>1092.6621216961</ele>
        <time>2021-08-05T12:25:45.753Z</time>
      </trkpt>
      <trkpt lat="45.48197" lon="6.51489">
        <ele>1096.3479330346</ele>
        <time>2021-08-05T12:25:50.271Z</time>
      </trkpt>
      <trkpt lat="45.48231" lon="6.51484">
        <ele>1100.2482364278</ele>
        <time>2021-08-05T12:25:54.834Z</time>
      </trkpt>
      <trkpt lat="45.48266" lon="6.51475">
        <ele>1103.9735145207</ele>
        <time>2021-08-05T12:25:59.445Z</time>
      </trkpt>
      <trkpt lat="45.48287" lon="6.5146">
        <ele>1107.6454316258</ele>
        <time>2021-08-05T12:26:04.087Z</time>
      </trkpt>
      <trkpt lat="45.48309" lon="6.51431">
        <ele>1111.4805686911</ele>
        <time>2021-08-05T12:26:08.769Z</time>
      </trkpt>
      <trkpt lat="45.48333" lon="6.51404">
        <ele>1115.4466751247</ele>
        <time>2021-08-05T12:26:13.492Z</time>
      </trkpt>
      <trkpt lat="45.48344" lon="6.5139">
        <ele>1119.2670867401</ele>
        <time>2021-08-05T12:26:18.235Z</time>
      </trkpt>
      <trkpt lat="45.48367" lon="6.51353">
        <ele>1122.9142338887</ele>
        <time>2021-08-05T12:26:23.024Z</time>
      </trkpt>
      <trkpt lat="45.48372" lon="6.5134">
        <ele>1126.5582108152</ele>
        <time>2021-08-05T12:26:27.827Z</time>
      </trkpt>
      <trkpt lat="45.48376" lon="6.51315">
        <ele>1130.3320939867</ele>
        <time>2021-08-05T12:26:32.654Z</time>
      </trkpt>
      <trkpt lat="45.48377" lon="6.51288">
        <ele>1134.1333946717</ele>
        <time>2021-08-05T12:26:37.506Z</time>
      </trkpt>
      <trkpt lat="45.48372" lon="6.51265">
        <ele>1138.0670894193</ele>
        <time>2021-08-05T12:26:42.381Z</time>
      </trkpt>
      <trkpt lat="45.48362" lon="6.5123">
        <ele>1142.1971549225</ele>
        <time>2021-08-05T12:26:47.291Z</time>
      </trkpt>
      <trkpt lat="45.48356" lon="6.51199">
        <ele>1146.2999789164</ele>
        <time>2021-08-05T12:26:52.232Z</time>
      </trkpt>
      <trkpt lat="45.48358" lon="6.51168">
        <ele>1153.5519428476</ele>
        <time>2021-08-05T12:26:57.202Z</time>
      </trkpt>
      <trkpt lat="45.48364" lon="6.5114">
        <ele>1156.915277541</ele>
        <time>2021-08-05T12:27:02.199Z</time>
      </trkpt>
      <trkpt lat="45.4837" lon="6.51121">
        <ele>1159.9836056574</ele>
        <time>2021-08-05T12:27:07.216Z</time>
      </trkpt>
      <trkpt lat="45.48371" lon="6.51108">
        <ele>1163.1568453694</ele>
        <time>2021-08-05T12:27:12.245Z</time>
      </trkpt>
      <trkpt lat="45.48382" lon="6.51077">
        <ele>1166.261234677</ele>
        <time>2021-08-05T12:27:17.307Z</time>
      </trkpt>
      <trkpt lat="45.48391" lon="6.51055">
        <ele>1169.1999437973</ele>
        <time>2021-08-05T12:27:22.393Z</time>
      </trkpt>
      <trkpt lat="45.48397" lon="6.51042">
        <ele>1171.7869771273</ele>
        <time>2021-08-05T12:27:27.493Z</time>
      </trkpt>
      <trkpt lat="45.48397" lon="6.51006">
        <ele>1174.4281269104</ele>
        <time>2021-08-05T12:27:32.627Z</time>
      </trkpt>
      <trkpt lat="45.48397" lon="6.50995">
        <ele>1176.6975544552</ele>
        <time>2021-08-05T12:27:37.771Z</time>
      </trkpt>
      <trkpt lat="45.48391" lon="6.50981">
        <ele>1178.9003067551</ele>
        <time>2021-08-05T12:27:42.931Z</time>
      </trkpt>
      <trkpt lat="45.4838" lon="6.50963">
        <ele>1180.9488027866</ele>
        <time>2021-08-05T12:27:48.113Z</time>
      </trkpt>
      <trkpt lat="45.48372" lon="6.50932">
        <ele>1182.7923146514</ele>
        <time>2021-08-05T12:27:53.326Z</time>
      </trkpt>
      <trkpt lat="45.48371" lon="6.50898">
        <ele>1184.4401938745</ele>
        <time>2021-08-05T12:27:58.571Z</time>
      </trkpt>
      <trkpt lat="45.48377" lon="6.50863">
        <ele>1185.6687417647</ele>
        <time>2021-08-05T12:28:03.850Z</time>
      </trkpt>
      <trkpt lat="45.48382" lon="6.50838">
        <ele>1186.6601018727</ele>
        <time>2021-08-05T12:28:09.153Z</time>
      </trkpt>
      <trkpt lat="45.4839" lon="6.50818">
        <ele>1187.4095216633</ele>
        <time>2021-08-05T12:28:14.478Z</time>
      </trkpt>
      <trkpt lat="45.48393" lon="6.50816">
        <ele>1187.9195974174</ele>
        <time>2021-08-05T12:28:19.807Z</time>
      </trkpt>
      <trkpt lat="45.48402" lon="6.50817">
        <ele>1188.1374995619</ele>
        <time>2021-08-05T12:28:25.148Z</time>
      </trkpt>
      <trkpt lat="45.48408" lon="6.50821">
        <ele>1188.1540335725</ele>
        <time>2021-08-05T12:28:30.498Z</time>
      </trkpt>
      <trkpt lat="45.48419" lon="6.50826">
        <ele>1187.9110914936</ele>
        <time>2021-08-05T12:28:35.863Z</time>
      </trkpt>
      <trkpt lat="45.48431" lon="6.50821">
        <ele>1187.5155118239</ele>
        <time>2021-08-05T12:28:41.245Z</time>
      </trkpt>
      <trkpt lat="45.48436" lon="6.50816">
        <ele>1187.0040834902</ele>
        <time>2021-08-05T12:28:46.635Z</time>
      </trkpt>
      <trkpt lat="45.48439" lon="6.50807">
        <ele>1186.3724747562</ele>
        <time>2021-08-05T12:28:52.035Z</time>
      </trkpt>
      <trkpt lat="45.48441" lon="6.50783">
        <ele>1185.6341233162</ele>
        <time>2021-08-05T12:28:57.457Z</time>
      </trkpt>
      <trkpt lat="45.4844" lon="6.50772">
        <ele>1184.748624178</ele>
        <time>2021-08-05T12:29:02.890Z</time>
      </trkpt>
      <trkpt lat="45.48433" lon="6.50757">
        <ele>1183.8050557041</ele>
        <time>2021-08-05T12:29:08.340Z</time>
      </trkpt>
      <trkpt lat="45.48424" lon="6.50734">
        <ele>1182.7375246986</ele>
        <time>2021-08-05T12:29:13.814Z</time>
      </trkpt>
      <trkpt lat="45.48426" lon="6.50686">
        <ele>1181.3504866465</ele>
        <time>2021-08-05T12:29:19.333Z</time>
      </trkpt>
      <trkpt lat="45.48421" lon="6.50663">
        <ele>1179.9736306261</ele>
        <time>2021-08-05T12:29:24.875Z</time>
      </trkpt>
      <trkpt lat="45.48414" lon="6.50646">
        <ele>1178.5998576705</ele>
        <time>2021-08-05T12:29:30.435Z</time>
      </trkpt>
      <trkpt lat="45.48412" lon="6.50628">
        <ele>1177.1110658318</ele>
        <time>2021-08-05T12:29:36.012Z</time>
      </trkpt>
      <trkpt lat="45.48414" lon="6.50608">
        <ele>1175.5121692645</ele>
        <time>2021-08-05T12:29:41.608Z</time>
      </trkpt>
      <trkpt lat="45.48415" lon="6.50568">
        <ele>1173.8594284298</ele>
        <time>2021-08-05T12:29:47.242Z</time>
      </trkpt>
      <trkpt lat="45.48398" lon="6.50524">
        <ele>1172.3645294745</ele>
        <time>2021-08-05T12:29:52.923Z</time>
      </trkpt>
      <trkpt lat="45.48386" lon="6.50504">
        <ele>1170.9390761301</ele>
        <time>2021-08-05T12:29:58.629Z</time>
      </trkpt>
      <trkpt lat="45.48379" lon="6.50481">
        <ele>1169.5257839339</ele>
        <time>2021-08-05T12:30:04.358Z</time>
      </trkpt>
      <trkpt lat="45.48357" lon="6.50421">
        <ele>1168.390162042</ele>
        <time>2021-08-05T12:30:10.151Z</time>
      </trkpt>
      <trkpt lat="45.48346" lon="6.50388">
        <ele>1167.1141205156</ele>
        <time>2021-08-05T12:30:15.978Z</time>
      </trkpt>
      <trkpt lat="45.48324" lon="6.50349">
        <ele>1166.1701127489</ele>
        <time>2021-08-05T12:30:21.852Z</time>
      </trkpt>
      <trkpt lat="45.48312" lon="6.50318">
        <ele>1165.2493231989</ele>
        <time>2021-08-05T12:30:27.759Z</time>
      </trkpt>
      <trkpt lat="45.48307" lon="6.50301">
        <ele>1164.3520453554</ele>
        <time>2021-08-05T12:30:33.683Z</time>
      </trkpt>
      <trkpt lat="45.48303" lon="6.5028">
        <ele>1163.5674305036</ele>
        <time>2021-08-05T12:30:39.628Z</time>
      </trkpt>
      <trkpt lat="45.48304" lon="6.50243">
        <ele>1162.7264754716</ele>
        <time>2021-08-05T12:30:45.608Z</time>
      </trkpt>
      <trkpt lat="45.48303" lon="6.50223">
        <ele>1162.2188050102</ele>
        <time>2021-08-05T12:30:51.606Z</time>
      </trkpt>
      <trkpt lat="45.48299" lon="6.50204">
        <ele>1162.0141068628</ele>
        <time>2021-08-05T12:30:57.623Z</time>
      </trkpt>
      <trkpt lat="45.48293" lon="6.50186">
        <ele>1162.0774699757</ele>
        <time>2021-08-05T12:31:03.659Z</time>
      </trkpt>
      <trkpt lat="45.48291" lon="6.50174">
        <ele>1162.3030708345</ele>
        <time>2021-08-05T12:31:09.706Z</time>
      </trkpt>
      <trkpt lat="45.4829" lon="6.50137">
        <ele>1162.5642109937</ele>
        <time>2021-08-05T12:31:15.788Z</time>
      </trkpt>
      <trkpt lat="45.48281" lon="6.50102">
        <ele>1163.2979611054</ele>
        <time>2021-08-05T12:31:21.905Z</time>
      </trkpt>
      <trkpt lat="45.48268" lon="6.50064">
        <ele>1164.4968823854</ele>
        <time>2021-08-05T12:31:28.062Z</time>
      </trkpt>
      <trkpt lat="45.48236" lon="6.49962">
        <ele>1165.9080715351</ele>
        <time>2021-08-05T12:31:34.323Z</time>
      </trkpt>
      <trkpt lat="45.48215" lon="6.49868">
        <ele>1167.1095872358</ele>
        <time>2021-08-05T12:31:40.677Z</time>
      </trkpt>
      <trkpt lat="45.48203" lon="6.49828">
        <ele>1169.0050095608</ele>
        <time>2021-08-05T12:31:47.072Z</time>
      </trkpt>
      <trkpt lat="45.48197" lon="6.49809">
        <ele>1174.0711191011</ele>
        <time>2021-08-05T12:31:53.486Z</time>
      </trkpt>
      <trkpt lat="45.48181" lon="6.49786">
        <ele>1177.1537262175</ele>
        <time>2021-08-05T12:31:59.931Z</time>
      </trkpt>
      <trkpt lat="45.48156" lon="6.49748">
        <ele>1180.5375976209</ele>
        <time>2021-08-05T12:32:06.424Z</time>
      </trkpt>
      <trkpt lat="45.48141" lon="6.49735">
        <ele>1184.6063830392</ele>
        <time>2021-08-05T12:32:12.941Z</time>
      </trkpt>
      <trkpt lat="45.48095" lon="6.49694">
        <ele>1189.2251211984</ele>
        <time>2021-08-05T12:32:19.530Z</time>
      </trkpt>
      <trkpt lat="45.4808" lon="6.49679">
        <ele>1193.8700765298</ele>
        <time>2021-08-05T12:32:26.144Z</time>
      </trkpt>
      <trkpt lat="45.48052" lon="6.49647">
        <ele>1199.1296412039</ele>
        <time>2021-08-05T12:32:32.806Z</time>
      </trkpt>
      <trkpt lat="45.48011" lon="6.4959">
        <ele>1205.6645818179</ele>
        <time>2021-08-05T12:32:39.544Z</time>
      </trkpt>
      <trkpt lat="45.47987" lon="6.49545">
        <ele>1212.1315164067</ele>
        <time>2021-08-05T12:32:46.335Z</time>
      </trkpt>
      <trkpt lat="45.47981" lon="6.4952">
        <ele>1217.9783695069</ele>
        <time>2021-08-05T12:32:53.151Z</time>
      </trkpt>
      <trkpt lat="45.47986" lon="6.49485">
        <ele>1223.8182812054</ele>
        <time>2021-08-05T12:33:00.000Z</time>
      </trkpt>
      <trkpt lat="45.4798" lon="6.4948">
        <ele>1229.575834853</ele>
        <time>2021-08-05T12:33:06.859Z</time>
      </trkpt>
      <trkpt lat="45.47973" lon="6.49475">
        <ele>1235.4176284362</ele>
        <time>2021-08-05T12:33:13.728Z</time>
      </trkpt>
      <trkpt lat="45.4795" lon="6.49474">
        <ele>1241.5267153086</ele>
        <time>2021-08-05T12:33:20.628Z</time>
      </trkpt>
      <trkpt lat="45.4793" lon="6.49474">
        <ele>1247.808727845</ele>
        <time>2021-08-05T12:33:27.554Z</time>
      </trkpt>
      <trkpt lat="45.47881" lon="6.49516">
        <ele>1253.7381787552</ele>
        <time>2021-08-05T12:33:34.557Z</time>
      </trkpt>
      <trkpt lat="45.47849" lon="6.4954">
        <ele>1259.8092510799</ele>
        <time>2021-08-05T12:33:41.608Z</time>
      </trkpt>
      <trkpt lat="45.47817" lon="6.49561">
        <ele>1265.9322515142</ele>
        <time>2021-08-05T12:33:48.706Z</time>
      </trkpt>
      <trkpt lat="45.47805" lon="6.49569">
        <ele>1271.814408114</ele>
        <time>2021-08-05T12:33:55.822Z</time>
      </trkpt>
      <trkpt lat="45.47802" lon="6.49575">
        <ele>1277.5231647984</ele>
        <time>2021-08-05T12:34:02.945Z</time>
      </trkpt>
      <trkpt lat="45.478" lon="6.49565">
        <ele>1283.3208139915</ele>
        <time>2021-08-05T12:34:10.077Z</time>
      </trkpt>
      <trkpt lat="45.47796" lon="6.4956">
        <ele>1289.0142600781</ele>
        <time>2021-08-05T12:34:17.216Z</time>
      </trkpt>
      <trkpt lat="45.47784" lon="6.4956">
        <ele>1294.6791988003</ele>
        <time>2021-08-05T12:34:24.371Z</time>
      </trkpt>
      <trkpt lat="45.47774" lon="6.49545">
        <ele>1300.4275623865</ele>
        <time>2021-08-05T12:34:31.546Z</time>
      </trkpt>
      <trkpt lat="45.47764" lon="6.49531">
        <ele>1306.0381912033</ele>
        <time>2021-08-05T12:34:38.740Z</time>
      </trkpt>
      <trkpt lat="45.47764" lon="6.49529">
        <ele>1311.2803453784</ele>
        <time>2021-08-05T12:34:45.935Z</time>
      </trkpt>
      <trkpt lat="45.47774" lon="6.4952">
        <ele>1316.4559770292</ele>
        <time>2021-08-05T12:34:53.146Z</time>
      </trkpt>
      <trkpt lat="45.47783" lon="6.49516">
        <ele>1321.4250626463</ele>
        <time>2021-08-05T12:35:00.370Z</time>
      </trkpt>
      <trkpt lat="45.47799" lon="6.49507">
        <ele>1326.3677625163</ele>
        <time>2021-08-05T12:35:07.617Z</time>
      </trkpt>
      <trkpt lat="45.47815" lon="6.49496">
        <ele>1331.3175867114</ele>
        <time>2021-08-05T12:35:14.887Z</time>
      </trkpt>
      <trkpt lat="45.47829" lon="6.49475">
        <ele>1336.467664309</ele>
        <time>2021-08-05T12:35:22.185Z</time>
      </trkpt>
      <trkpt lat="45.47843" lon="6.49458">
        <ele>1341.0787519758</ele>
        <time>2021-08-05T12:35:29.507Z</time>
      </trkpt>
      <trkpt lat="45.47846" lon="6.4945">
        <ele>1345.7305653051</ele>
        <time>2021-08-05T12:35:36.838Z</time>
      </trkpt>
      <trkpt lat="45.47843" lon="6.49447">
        <ele>1350.2652195208</ele>
        <time>2021-08-05T12:35:44.174Z</time>
      </trkpt>
      <trkpt lat="45.47839" lon="6.49447">
        <ele>1354.6253785955</ele>
        <time>2021-08-05T12:35:51.515Z</time>
      </trkpt>
      <trkpt lat="45.47823" lon="6.49451">
        <ele>1363.1385864747</ele>
        <time>2021-08-05T12:35:58.878Z</time>
      </trkpt>
      <trkpt lat="45.47821" lon="6.49447">
        <ele>1367.2809119868</ele>
        <time>2021-08-05T12:36:06.245Z</time>
      </trkpt>
      <trkpt lat="45.47829" lon="6.4943">
        <ele>1371.568531641</ele>
        <time>2021-08-05T12:36:13.631Z</time>
      </trkpt>
      <trkpt lat="45.47824" lon="6.49427">
        <ele>1375.6191197215</ele>
        <time>2021-08-05T12:36:21.025Z</time>
      </trkpt>
      <trkpt lat="45.47809" lon="6.4943">
        <ele>1379.5733705589</ele>
        <time>2021-08-05T12:36:28.439Z</time>
      </trkpt>
      <trkpt lat="45.47825" lon="6.49417">
        <ele>1383.4112164516</ele>
        <time>2021-08-05T12:36:35.877Z</time>
      </trkpt>
      <trkpt lat="45.47859" lon="6.49376">
        <ele>1387.6407443015</ele>
        <time>2021-08-05T12:36:43.375Z</time>
      </trkpt>
      <trkpt lat="45.47861" lon="6.49372">
        <ele>1391.3248111992</ele>
        <time>2021-08-05T12:36:50.877Z</time>
      </trkpt>
      <trkpt lat="45.47859" lon="6.49365">
        <ele>1395.0844489934</ele>
        <time>2021-08-05T12:36:58.387Z</time>
      </trkpt>
      <trkpt lat="45.47848" lon="6.49365">
        <ele>1398.6997033873</ele>
        <time>2021-08-05T12:37:05.911Z</time>
      </trkpt>
      <trkpt lat="45.47808" lon="6.49374">
        <ele>1402.5274705285</ele>
        <time>2021-08-05T12:37:13.489Z</time>
      </trkpt>
      <trkpt lat="45.47794" lon="6.49376">
        <ele>1405.9950373139</ele>
        <time>2021-08-05T12:37:21.086Z</time>
      </trkpt>
      <trkpt lat="45.47781" lon="6.49376">
        <ele>1409.3916429666</ele>
        <time>2021-08-05T12:37:28.700Z</time>
      </trkpt>
      <trkpt lat="45.47758" lon="6.49381">
        <ele>1412.4614473378</ele>
        <time>2021-08-05T12:37:36.345Z</time>
      </trkpt>
      <trkpt lat="45.47749" lon="6.49382">
        <ele>1415.5704743128</ele>
        <time>2021-08-05T12:37:44.002Z</time>
      </trkpt>
      <trkpt lat="45.47742" lon="6.49379">
        <ele>1418.6607162306</ele>
        <time>2021-08-05T12:37:51.669Z</time>
      </trkpt>
      <trkpt lat="45.4774" lon="6.49375">
        <ele>1421.7382625036</ele>
        <time>2021-08-05T12:37:59.341Z</time>
      </trkpt>
      <trkpt lat="45.47741" lon="6.49366">
        <ele>1424.88327455</ele>
        <time>2021-08-05T12:38:07.021Z</time>
      </trkpt>
      <trkpt lat="45.47754" lon="6.49358">
        <ele>1428.0101602179</ele>
        <time>2021-08-05T12:38:14.720Z</time>
      </trkpt>
      <trkpt lat="45.47774" lon="6.49351">
        <ele>1431.086071067</ele>
        <time>2021-08-05T12:38:22.447Z</time>
      </trkpt>
      <trkpt lat="45.47811" lon="6.49338">
        <ele>1433.8384485443</ele>
        <time>2021-08-05T12:38:30.224Z</time>
      </trkpt>
      <trkpt lat="45.47814" lon="6.49334">
        <ele>1436.6495082591</ele>
        <time>2021-08-05T12:38:38.007Z</time>
      </trkpt>
      <trkpt lat="45.47813" lon="6.49327">
        <ele>1439.5038138092</ele>
        <time>2021-08-05T12:38:45.797Z</time>
      </trkpt>
      <trkpt lat="45.47809" lon="6.49324">
        <ele>1442.2676707606</ele>
        <time>2021-08-05T12:38:53.593Z</time>
      </trkpt>
      <trkpt lat="45.47784" lon="6.49323">
        <ele>1445.0096187431</ele>
        <time>2021-08-05T12:39:01.422Z</time>
      </trkpt>
      <trkpt lat="45.4776" lon="6.49316">
        <ele>1447.7711873891</ele>
        <time>2021-08-05T12:39:09.284Z</time>
      </trkpt>
      <trkpt lat="45.47737" lon="6.49307">
        <ele>1450.5011622094</ele>
        <time>2021-08-05T12:39:17.178Z</time>
      </trkpt>
      <trkpt lat="45.47695" lon="6.49294">
        <ele>1453.4624403208</ele>
        <time>2021-08-05T12:39:25.129Z</time>
      </trkpt>
      <trkpt lat="45.4768" lon="6.49291">
        <ele>1455.9578019296</ele>
        <time>2021-08-05T12:39:33.100Z</time>
      </trkpt>
      <trkpt lat="45.47654" lon="6.49293">
        <ele>1458.3304219876</ele>
        <time>2021-08-05T12:39:41.106Z</time>
      </trkpt>
      <trkpt lat="45.47618" lon="6.49298">
        <ele>1460.6683449829</ele>
        <time>2021-08-05T12:39:49.160Z</time>
      </trkpt>
      <trkpt lat="45.47613" lon="6.49296">
        <ele>1462.9423548693</ele>
        <time>2021-08-05T12:39:57.221Z</time>
      </trkpt>
      <trkpt lat="45.47612" lon="6.49291">
        <ele>1465.1995939801</ele>
        <time>2021-08-05T12:40:05.287Z</time>
      </trkpt>
      <trkpt lat="45.47615" lon="6.49288">
        <ele>1467.3504268547</ele>
        <time>2021-08-05T12:40:13.358Z</time>
      </trkpt>
      <trkpt lat="45.47637" lon="6.49278">
        <ele>1469.4544812864</ele>
        <time>2021-08-05T12:40:21.460Z</time>
      </trkpt>
      <trkpt lat="45.47645" lon="6.49271">
        <ele>1471.5616003211</ele>
        <time>2021-08-05T12:40:29.574Z</time>
      </trkpt>
      <trkpt lat="45.4767" lon="6.49247">
        <ele>1473.7954331023</ele>
        <time>2021-08-05T12:40:37.728Z</time>
      </trkpt>
      <trkpt lat="45.4768" lon="6.49231">
        <ele>1475.9812131643</ele>
        <time>2021-08-05T12:40:45.902Z</time>
      </trkpt>
      <trkpt lat="45.47692" lon="6.49212">
        <ele>1478.0926048689</ele>
        <time>2021-08-05T12:40:54.100Z</time>
      </trkpt>
      <trkpt lat="45.47706" lon="6.49196">
        <ele>1480.0762458177</ele>
        <time>2021-08-05T12:41:02.322Z</time>
      </trkpt>
      <trkpt lat="45.47721" lon="6.49184">
        <ele>1481.9715849634</ele>
        <time>2021-08-05T12:41:10.567Z</time>
      </trkpt>
      <trkpt lat="45.47749" lon="6.4916">
        <ele>1483.7776959619</ele>
        <time>2021-08-05T12:41:18.856Z</time>
      </trkpt>
      <trkpt lat="45.47765" lon="6.49151">
        <ele>1485.3166027419</ele>
        <time>2021-08-05T12:41:27.168Z</time>
      </trkpt>
      <trkpt lat="45.47769" lon="6.49144">
        <ele>1486.9430460739</ele>
        <time>2021-08-05T12:41:35.488Z</time>
      </trkpt>
      <trkpt lat="45.47769" lon="6.4914">
        <ele>1488.7193291785</ele>
        <time>2021-08-05T12:41:43.812Z</time>
      </trkpt>
      <trkpt lat="45.47757" lon="6.49141">
        <ele>1490.8792862092</ele>
        <time>2021-08-05T12:41:52.152Z</time>
      </trkpt>
      <trkpt lat="45.47749" lon="6.49146">
        <ele>1492.9391686078</ele>
        <time>2021-08-05T12:42:00.504Z</time>
      </trkpt>
      <trkpt lat="45.4774" lon="6.49148">
        <ele>1494.96470496</ele>
        <time>2021-08-05T12:42:08.868Z</time>
      </trkpt>
      <trkpt lat="45.47737" lon="6.49146">
        <ele>1496.9401256686</ele>
        <time>2021-08-05T12:42:17.236Z</time>
      </trkpt>
      <trkpt lat="45.47728" lon="6.49149">
        <ele>1499.0213741477</ele>
        <time>2021-08-05T12:42:25.617Z</time>
      </trkpt>
      <trkpt lat="45.47718" lon="6.4915">
        <ele>1501.1277334407</ele>
        <time>2021-08-05T12:42:34.011Z</time>
      </trkpt>
      <trkpt lat="45.47697" lon="6.49149">
        <ele>1503.39382274</ele>
        <time>2021-08-05T12:42:42.433Z</time>
      </trkpt>
      <trkpt lat="45.47682" lon="6.4915">
        <ele>1505.7147454955</ele>
        <time>2021-08-05T12:42:50.875Z</time>
      </trkpt>
      <trkpt lat="45.47678" lon="6.49142">
        <ele>1508.0389802831</ele>
        <time>2021-08-05T12:42:59.326Z</time>
      </trkpt>
      <trkpt lat="45.47668" lon="6.49135">
        <ele>1510.5140078493</ele>
        <time>2021-08-05T12:43:07.792Z</time>
      </trkpt>
      <trkpt lat="45.47657" lon="6.49132">
        <ele>1513.0309477276</ele>
        <time>2021-08-05T12:43:16.273Z</time>
      </trkpt>
      <trkpt lat="45.4765" lon="6.49132">
        <ele>1515.5227947652</ele>
        <time>2021-08-05T12:43:24.763Z</time>
      </trkpt>
      <trkpt lat="45.47612" lon="6.49145">
        <ele>1518.3258998052</ele>
        <time>2021-08-05T12:43:33.306Z</time>
      </trkpt>
      <trkpt lat="45.47597" lon="6.49147">
        <ele>1520.9014025659</ele>
        <time>2021-08-05T12:43:41.869Z</time>
      </trkpt>
      <trkpt lat="45.4758" lon="6.49154">
        <ele>1523.4855465293</ele>
        <time>2021-08-05T12:43:50.455Z</time>
      </trkpt>
      <trkpt lat="45.47566" lon="6.49154">
        <ele>1526.1863643825</ele>
        <time>2021-08-05T12:43:59.060Z</time>
      </trkpt>
      <trkpt lat="45.47563" lon="6.49152">
        <ele>1528.9123371565</ele>
        <time>2021-08-05T12:44:07.669Z</time>
      </trkpt>
      <trkpt lat="45.47562" lon="6.49145">
        <ele>1531.7312967444</ele>
        <time>2021-08-05T12:44:16.285Z</time>
      </trkpt>
      <trkpt lat="45.4757" lon="6.49135">
        <ele>1534.6460962329</ele>
        <time>2021-08-05T12:44:24.915Z</time>
      </trkpt>
      <trkpt lat="45.4762" lon="6.491">
        <ele>1537.5051055573</ele>
        <time>2021-08-05T12:44:33.620Z</time>
      </trkpt>
      <trkpt lat="45.47625" lon="6.49093">
        <ele>1540.4785205828</ele>
        <time>2021-08-05T12:44:42.334Z</time>
      </trkpt>
      <trkpt lat="45.47634" lon="6.49084">
        <ele>1543.4804117651</ele>
        <time>2021-08-05T12:44:51.063Z</time>
      </trkpt>
      <trkpt lat="45.47642" lon="6.49074">
        <ele>1546.4934117379</ele>
        <time>2021-08-05T12:44:59.806Z</time>
      </trkpt>
      <trkpt lat="45.47638" lon="6.49069">
        <ele>1549.8178298108</ele>
        <time>2021-08-05T12:45:08.556Z</time>
      </trkpt>
      <trkpt lat="45.4761" lon="6.49062">
        <ele>1553.7412627694</ele>
        <time>2021-08-05T12:45:17.344Z</time>
      </trkpt>
      <trkpt lat="45.47568" lon="6.49064">
        <ele>1557.7992333748</ele>
        <time>2021-08-05T12:45:26.188Z</time>
      </trkpt>
      <trkpt lat="45.47534" lon="6.49072">
        <ele>1561.4910715611</ele>
        <time>2021-08-05T12:45:35.078Z</time>
      </trkpt>
      <trkpt lat="45.4753" lon="6.49071">
        <ele>1565.1484120583</ele>
        <time>2021-08-05T12:45:43.973Z</time>
      </trkpt>
      <trkpt lat="45.4753" lon="6.49072">
        <ele>1568.7999618784</ele>
        <time>2021-08-05T12:45:52.869Z</time>
      </trkpt>
      <trkpt lat="45.47527" lon="6.4907">
        <ele>1572.6058942839</ele>
        <time>2021-08-05T12:46:01.770Z</time>
      </trkpt>
      <trkpt lat="45.47524" lon="6.49066">
        <ele>1576.5155305747</ele>
        <time>2021-08-05T12:46:10.676Z</time>
      </trkpt>
      <trkpt lat="45.47524" lon="6.4906">
        <ele>1580.4791506946</ele>
        <time>2021-08-05T12:46:19.588Z</time>
      </trkpt>
      <trkpt lat="45.47526" lon="6.49051">
        <ele>1584.5245104516</ele>
        <time>2021-08-05T12:46:28.509Z</time>
      </trkpt>
      <trkpt lat="45.47535" lon="6.49029">
        <ele>1588.7581760041</ele>
        <time>2021-08-05T12:46:37.453Z</time>
      </trkpt>
      <trkpt lat="45.47547" lon="6.49005">
        <ele>1592.9490962681</ele>
        <time>2021-08-05T12:46:46.425Z</time>
      </trkpt>
      <trkpt lat="45.47551" lon="6.48984">
        <ele>1597.0991560297</ele>
        <time>2021-08-05T12:46:55.417Z</time>
      </trkpt>
      <trkpt lat="45.47548" lon="6.4898">
        <ele>1601.3085895654</ele>
        <time>2021-08-05T12:47:04.415Z</time>
      </trkpt>
      <trkpt lat="45.47529" lon="6.48986">
        <ele>1605.8641276915</ele>
        <time>2021-08-05T12:47:13.439Z</time>
      </trkpt>
      <trkpt lat="45.47477" lon="6.49012">
        <ele>1610.0547409938</ele>
        <time>2021-08-05T12:47:22.536Z</time>
      </trkpt>
      <trkpt lat="45.47402" lon="6.4902">
        <ele>1614.7474359829</ele>
        <time>2021-08-05T12:47:31.734Z</time>
      </trkpt>
      <trkpt lat="45.47395" lon="6.49017">
        <ele>1618.9978830052</ele>
        <time>2021-08-05T12:47:40.941Z</time>
      </trkpt>
      <trkpt lat="45.47395" lon="6.49015">
        <ele>1623.1469988454</ele>
        <time>2021-08-05T12:47:50.150Z</time>
      </trkpt>
      <trkpt lat="45.47414" lon="6.48986">
        <ele>1627.3350128268</ele>
        <time>2021-08-05T12:47:59.397Z</time>
      </trkpt>
      <trkpt lat="45.47465" lon="6.489">
        <ele>1632.1909758338</ele>
        <time>2021-08-05T12:48:08.749Z</time>
      </trkpt>
      <trkpt lat="45.47477" lon="6.4888">
        <ele>1636.2590806798</ele>
        <time>2021-08-05T12:48:18.126Z</time>
      </trkpt>
      <trkpt lat="45.4748" lon="6.48872">
        <ele>1640.2744447397</ele>
        <time>2021-08-05T12:48:27.511Z</time>
      </trkpt>
      <trkpt lat="45.47455" lon="6.48875">
        <ele>1644.4670457207</ele>
        <time>2021-08-05T12:48:36.930Z</time>
      </trkpt>
      <trkpt lat="45.47433" lon="6.48869">
        <ele>1648.5833591737</ele>
        <time>2021-08-05T12:48:46.379Z</time>
      </trkpt>
      <trkpt lat="45.4742" lon="6.48861">
        <ele>1652.5207846182</ele>
        <time>2021-08-05T12:48:55.846Z</time>
      </trkpt>
      <trkpt lat="45.4742" lon="6.48858">
        <ele>1656.2080145613</ele>
        <time>2021-08-05T12:49:05.316Z</time>
      </trkpt>
      <trkpt lat="45.4745" lon="6.48833">
        <ele>1659.8165835839</ele>
        <time>2021-08-05T12:49:14.833Z</time>
      </trkpt>
      <trkpt lat="45.47465" lon="6.48795">
        <ele>1663.3981430867</ele>
        <time>2021-08-05T12:49:24.391Z</time>
      </trkpt>
      <trkpt lat="45.47467" lon="6.48788">
        <ele>1666.8487828908</ele>
        <time>2021-08-05T12:49:33.956Z</time>
      </trkpt>
      <trkpt lat="45.47454" lon="6.48799">
        <ele>1670.1709016</ele>
        <time>2021-08-05T12:49:43.541Z</time>
      </trkpt>
      <trkpt lat="45.47437" lon="6.48806">
        <ele>1673.5190716362</ele>
        <time>2021-08-05T12:49:53.149Z</time>
      </trkpt>
      <trkpt lat="45.47416" lon="6.48804">
        <ele>1676.7913508872</ele>
        <time>2021-08-05T12:50:02.786Z</time>
      </trkpt>
      <trkpt lat="45.47406" lon="6.48802">
        <ele>1679.9023563928</ele>
        <time>2021-08-05T12:50:12.436Z</time>
      </trkpt>
      <trkpt lat="45.47388" lon="6.48806">
        <ele>1682.9479191666</ele>
        <time>2021-08-05T12:50:22.110Z</time>
      </trkpt>
      <trkpt lat="45.47374" lon="6.48817">
        <ele>1685.7143333639</ele>
        <time>2021-08-05T12:50:31.806Z</time>
      </trkpt>
      <trkpt lat="45.47368" lon="6.48824">
        <ele>1688.3225055871</ele>
        <time>2021-08-05T12:50:41.512Z</time>
      </trkpt>
      <trkpt lat="45.47366" lon="6.48823">
        <ele>1690.9139046691</ele>
        <time>2021-08-05T12:50:51.221Z</time>
      </trkpt>
      <trkpt lat="45.47366" lon="6.48817">
        <ele>1693.47190401</ele>
        <time>2021-08-05T12:51:00.935Z</time>
      </trkpt>
      <trkpt lat="45.47372" lon="6.488">
        <ele>1696.0485980883</ele>
        <time>2021-08-05T12:51:10.667Z</time>
      </trkpt>
      <trkpt lat="45.47371" lon="6.48798">
        <ele>1698.4011259509</ele>
        <time>2021-08-05T12:51:20.402Z</time>
      </trkpt>
      <trkpt lat="45.47357" lon="6.48813">
        <ele>1700.5612244972</ele>
        <time>2021-08-05T12:51:30.160Z</time>
      </trkpt>
      <trkpt lat="45.47337" lon="6.48829">
        <ele>1702.8153659557</ele>
        <time>2021-08-05T12:51:39.949Z</time>
      </trkpt>
      <trkpt lat="45.47327" lon="6.48841">
        <ele>1704.9578518298</ele>
        <time>2021-08-05T12:51:49.755Z</time>
      </trkpt>
      <trkpt lat="45.47324" lon="6.48846">
        <ele>1707.0106785116</ele>
        <time>2021-08-05T12:51:59.567Z</time>
      </trkpt>
      <trkpt lat="45.47325" lon="6.4884">
        <ele>1709.0488157223</ele>
        <time>2021-08-05T12:52:09.385Z</time>
      </trkpt>
      <trkpt lat="45.47326" lon="6.48818">
        <ele>1711.2701760153</ele>
        <time>2021-08-05T12:52:19.224Z</time>
      </trkpt>
      <trkpt lat="45.47329" lon="6.48809">
        <ele>1713.2574657624</ele>
        <time>2021-08-05T12:52:29.072Z</time>
      </trkpt>
      <trkpt lat="45.4734" lon="6.48799">
        <ele>1715.1283193228</ele>
        <time>2021-08-05T12:52:38.937Z</time>
      </trkpt>
      <trkpt lat="45.4735" lon="6.48787">
        <ele>1717.0497977793</ele>
        <time>2021-08-05T12:52:48.820Z</time>
      </trkpt>
      <trkpt lat="45.47364" lon="6.48754">
        <ele>1719.0795961792</ele>
        <time>2021-08-05T12:52:58.739Z</time>
      </trkpt>
      <trkpt lat="45.47373" lon="6.48739">
        <ele>1720.8998125859</ele>
        <time>2021-08-05T12:53:08.677Z</time>
      </trkpt>
      <trkpt lat="45.47384" lon="6.48718">
        <ele>1722.7191996078</ele>
        <time>2021-08-05T12:53:18.639Z</time>
      </trkpt>
      <trkpt lat="45.47368" lon="6.48731">
        <ele>1724.623563129</ele>
        <time>2021-08-05T12:53:28.626Z</time>
      </trkpt>
      <trkpt lat="45.47354" lon="6.48741">
        <ele>1726.4952489725</ele>
        <time>2021-08-05T12:53:38.634Z</time>
      </trkpt>
      <trkpt lat="45.47338" lon="6.48751">
        <ele>1728.4399039586</ele>
        <time>2021-08-05T12:53:48.665Z</time>
      </trkpt>
      <trkpt lat="45.4733" lon="6.4876">
        <ele>1730.1789885444</ele>
        <time>2021-08-05T12:53:58.709Z</time>
      </trkpt>
      <trkpt lat="45.47326" lon="6.4876">
        <ele>1731.9570690433</ele>
        <time>2021-08-05T12:54:08.759Z</time>
      </trkpt>
      <trkpt lat="45.47325" lon="6.48756">
        <ele>1733.7268448632</ele>
        <time>2021-08-05T12:54:18.813Z</time>
      </trkpt>
      <trkpt lat="45.47329" lon="6.4875">
        <ele>1735.4272127835</ele>
        <time>2021-08-05T12:54:28.875Z</time>
      </trkpt>
      <trkpt lat="45.4734" lon="6.48728">
        <ele>1737.0773889562</ele>
        <time>2021-08-05T12:54:38.962Z</time>
      </trkpt>
      <trkpt lat="45.47355" lon="6.4869">
        <ele>1738.8615495149</ele>
        <time>2021-08-05T12:54:49.090Z</time>
      </trkpt>
      <trkpt lat="45.47362" lon="6.48664">
        <ele>1740.5961295908</ele>
        <time>2021-08-05T12:54:59.244Z</time>
      </trkpt>
      <trkpt lat="45.4737" lon="6.48613">
        <ele>1742.4552343507</ele>
        <time>2021-08-05T12:55:09.447Z</time>
      </trkpt>
      <trkpt lat="45.47373" lon="6.48584">
        <ele>1744.2833184293</ele>
        <time>2021-08-05T12:55:19.677Z</time>
      </trkpt>
      <trkpt lat="45.4737" lon="6.48572">
        <ele>1746.0262772558</ele>
        <time>2021-08-05T12:55:29.919Z</time>
      </trkpt>
      <trkpt lat="45.47344" lon="6.48608">
        <ele>1747.7311245703</ele>
        <time>2021-08-05T12:55:40.210Z</time>
      </trkpt>
      <trkpt lat="45.4734" lon="6.48606">
        <ele>1749.3486138961</ele>
        <time>2021-08-05T12:55:50.506Z</time>
      </trkpt>
      <trkpt lat="45.47352" lon="6.48555">
        <ele>1751.0873503494</ele>
        <time>2021-08-05T12:56:00.853Z</time>
      </trkpt>
      <trkpt lat="45.47364" lon="6.48493">
        <ele>1752.7736805372</ele>
        <time>2021-08-05T12:56:11.260Z</time>
      </trkpt>
      <trkpt lat="45.4737" lon="6.48456">
        <ele>1754.2016252702</ele>
        <time>2021-08-05T12:56:21.703Z</time>
      </trkpt>
      <trkpt lat="45.47369" lon="6.48437">
        <ele>1755.6346441727</ele>
        <time>2021-08-05T12:56:32.164Z</time>
      </trkpt>
      <trkpt lat="45.47372" lon="6.48418">
        <ele>1756.9399260451</ele>
        <time>2021-08-05T12:56:42.643Z</time>
      </trkpt>
      <trkpt lat="45.4737" lon="6.48405">
        <ele>1758.2768881863</ele>
        <time>2021-08-05T12:56:53.135Z</time>
      </trkpt>
      <trkpt lat="45.47353" lon="6.48373">
        <ele>1759.7538415024</ele>
        <time>2021-08-05T12:57:03.664Z</time>
      </trkpt>
      <trkpt lat="45.47327" lon="6.48328">
        <ele>1761.0259670118</ele>
        <time>2021-08-05T12:57:14.248Z</time>
      </trkpt>
      <trkpt lat="45.47322" lon="6.48321">
        <ele>1762.2512869678</ele>
        <time>2021-08-05T12:57:24.841Z</time>
      </trkpt>
      <trkpt lat="45.47301" lon="6.48287">
        <ele>1763.4009689032</ele>
        <time>2021-08-05T12:57:35.477Z</time>
      </trkpt>
      <trkpt lat="45.47298" lon="6.48288">
        <ele>1764.6600553483</ele>
        <time>2021-08-05T12:57:46.117Z</time>
      </trkpt>
      <trkpt lat="45.47291" lon="6.48282">
        <ele>1765.8962284045</ele>
        <time>2021-08-05T12:57:56.768Z</time>
      </trkpt>
      <trkpt lat="45.47273" lon="6.48251">
        <ele>1767.1095612664</ele>
        <time>2021-08-05T12:58:07.456Z</time>
      </trkpt>
      <trkpt lat="45.4726" lon="6.48223">
        <ele>1768.3550402595</ele>
        <time>2021-08-05T12:58:18.176Z</time>
      </trkpt>
      <trkpt lat="45.47242" lon="6.48195">
        <ele>1769.6659006803</ele>
        <time>2021-08-05T12:58:28.931Z</time>
      </trkpt>
      <trkpt lat="45.47211" lon="6.48157">
        <ele>1770.9764291883</ele>
        <time>2021-08-05T12:58:39.741Z</time>
      </trkpt>
      <trkpt lat="45.47197" lon="6.48142">
        <ele>1772.2401484482</ele>
        <time>2021-08-05T12:58:50.574Z</time>
      </trkpt>
      <trkpt lat="45.47163" lon="6.48116">
        <ele>1773.6319573801</ele>
        <time>2021-08-05T12:59:01.459Z</time>
      </trkpt>
      <trkpt lat="45.47154" lon="6.48108">
        <ele>1774.9633917204</ele>
        <time>2021-08-05T12:59:12.358Z</time>
      </trkpt>
      <trkpt lat="45.47147" lon="6.48101">
        <ele>1776.3113138953</ele>
        <time>2021-08-05T12:59:23.268Z</time>
      </trkpt>
      <trkpt lat="45.47142" lon="6.48089">
        <ele>1777.6269975914</ele>
        <time>2021-08-05T12:59:34.192Z</time>
      </trkpt>
      <trkpt lat="45.47133" lon="6.48069">
        <ele>1779.0066996235</ele>
        <time>2021-08-05T12:59:45.138Z</time>
      </trkpt>
      <trkpt lat="45.47119" lon="6.48059">
        <ele>1780.5762394523</ele>
        <time>2021-08-05T12:59:56.105Z</time>
      </trkpt>
      <trkpt lat="45.47101" lon="6.48046">
        <ele>1782.2362916466</ele>
        <time>2021-08-05T13:00:07.099Z</time>
      </trkpt>
      <trkpt lat="45.47071" lon="6.48028">
        <ele>1784.0242611042</ele>
        <time>2021-08-05T13:00:18.136Z</time>
      </trkpt>
      <trkpt lat="45.47056" lon="6.48015">
        <ele>1785.7307053786</ele>
        <time>2021-08-05T13:00:29.196Z</time>
      </trkpt>
      <trkpt lat="45.47036" lon="6.47986">
        <ele>1787.5954793176</ele>
        <time>2021-08-05T13:00:40.295Z</time>
      </trkpt>
      <trkpt lat="45.47033" lon="6.47975">
        <ele>1789.4188211029</ele>
        <time>2021-08-05T13:00:51.405Z</time>
      </trkpt>
      <trkpt lat="45.47029" lon="6.47972">
        <ele>1791.3524558903</ele>
        <time>2021-08-05T13:01:02.521Z</time>
      </trkpt>
      <trkpt lat="45.47023" lon="6.47974">
        <ele>1793.4523427358</ele>
        <time>2021-08-05T13:01:13.645Z</time>
      </trkpt>
      <trkpt lat="45.47022" lon="6.47984">
        <ele>1795.5413893701</ele>
        <time>2021-08-05T13:01:24.778Z</time>
      </trkpt>
      <trkpt lat="45.47031" lon="6.48033">
        <ele>1797.8374086751</ele>
        <time>2021-08-05T13:01:35.959Z</time>
      </trkpt>
      <trkpt lat="45.47018" lon="6.48016">
        <ele>1800.1953571923</ele>
        <time>2021-08-05T13:01:47.163Z</time>
      </trkpt>
      <trkpt lat="45.47008" lon="6.48">
        <ele>1802.6373733987</ele>
        <time>2021-08-05T13:01:58.388Z</time>
      </trkpt>
      <trkpt lat="45.47004" lon="6.47998">
        <ele>1805.1896623367</ele>
        <time>2021-08-05T13:02:09.618Z</time>
      </trkpt>
      <trkpt lat="45.47" lon="6.48021">
        <ele>1807.9515112238</ele>
        <time>2021-08-05T13:02:20.870Z</time>
      </trkpt>
      <trkpt lat="45.46998" lon="6.48046">
        <ele>1810.8641108554</ele>
        <time>2021-08-05T13:02:32.146Z</time>
      </trkpt>
      <trkpt lat="45.46998" lon="6.48059">
        <ele>1813.7687180378</ele>
        <time>2021-08-05T13:02:43.434Z</time>
      </trkpt>
      <trkpt lat="45.47" lon="6.48086">
        <ele>1816.9250043983</ele>
        <time>2021-08-05T13:02:54.748Z</time>
      </trkpt>
      <trkpt lat="45.46999" lon="6.48092">
        <ele>1823.1153846198</ele>
        <time>2021-08-05T13:03:06.068Z</time>
      </trkpt>
      <trkpt lat="45.46996" lon="6.48092">
        <ele>1826.3697832234</ele>
        <time>2021-08-05T13:03:17.392Z</time>
      </trkpt>
      <trkpt lat="45.46983" lon="6.48081">
        <ele>1829.7280970227</ele>
        <time>2021-08-05T13:03:28.736Z</time>
      </trkpt>
      <trkpt lat="45.46973" lon="6.48075">
        <ele>1833.2266801235</ele>
        <time>2021-08-05T13:03:40.094Z</time>
      </trkpt>
      <trkpt lat="45.46965" lon="6.48066">
        <ele>1836.8373249759</ele>
        <time>2021-08-05T13:03:51.466Z</time>
      </trkpt>
      <trkpt lat="45.4695" lon="6.48053">
        <ele>1840.678512862</ele>
        <time>2021-08-05T13:04:02.861Z</time>
      </trkpt>
      <trkpt lat="45.46938" lon="6.48045">
        <ele>1844.6644435375</ele>
        <time>2021-08-05T13:04:14.274Z</time>
      </trkpt>
      <trkpt lat="45.46931" lon="6.48032">
        <ele>1848.6550713676</ele>
        <time>2021-08-05T13:04:25.702Z</time>
      </trkpt>
      <trkpt lat="45.46919" lon="6.4802">
        <ele>1852.8495899062</ele>
        <time>2021-08-05T13:04:37.150Z</time>
      </trkpt>
      <trkpt lat="45.46908" lon="6.48006">
        <ele>1857.1148241918</ele>
        <time>2021-08-05T13:04:48.618Z</time>
      </trkpt>
      <trkpt lat="45.46882" lon="6.47963">
        <ele>1861.5857033781</ele>
        <time>2021-08-05T13:05:00.139Z</time>
      </trkpt>
      <trkpt lat="45.46856" lon="6.47935">
        <ele>1866.1526317016</ele>
        <time>2021-08-05T13:05:11.703Z</time>
      </trkpt>
      <trkpt lat="45.46841" lon="6.47923">
        <ele>1870.7067218681</ele>
        <time>2021-08-05T13:05:23.290Z</time>
      </trkpt>
      <trkpt lat="45.4682" lon="6.47906">
        <ele>1875.3920271492</ele>
        <time>2021-08-05T13:05:34.909Z</time>
      </trkpt>
      <trkpt lat="45.46797" lon="6.47883">
        <ele>1880.1255052557</ele>
        <time>2021-08-05T13:05:46.566Z</time>
      </trkpt>
      <trkpt lat="45.46791" lon="6.47875">
        <ele>1884.6785625651</ele>
        <time>2021-08-05T13:05:58.234Z</time>
      </trkpt>
      <trkpt lat="45.46781" lon="6.47861">
        <ele>1889.3145825898</ele>
        <time>2021-08-05T13:06:09.921Z</time>
      </trkpt>
      <trkpt lat="45.46771" lon="6.47853">
        <ele>1893.9787207687</ele>
        <time>2021-08-05T13:06:21.623Z</time>
      </trkpt>
      <trkpt lat="45.46759" lon="6.47835">
        <ele>1898.6710820632</ele>
        <time>2021-08-05T13:06:33.348Z</time>
      </trkpt>
      <trkpt lat="45.46741" lon="6.47816">
        <ele>1903.4476743364</ele>
        <time>2021-08-05T13:06:45.103Z</time>
      </trkpt>
      <trkpt lat="45.46728" lon="6.47797">
        <ele>1908.1444887602</ele>
        <time>2021-08-05T13:06:56.883Z</time>
      </trkpt>
      <trkpt lat="45.4672" lon="6.47794">
        <ele>1912.8165027732</ele>
        <time>2021-08-05T13:07:08.674Z</time>
      </trkpt>
      <trkpt lat="45.46707" lon="6.47796">
        <ele>1917.595490017</ele>
        <time>2021-08-05T13:07:20.482Z</time>
      </trkpt>
      <trkpt lat="45.46688" lon="6.47802">
        <ele>1922.5265959152</ele>
        <time>2021-08-05T13:07:32.316Z</time>
      </trkpt>
      <trkpt lat="45.46672" lon="6.47801">
        <ele>1927.3839443577</ele>
        <time>2021-08-05T13:07:44.172Z</time>
      </trkpt>
      <trkpt lat="45.46666" lon="6.47809">
        <ele>1932.092644763</ele>
        <time>2021-08-05T13:07:56.039Z</time>
      </trkpt>
      <trkpt lat="45.46658" lon="6.47802">
        <ele>1936.6211511645</ele>
        <time>2021-08-05T13:08:07.918Z</time>
      </trkpt>
      <trkpt lat="45.46642" lon="6.47799">
        <ele>1941.2390969366</ele>
        <time>2021-08-05T13:08:19.819Z</time>
      </trkpt>
      <trkpt lat="45.46632" lon="6.47808">
        <ele>1945.8617535208</ele>
        <time>2021-08-05T13:08:31.736Z</time>
      </trkpt>
      <trkpt lat="45.46631" lon="6.47819">
        <ele>1950.3572300755</ele>
        <time>2021-08-05T13:08:43.663Z</time>
      </trkpt>
      <trkpt lat="45.46633" lon="6.4783">
        <ele>1954.7670362876</ele>
        <time>2021-08-05T13:08:55.601Z</time>
      </trkpt>
      <trkpt lat="45.46627" lon="6.47835">
        <ele>1959.1242374147</ele>
        <time>2021-08-05T13:09:07.548Z</time>
      </trkpt>
      <trkpt lat="45.46627" lon="6.4785">
        <ele>1963.4229373217</ele>
        <time>2021-08-05T13:09:19.509Z</time>
      </trkpt>
      <trkpt lat="45.46622" lon="6.47858">
        <ele>1967.6837075258</ele>
        <time>2021-08-05T13:09:31.480Z</time>
      </trkpt>
      <trkpt lat="45.46608" lon="6.47865">
        <ele>1971.9864352705</ele>
        <time>2021-08-05T13:09:43.471Z</time>
      </trkpt>
      <trkpt lat="45.46592" lon="6.47866">
        <ele>1976.2071317367</ele>
        <time>2021-08-05T13:09:55.483Z</time>
      </trkpt>
      <trkpt lat="45.46566" lon="6.4786">
        <ele>1980.4042369727</ele>
        <time>2021-08-05T13:10:07.530Z</time>
      </trkpt>
      <trkpt lat="45.46551" lon="6.47857">
        <ele>1984.4184154034</ele>
        <time>2021-08-05T13:10:19.598Z</time>
      </trkpt>
      <trkpt lat="45.46544" lon="6.47861">
        <ele>1988.3126506948</ele>
        <time>2021-08-05T13:10:31.676Z</time>
      </trkpt>
      <trkpt lat="45.46542" lon="6.4787">
        <ele>1992.1016592511</ele>
        <time>2021-08-05T13:10:43.762Z</time>
      </trkpt>
      <trkpt lat="45.46542" lon="6.47898">
        <ele>1996.0288433722</ele>
        <time>2021-08-05T13:10:55.875Z</time>
      </trkpt>
      <trkpt lat="45.46545" lon="6.47921">
        <ele>1999.760588652</ele>
        <time>2021-08-05T13:11:08.010Z</time>
      </trkpt>
      <trkpt lat="45.46541" lon="6.4795">
        <ele>2003.5157922825</ele>
        <time>2021-08-05T13:11:20.172Z</time>
      </trkpt>
      <trkpt lat="45.46542" lon="6.47977">
        <ele>2007.1100550171</ele>
        <time>2021-08-05T13:11:32.360Z</time>
      </trkpt>
      <trkpt lat="45.46542" lon="6.48002">
        <ele>2010.5449625854</ele>
        <time>2021-08-05T13:11:44.571Z</time>
      </trkpt>
      <trkpt lat="45.46535" lon="6.48014">
        <ele>2013.7526808069</ele>
        <time>2021-08-05T13:11:56.797Z</time>
      </trkpt>
      <trkpt lat="45.46529" lon="6.48017">
        <ele>2016.7911212364</ele>
        <time>2021-08-05T13:12:09.031Z</time>
      </trkpt>
      <trkpt lat="45.46513" lon="6.48028">
        <ele>2019.8324794324</ele>
        <time>2021-08-05T13:12:21.289Z</time>
      </trkpt>
      <trkpt lat="45.46511" lon="6.48031">
        <ele>2022.6489790417</ele>
        <time>2021-08-05T13:12:33.551Z</time>
      </trkpt>
      <trkpt lat="45.46506" lon="6.4803">
        <ele>2025.3784219182</ele>
        <time>2021-08-05T13:12:45.820Z</time>
      </trkpt>
      <trkpt lat="45.46498" lon="6.48024">
        <ele>2028.0260360223</ele>
        <time>2021-08-05T13:12:58.101Z</time>
      </trkpt>
      <trkpt lat="45.46493" lon="6.48024">
        <ele>2030.5999528583</ele>
        <time>2021-08-05T13:13:10.388Z</time>
      </trkpt>
      <trkpt lat="45.46482" lon="6.4803">
        <ele>2033.1444136497</ele>
        <time>2021-08-05T13:13:22.691Z</time>
      </trkpt>
      <trkpt lat="45.46477" lon="6.48018">
        <ele>2035.5419903334</ele>
        <time>2021-08-05T13:13:35.007Z</time>
      </trkpt>
      <trkpt lat="45.46471" lon="6.48017">
        <ele>2037.8726810387</ele>
        <time>2021-08-05T13:13:47.331Z</time>
      </trkpt>
      <trkpt lat="45.46468" lon="6.4801">
        <ele>2040.1023822393</ele>
        <time>2021-08-05T13:13:59.663Z</time>
      </trkpt>
      <trkpt lat="45.46464" lon="6.48009">
        <ele>2042.2761860677</ele>
        <time>2021-08-05T13:14:12.000Z</time>
      </trkpt>
      <trkpt lat="45.46458" lon="6.47995">
        <ele>2044.404314607</ele>
        <time>2021-08-05T13:14:24.353Z</time>
      </trkpt>
      <trkpt lat="45.46446" lon="6.47991">
        <ele>2046.5475430737</ele>
        <time>2021-08-05T13:14:36.722Z</time>
      </trkpt>
      <trkpt lat="45.4644" lon="6.47993">
        <ele>2048.5871320813</ele>
        <time>2021-08-05T13:14:49.099Z</time>
      </trkpt>
      <trkpt lat="45.46419" lon="6.47988">
        <ele>2050.8279881781</ele>
        <time>2021-08-05T13:15:01.505Z</time>
      </trkpt>
      <trkpt lat="45.46414" lon="6.47999">
        <ele>2052.7698792348</ele>
        <time>2021-08-05T13:15:13.923Z</time>
      </trkpt>
      <trkpt lat="45.4641" lon="6.47997">
        <ele>2054.6235956376</ele>
        <time>2021-08-05T13:15:26.347Z</time>
      </trkpt>
      <trkpt lat="45.46402" lon="6.47988">
        <ele>2056.4894079219</ele>
        <time>2021-08-05T13:15:38.784Z</time>
      </trkpt>
      <trkpt lat="45.4639" lon="6.4798">
        <ele>2058.3708677146</ele>
        <time>2021-08-05T13:15:51.239Z</time>
      </trkpt>
      <trkpt lat="45.46379" lon="6.47971">
        <ele>2060.158713965</ele>
        <time>2021-08-05T13:16:03.711Z</time>
      </trkpt>
      <trkpt lat="45.46368" lon="6.47963">
        <ele>2061.8708934141</ele>
        <time>2021-08-05T13:16:16.199Z</time>
      </trkpt>
      <trkpt lat="45.46361" lon="6.47953">
        <ele>2063.509266169</ele>
        <time>2021-08-05T13:16:28.701Z</time>
      </trkpt>
      <trkpt lat="45.46352" lon="6.47944">
        <ele>2065.1597952842</ele>
        <time>2021-08-05T13:16:41.217Z</time>
      </trkpt>
      <trkpt lat="45.46342" lon="6.47939">
        <ele>2066.8147952711</ele>
        <time>2021-08-05T13:16:53.748Z</time>
      </trkpt>
      <trkpt lat="45.46325" lon="6.47926">
        <ele>2068.4592287099</ele>
        <time>2021-08-05T13:17:06.304Z</time>
      </trkpt>
      <trkpt lat="45.46314" lon="6.4792">
        <ele>2070.0614392872</ele>
        <time>2021-08-05T13:17:18.876Z</time>
      </trkpt>
      <trkpt lat="45.46305" lon="6.47907">
        <ele>2071.6006289149</ele>
        <time>2021-08-05T13:17:31.465Z</time>
      </trkpt>
      <trkpt lat="45.46271" lon="6.47887">
        <ele>2073.2695410604</ele>
        <time>2021-08-05T13:17:44.103Z</time>
      </trkpt>
      <trkpt lat="45.46252" lon="6.47875">
        <ele>2074.8810602955</ele>
        <time>2021-08-05T13:17:56.769Z</time>
      </trkpt>
      <trkpt lat="45.46245" lon="6.47867">
        <ele>2076.4755869738</ele>
        <time>2021-08-05T13:18:09.447Z</time>
      </trkpt>
      <trkpt lat="45.46238" lon="6.47864">
        <ele>2078.0908296166</ele>
        <time>2021-08-05T13:18:22.135Z</time>
      </trkpt>
      <trkpt lat="45.46224" lon="6.47857">
        <ele>2079.7744381225</ele>
        <time>2021-08-05T13:18:34.842Z</time>
      </trkpt>
      <trkpt lat="45.46211" lon="6.47844">
        <ele>2081.5605459122</ele>
        <time>2021-08-05T13:18:47.571Z</time>
      </trkpt>
      <trkpt lat="45.46206" lon="6.47843">
        <ele>2083.248621682</ele>
        <time>2021-08-05T13:19:00.306Z</time>
      </trkpt>
      <trkpt lat="45.462" lon="6.47841">
        <ele>2084.9656942298</ele>
        <time>2021-08-05T13:19:13.050Z</time>
      </trkpt>
      <trkpt lat="45.46195" lon="6.47841">
        <ele>2086.6723726205</ele>
        <time>2021-08-05T13:19:25.800Z</time>
      </trkpt>
      <trkpt lat="45.46183" lon="6.47838">
        <ele>2090.2170716882</ele>
        <time>2021-08-05T13:19:38.566Z</time>
      </trkpt>
      <trkpt lat="45.46172" lon="6.47834">
        <ele>2092.096497404</ele>
        <time>2021-08-05T13:19:51.348Z</time>
      </trkpt>
      <trkpt lat="45.46174" lon="6.47827">
        <ele>2093.9246341501</ele>
        <time>2021-08-05T13:20:04.137Z</time>
      </trkpt>
      <trkpt lat="45.46167" lon="6.47823">
        <ele>2095.8347361575</ele>
        <time>2021-08-05T13:20:16.936Z</time>
      </trkpt>
      <trkpt lat="45.46161" lon="6.47824">
        <ele>2097.7305457373</ele>
        <time>2021-08-05T13:20:29.743Z</time>
      </trkpt>
      <trkpt lat="45.46145" lon="6.47825">
        <ele>2099.7969325598</ele>
        <time>2021-08-05T13:20:42.571Z</time>
      </trkpt>
      <trkpt lat="45.46127" lon="6.47831">
        <ele>2101.8457308467</ele>
        <time>2021-08-05T13:20:55.424Z</time>
      </trkpt>
      <trkpt lat="45.46125" lon="6.4783">
        <ele>2103.7860727531</ele>
        <time>2021-08-05T13:21:08.280Z</time>
      </trkpt>
      <trkpt lat="45.46126" lon="6.47823">
        <ele>2105.7763872006</ele>
        <time>2021-08-05T13:21:21.142Z</time>
      </trkpt>
      <trkpt lat="45.46125" lon="6.47808">
        <ele>2107.8982119284</ele>
        <time>2021-08-05T13:21:34.019Z</time>
      </trkpt>
      <trkpt lat="45.46118" lon="6.47806">
        <ele>2109.9740948247</ele>
        <time>2021-08-05T13:21:46.905Z</time>
      </trkpt>
      <trkpt lat="45.46117" lon="6.47801">
        <ele>2112.0151265688</ele>
        <time>2021-08-05T13:21:59.796Z</time>
      </trkpt>
      <trkpt lat="45.46113" lon="6.47799">
        <ele>2114.0843180712</ele>
        <time>2021-08-05T13:22:12.693Z</time>
      </trkpt>
      <trkpt lat="45.46107" lon="6.47799">
        <ele>2116.1517589547</ele>
        <time>2021-08-05T13:22:25.598Z</time>
      </trkpt>
      <trkpt lat="45.46097" lon="6.47793">
        <ele>2118.262936961</ele>
        <time>2021-08-05T13:22:38.517Z</time>
      </trkpt>
      <trkpt lat="45.46092" lon="6.47789">
        <ele>2120.3591879497</ele>
        <time>2021-08-05T13:22:51.444Z</time>
      </trkpt>
      <trkpt lat="45.46092" lon="6.47782">
        <ele>2122.4871339991</ele>
        <time>2021-08-05T13:23:04.377Z</time>
      </trkpt>
      <trkpt lat="45.46089" lon="6.47764">
        <ele>2124.8160276212</ele>
        <time>2021-08-05T13:23:17.328Z</time>
      </trkpt>
      <trkpt lat="45.46095" lon="6.47755">
        <ele>2126.9845333342</ele>
        <time>2021-08-05T13:23:30.290Z</time>
      </trkpt>
      <trkpt lat="45.46099" lon="6.47743">
        <ele>2129.1899231696</ele>
        <time>2021-08-05T13:23:43.265Z</time>
      </trkpt>
      <trkpt lat="45.46097" lon="6.47734">
        <ele>2131.4505922549</ele>
        <time>2021-08-05T13:23:56.249Z</time>
      </trkpt>
      <trkpt lat="45.46092" lon="6.47727">
        <ele>2133.7172730962</ele>
        <time>2021-08-05T13:24:09.242Z</time>
      </trkpt>
      <trkpt lat="45.46088" lon="6.47725">
        <ele>2135.8995031521</ele>
        <time>2021-08-05T13:24:22.241Z</time>
      </trkpt>
      <trkpt lat="45.46082" lon="6.47722">
        <ele>2138.113493776</ele>
        <time>2021-08-05T13:24:35.248Z</time>
      </trkpt>
      <trkpt lat="45.46076" lon="6.47723">
        <ele>2140.1790802344</ele>
        <time>2021-08-05T13:24:48.263Z</time>
      </trkpt>
      <trkpt lat="45.46068" lon="6.47718">
        <ele>2142.3310776627</ele>
        <time>2021-08-05T13:25:01.290Z</time>
      </trkpt>
      <trkpt lat="45.46063" lon="6.47714">
        <ele>2144.5049028763</ele>
        <time>2021-08-05T13:25:14.324Z</time>
      </trkpt>
      <trkpt lat="45.46067" lon="6.47708">
        <ele>2146.8041076515</ele>
        <time>2021-08-05T13:25:27.366Z</time>
      </trkpt>
      <trkpt lat="45.46075" lon="6.47704">
        <ele>2148.9978957262</ele>
        <time>2021-08-05T13:25:40.420Z</time>
      </trkpt>
      <trkpt lat="45.46081" lon="6.47698">
        <ele>2151.1969732399</ele>
        <time>2021-08-05T13:25:53.483Z</time>
      </trkpt>
      <trkpt lat="45.46074" lon="6.47686">
        <ele>2153.5371301182</ele>
        <time>2021-08-05T13:26:06.561Z</time>
      </trkpt>
      <trkpt lat="45.46051" lon="6.4767">
        <ele>2156.003847775</ele>
        <time>2021-08-05T13:26:19.673Z</time>
      </trkpt>
      <trkpt lat="45.46047" lon="6.47668">
        <ele>2158.203999763</ele>
        <time>2021-08-05T13:26:32.791Z</time>
      </trkpt>
      <trkpt lat="45.46043" lon="6.47658">
        <ele>2160.523482801</ele>
        <time>2021-08-05T13:26:45.920Z</time>
      </trkpt>
      <trkpt lat="45.46044" lon="6.47654">
        <ele>2162.7457860939</ele>
        <time>2021-08-05T13:26:59.053Z</time>
      </trkpt>
      <trkpt lat="45.4605" lon="6.47649">
        <ele>2164.9915754807</ele>
        <time>2021-08-05T13:27:12.195Z</time>
      </trkpt>
      <trkpt lat="45.46047" lon="6.47642">
        <ele>2167.249601427</ele>
        <time>2021-08-05T13:27:25.345Z</time>
      </trkpt>
      <trkpt lat="45.46041" lon="6.47633">
        <ele>2169.4636080766</ele>
        <time>2021-08-05T13:27:38.506Z</time>
      </trkpt>
      <trkpt lat="45.46032" lon="6.47618">
        <ele>2171.644317864</ele>
        <time>2021-08-05T13:27:51.686Z</time>
      </trkpt>
      <trkpt lat="45.46029" lon="6.47593">
        <ele>2173.7074039383</ele>
        <time>2021-08-05T13:28:04.889Z</time>
      </trkpt>
      <trkpt lat="45.4602" lon="6.47583">
        <ele>2175.9075158313</ele>
        <time>2021-08-05T13:28:18.108Z</time>
      </trkpt>
      <trkpt lat="45.46017" lon="6.47577">
        <ele>2178.044079943</ele>
        <time>2021-08-05T13:28:31.334Z</time>
      </trkpt>
      <trkpt lat="45.46015" lon="6.47567">
        <ele>2180.1107581707</ele>
        <time>2021-08-05T13:28:44.569Z</time>
      </trkpt>
      <trkpt lat="45.46003" lon="6.47556">
        <ele>2182.369659021</ele>
        <time>2021-08-05T13:28:57.823Z</time>
      </trkpt>
      <trkpt lat="45.45996" lon="6.47553">
        <ele>2184.5788259633</ele>
        <time>2021-08-05T13:29:11.087Z</time>
      </trkpt>
      <trkpt lat="45.45993" lon="6.47551">
        <ele>2186.6769755594</ele>
        <time>2021-08-05T13:29:24.356Z</time>
      </trkpt>
      <trkpt lat="45.4599" lon="6.47549">
        <ele>2188.7540402369</ele>
        <time>2021-08-05T13:29:37.629Z</time>
      </trkpt>
      <trkpt lat="45.45986" lon="6.4754">
        <ele>2190.835574749</ele>
        <time>2021-08-05T13:29:50.912Z</time>
      </trkpt>
      <trkpt lat="45.4598" lon="6.47522">
        <ele>2192.7802453966</ele>
        <time>2021-08-05T13:30:04.214Z</time>
      </trkpt>
      <trkpt lat="45.4597" lon="6.47511">
        <ele>2194.7898471352</ele>
        <time>2021-08-05T13:30:17.533Z</time>
      </trkpt>
      <trkpt lat="45.45965" lon="6.47502">
        <ele>2196.6224770949</ele>
        <time>2021-08-05T13:30:30.862Z</time>
      </trkpt>
      <trkpt lat="45.45939" lon="6.47481">
        <ele>2198.956439985</ele>
        <time>2021-08-05T13:30:44.231Z</time>
      </trkpt>
      <trkpt lat="45.45924" lon="6.47469">
        <ele>2200.9258986189</ele>
        <time>2021-08-05T13:30:57.623Z</time>
      </trkpt>
      <trkpt lat="45.45921" lon="6.47455">
        <ele>2202.7727308241</ele>
        <time>2021-08-05T13:31:11.029Z</time>
      </trkpt>
      <trkpt lat="45.45919" lon="6.47439">
        <ele>2204.5262219346</ele>
        <time>2021-08-05T13:31:24.450Z</time>
      </trkpt>
      <trkpt lat="45.45923" lon="6.47406">
        <ele>2206.1479493875</ele>
        <time>2021-08-05T13:31:37.903Z</time>
      </trkpt>
      <trkpt lat="45.45919" lon="6.47407">
        <ele>2207.9653687132</ele>
        <time>2021-08-05T13:31:51.361Z</time>
      </trkpt>
      <trkpt lat="45.45918" lon="6.47404">
        <ele>2209.6542457076</ele>
        <time>2021-08-05T13:32:04.822Z</time>
      </trkpt>
      <trkpt lat="45.45916" lon="6.47394">
        <ele>2211.4200013341</ele>
        <time>2021-08-05T13:32:18.293Z</time>
      </trkpt>
      <trkpt lat="45.45913" lon="6.47388">
        <ele>2213.0450525507</ele>
        <time>2021-08-05T13:32:31.771Z</time>
      </trkpt>
      <trkpt lat="45.45911" lon="6.47393">
        <ele>2214.4581166425</ele>
        <time>2021-08-05T13:32:45.254Z</time>
      </trkpt>
      <trkpt lat="45.45905" lon="6.47387">
        <ele>2215.9750320061</ele>
        <time>2021-08-05T13:32:58.747Z</time>
      </trkpt>
      <trkpt lat="45.45895" lon="6.47371">
        <ele>2217.3553011215</ele>
        <time>2021-08-05T13:33:12.260Z</time>
      </trkpt>
      <trkpt lat="45.45886" lon="6.47358">
        <ele>2218.6886640983</ele>
        <time>2021-08-05T13:33:25.790Z</time>
      </trkpt>
      <trkpt lat="45.45881" lon="6.4735">
        <ele>2219.95110359</ele>
        <time>2021-08-05T13:33:39.330Z</time>
      </trkpt>
      <trkpt lat="45.45879" lon="6.47349">
        <ele>2221.1458517993</ele>
        <time>2021-08-05T13:33:52.873Z</time>
      </trkpt>
      <trkpt lat="45.45871" lon="6.47334">
        <ele>2222.3012677246</ele>
        <time>2021-08-05T13:34:06.434Z</time>
      </trkpt>
      <trkpt lat="45.45869" lon="6.47332">
        <ele>2223.3780771332</ele>
        <time>2021-08-05T13:34:19.998Z</time>
      </trkpt>
      <trkpt lat="45.45856" lon="6.47319">
        <ele>2224.6211396853</ele>
        <time>2021-08-05T13:34:33.583Z</time>
      </trkpt>
      <trkpt lat="45.45851" lon="6.47302">
        <ele>2225.5897391996</ele>
        <time>2021-08-05T13:34:47.185Z</time>
      </trkpt>
      <trkpt lat="45.45843" lon="6.4729">
        <ele>2226.5058067327</ele>
        <time>2021-08-05T13:35:00.803Z</time>
      </trkpt>
      <trkpt lat="45.45835" lon="6.47275">
        <ele>2227.3110746368</ele>
        <time>2021-08-05T13:35:14.439Z</time>
      </trkpt>
      <trkpt lat="45.45815" lon="6.47258">
        <ele>2228.1601748486</ele>
        <time>2021-08-05T13:35:28.106Z</time>
      </trkpt>
      <trkpt lat="45.458" lon="6.47254">
        <ele>2228.9712700135</ele>
        <time>2021-08-05T13:35:41.793Z</time>
      </trkpt>
      <trkpt lat="45.45776" lon="6.47237">
        <ele>2229.7128575358</ele>
        <time>2021-08-05T13:35:55.516Z</time>
      </trkpt>
      <trkpt lat="45.45769" lon="6.47236">
        <ele>2230.400568668</ele>
        <time>2021-08-05T13:36:09.248Z</time>
      </trkpt>
      <trkpt lat="45.45765" lon="6.47232">
        <ele>2231.0463827574</ele>
        <time>2021-08-05T13:36:22.987Z</time>
      </trkpt>
      <trkpt lat="45.45747" lon="6.47213">
        <ele>2231.6021781041</ele>
        <time>2021-08-05T13:36:36.756Z</time>
      </trkpt>
      <trkpt lat="45.45736" lon="6.47207">
        <ele>2232.2050191069</ele>
        <time>2021-08-05T13:36:50.540Z</time>
      </trkpt>
      <trkpt lat="45.45729" lon="6.47199">
        <ele>2232.7843586447</ele>
        <time>2021-08-05T13:37:04.336Z</time>
      </trkpt>
      <trkpt lat="45.45721" lon="6.47194">
        <ele>2233.3911462078</ele>
        <time>2021-08-05T13:37:18.144Z</time>
      </trkpt>
      <trkpt lat="45.45708" lon="6.47186">
        <ele>2234.0294304513</ele>
        <time>2021-08-05T13:37:31.971Z</time>
      </trkpt>
      <trkpt lat="45.45702" lon="6.47183">
        <ele>2234.690144681</ele>
        <time>2021-08-05T13:37:45.806Z</time>
      </trkpt>
      <trkpt lat="45.45693" lon="6.47173">
        <ele>2235.3826839143</ele>
        <time>2021-08-05T13:37:59.657Z</time>
      </trkpt>
      <trkpt lat="45.45685" lon="6.47161">
        <ele>2236.1714291441</ele>
        <time>2021-08-05T13:38:13.523Z</time>
      </trkpt>
      <trkpt lat="45.4568" lon="6.47156">
        <ele>2236.9695030566</ele>
        <time>2021-08-05T13:38:27.397Z</time>
      </trkpt>
      <trkpt lat="45.4566" lon="6.47134">
        <ele>2237.974093866</ele>
        <time>2021-08-05T13:38:41.305Z</time>
      </trkpt>
      <trkpt lat="45.45647" lon="6.47125">
        <ele>2238.9607477787</ele>
        <time>2021-08-05T13:38:55.232Z</time>
      </trkpt>
      <trkpt lat="45.45642" lon="6.47117">
        <ele>2239.8899943723</ele>
        <time>2021-08-05T13:39:09.169Z</time>
      </trkpt>
      <trkpt lat="45.4564" lon="6.47104">
        <ele>2240.7785588905</ele>
        <time>2021-08-05T13:39:23.119Z</time>
      </trkpt>
      <trkpt lat="45.4564" lon="6.47091">
        <ele>2241.6750958937</ele>
        <time>2021-08-05T13:39:37.081Z</time>
      </trkpt>
      <trkpt lat="45.45637" lon="6.4709">
        <ele>2242.7321355111</ele>
        <time>2021-08-05T13:39:51.047Z</time>
      </trkpt>
      <trkpt lat="45.45632" lon="6.47089">
        <ele>2243.865151082</ele>
        <time>2021-08-05T13:40:05.020Z</time>
      </trkpt>
      <trkpt lat="45.45607" lon="6.47067">
        <ele>2245.1860629692</ele>
        <time>2021-08-05T13:40:19.032Z</time>
      </trkpt>
      <trkpt lat="45.45598" lon="6.47062">
        <ele>2246.3485088474</ele>
        <time>2021-08-05T13:40:33.057Z</time>
      </trkpt>
      <trkpt lat="45.45567" lon="6.47058">
        <ele>2247.7738171855</ele>
        <time>2021-08-05T13:40:47.123Z</time>
      </trkpt>
      <trkpt lat="45.4554" lon="6.47054">
        <ele>2249.1341100743</ele>
        <time>2021-08-05T13:41:01.226Z</time>
      </trkpt>
      <trkpt lat="45.45527" lon="6.47049">
        <ele>2250.4505428177</ele>
        <time>2021-08-05T13:41:15.347Z</time>
      </trkpt>
      <trkpt lat="45.45506" lon="6.47038">
        <ele>2251.8288097647</ele>
        <time>2021-08-05T13:41:29.498Z</time>
      </trkpt>
      <trkpt lat="45.45479" lon="6.47008">
        <ele>2253.1806648726</ele>
        <time>2021-08-05T13:41:43.694Z</time>
      </trkpt>
      <trkpt lat="45.45462" lon="6.46992">
        <ele>2254.5271209501</ele>
        <time>2021-08-05T13:41:57.917Z</time>
      </trkpt>
      <trkpt lat="45.45449" lon="6.46984">
        <ele>2255.9575944434</ele>
        <time>2021-08-05T13:42:12.159Z</time>
      </trkpt>
      <trkpt lat="45.45432" lon="6.46965">
        <ele>2257.3745616165</ele>
        <time>2021-08-05T13:42:26.430Z</time>
      </trkpt>
      <trkpt lat="45.45408" lon="6.46956">
        <ele>2259.0662840688</ele>
        <time>2021-08-05T13:42:40.734Z</time>
      </trkpt>
      <trkpt lat="45.45401" lon="6.46953">
        <ele>2260.8078104762</ele>
        <time>2021-08-05T13:42:55.048Z</time>
      </trkpt>
      <trkpt lat="45.45372" lon="6.46954">
        <ele>2263.0418619089</ele>
        <time>2021-08-05T13:43:09.401Z</time>
      </trkpt>
      <trkpt lat="45.45362" lon="6.46954">
        <ele>2264.8610095735</ele>
        <time>2021-08-05T13:43:23.767Z</time>
      </trkpt>
      <trkpt lat="45.45349" lon="6.46945">
        <ele>2266.6128227137</ele>
        <time>2021-08-05T13:43:38.152Z</time>
      </trkpt>
      <trkpt lat="45.45319" lon="6.46912">
        <ele>2268.4889683755</ele>
        <time>2021-08-05T13:43:52.588Z</time>
      </trkpt>
      <trkpt lat="45.45306" lon="6.46902">
        <ele>2270.4149392538</ele>
        <time>2021-08-05T13:44:07.044Z</time>
      </trkpt>
      <trkpt lat="45.45289" lon="6.46879">
        <ele>2272.4050272441</ele>
        <time>2021-08-05T13:44:21.531Z</time>
      </trkpt>
      <trkpt lat="45.45277" lon="6.4687">
        <ele>2274.339873766</ele>
        <time>2021-08-05T13:44:36.036Z</time>
      </trkpt>
      <trkpt lat="45.45275" lon="6.46866">
        <ele>2276.2102240021</ele>
        <time>2021-08-05T13:44:50.546Z</time>
      </trkpt>
      <trkpt lat="45.45268" lon="6.4685">
        <ele>2277.9453158223</ele>
        <time>2021-08-05T13:45:05.073Z</time>
      </trkpt>
      <trkpt lat="45.45263" lon="6.46844">
        <ele>2279.8125509855</ele>
        <time>2021-08-05T13:45:19.609Z</time>
      </trkpt>
      <trkpt lat="45.45259" lon="6.46848">
        <ele>2281.8365140623</ele>
        <time>2021-08-05T13:45:34.152Z</time>
      </trkpt>
      <trkpt lat="45.45259" lon="6.4685">
        <ele>2283.7712956976</ele>
        <time>2021-08-05T13:45:48.696Z</time>
      </trkpt>
      <trkpt lat="45.45257" lon="6.46851">
        <ele>2285.6892773535</ele>
        <time>2021-08-05T13:46:03.243Z</time>
      </trkpt>
      <trkpt lat="45.45255" lon="6.46853">
        <ele>2287.5934344639</ele>
        <time>2021-08-05T13:46:17.794Z</time>
      </trkpt>
      <trkpt lat="45.45251" lon="6.46847">
        <ele>2289.3651168155</ele>
        <time>2021-08-05T13:46:32.352Z</time>
      </trkpt>
      <trkpt lat="45.45245" lon="6.46844">
        <ele>2291.1676083859</ele>
        <time>2021-08-05T13:46:46.919Z</time>
      </trkpt>
      <trkpt lat="45.45229" lon="6.46834">
        <ele>2292.9653125841</ele>
        <time>2021-08-05T13:47:01.509Z</time>
      </trkpt>
      <trkpt lat="45.45216" lon="6.46828">
        <ele>2294.7235735332</ele>
        <time>2021-08-05T13:47:16.117Z</time>
      </trkpt>
      <trkpt lat="45.45187" lon="6.46817">
        <ele>2296.6214311087</ele>
        <time>2021-08-05T13:47:30.765Z</time>
      </trkpt>
      <trkpt lat="45.45168" lon="6.46806">
        <ele>2298.3750236214</ele>
        <time>2021-08-05T13:47:45.441Z</time>
      </trkpt>
      <trkpt lat="45.45141" lon="6.46791">
        <ele>2300.1244778043</ele>
        <time>2021-08-05T13:48:00.155Z</time>
      </trkpt>
      <trkpt lat="45.45128" lon="6.46789">
        <ele>2301.4077951459</ele>
        <time>2021-08-05T13:48:14.887Z</time>
      </trkpt>
      <trkpt lat="45.45126" lon="6.46787">
        <ele>2302.4339880666</ele>
        <time>2021-08-05T13:48:29.622Z</time>
      </trkpt>
      <trkpt lat="45.45123" lon="6.46792">
        <ele>2303.3493393295</ele>
        <time>2021-08-05T13:48:44.363Z</time>
      </trkpt>
      <trkpt lat="45.45111" lon="6.46795">
        <ele>2304.0932046223</ele>
        <time>2021-08-05T13:48:59.121Z</time>
      </trkpt>
      <trkpt lat="45.45093" lon="6.46794">
        <ele>2304.7293995097</ele>
        <time>2021-08-05T13:49:13.903Z</time>
      </trkpt>
      <trkpt lat="45.45084" lon="6.46792">
        <ele>2305.1008226547</ele>
        <time>2021-08-05T13:49:28.697Z</time>
      </trkpt>
      <trkpt lat="45.45082" lon="6.46789">
        <ele>2305.1960957232</ele>
        <time>2021-08-05T13:49:43.495Z</time>
      </trkpt>
      <trkpt lat="45.45078" lon="6.46788">
        <ele>2305.0670480533</ele>
        <time>2021-08-05T13:49:58.298Z</time>
      </trkpt>
      <trkpt lat="45.45072" lon="6.46794">
        <ele>2304.7722942542</ele>
        <time>2021-08-05T13:50:13.111Z</time>
      </trkpt>
      <trkpt lat="45.4506" lon="6.46798">
        <ele>2304.2762378148</ele>
        <time>2021-08-05T13:50:27.940Z</time>
      </trkpt>
      <trkpt lat="45.45037" lon="6.468">
        <ele>2303.3268682334</ele>
        <time>2021-08-05T13:50:42.800Z</time>
      </trkpt>
      <trkpt lat="45.45033" lon="6.46797">
        <ele>2302.2992364555</ele>
        <time>2021-08-05T13:50:57.666Z</time>
      </trkpt>
      <trkpt lat="45.45032" lon="6.4679">
        <ele>2301.1048262962</ele>
        <time>2021-08-05T13:51:12.539Z</time>
      </trkpt>
      <trkpt lat="45.45039" lon="6.46752">
        <ele>2299.3417931603</ele>
        <time>2021-08-05T13:51:27.449Z</time>
      </trkpt>
      <trkpt lat="45.45037" lon="6.46722">
        <ele>2297.2724249557</ele>
        <time>2021-08-05T13:51:42.387Z</time>
      </trkpt>
      <trkpt lat="45.45029" lon="6.46727">
        <ele>2295.4203252644</ele>
        <time>2021-08-05T13:51:57.336Z</time>
      </trkpt>
      <trkpt lat="45.45028" lon="6.46714">
        <ele>2293.3447688438</ele>
        <time>2021-08-05T13:52:12.298Z</time>
      </trkpt>
      <trkpt lat="45.45033" lon="6.46699">
        <ele>2291.2852861059</ele>
        <time>2021-08-05T13:52:27.275Z</time>
      </trkpt>
      <trkpt lat="45.45038" lon="6.46695">
        <ele>2289.1699794848</ele>
        <time>2021-08-05T13:52:42.260Z</time>
      </trkpt>
      <trkpt lat="45.45041" lon="6.46684">
        <ele>2286.7575375366</ele>
        <time>2021-08-05T13:52:57.256Z</time>
      </trkpt>
      <trkpt lat="45.4504" lon="6.46682">
        <ele>2284.2069531847</ele>
        <time>2021-08-05T13:53:12.254Z</time>
      </trkpt>
      <trkpt lat="45.45032" lon="6.46687">
        <ele>2281.4342716651</ele>
        <time>2021-08-05T13:53:27.264Z</time>
      </trkpt>
      <trkpt lat="45.45031" lon="6.46685">
        <ele>2278.6423274325</ele>
        <time>2021-08-05T13:53:42.276Z</time>
      </trkpt>
      <trkpt lat="45.45037" lon="6.46669">
        <ele>2275.6658449947</ele>
        <time>2021-08-05T13:53:57.305Z</time>
      </trkpt>
      <trkpt lat="45.45043" lon="6.46644">
        <ele>2272.2820982639</ele>
        <time>2021-08-05T13:54:12.359Z</time>
      </trkpt>
      <trkpt lat="45.45049" lon="6.46637">
        <ele>2269.1000012055</ele>
        <time>2021-08-05T13:54:27.424Z</time>
      </trkpt>
      <trkpt lat="45.45049" lon="6.46629">
        <ele>2265.8296429631</ele>
        <time>2021-08-05T13:54:42.496Z</time>
      </trkpt>
      <trkpt lat="45.45041" lon="6.4663">
        <ele>2262.6787134222</ele>
        <time>2021-08-05T13:54:57.579Z</time>
      </trkpt>
      <trkpt lat="45.45038" lon="6.46627">
        <ele>2259.4001692722</ele>
        <time>2021-08-05T13:55:12.667Z</time>
      </trkpt>
      <trkpt lat="45.45038" lon="6.46623">
        <ele>2256.0663150612</ele>
        <time>2021-08-05T13:55:27.758Z</time>
      </trkpt>
      <trkpt lat="45.45045" lon="6.46611">
        <ele>2252.5207829985</ele>
        <time>2021-08-05T13:55:42.864Z</time>
      </trkpt>
      <trkpt lat="45.45056" lon="6.46606">
        <ele>2249.0978757171</ele>
        <time>2021-08-05T13:55:57.985Z</time>
      </trkpt>
      <trkpt lat="45.45053" lon="6.46599">
        <ele>2245.6881092825</ele>
        <time>2021-08-05T13:56:13.114Z</time>
      </trkpt>
      <trkpt lat="45.4505" lon="6.46596">
        <ele>2242.2891475711</ele>
        <time>2021-08-05T13:56:28.248Z</time>
      </trkpt>
      <trkpt lat="45.45042" lon="6.46599">
        <ele>2238.9709247085</ele>
        <time>2021-08-05T13:56:43.393Z</time>
      </trkpt>
      <trkpt lat="45.45039" lon="6.46606">
        <ele>2235.7470581625</ele>
        <time>2021-08-05T13:56:58.546Z</time>
      </trkpt>
      <trkpt lat="45.45036" lon="6.46606">
        <ele>2232.3965753062</ele>
        <time>2021-08-05T13:57:13.703Z</time>
      </trkpt>
      <trkpt lat="45.45036" lon="6.46603">
        <ele>2229.0019558931</ele>
        <time>2021-08-05T13:57:28.863Z</time>
      </trkpt>
      <trkpt lat="45.4505" lon="6.46564">
        <ele>2225.1251010238</ele>
        <time>2021-08-05T13:57:44.064Z</time>
      </trkpt>
      <trkpt lat="45.45053" lon="6.46558">
        <ele>2221.7859371762</ele>
        <time>2021-08-05T13:57:59.272Z</time>
      </trkpt>
      <trkpt lat="45.4504" lon="6.46563">
        <ele>2218.4196145895</ele>
        <time>2021-08-05T13:58:14.498Z</time>
      </trkpt>
      <trkpt lat="45.45023" lon="6.46577">
        <ele>2215.2784015039</ele>
        <time>2021-08-05T13:58:29.750Z</time>
      </trkpt>
      <trkpt lat="45.45017" lon="6.4658">
        <ele>2212.0009476223</ele>
        <time>2021-08-05T13:58:45.010Z</time>
      </trkpt>
      <trkpt lat="45.4502" lon="6.46562">
        <ele>2208.5586185926</ele>
        <time>2021-08-05T13:59:00.288Z</time>
      </trkpt>
      <trkpt lat="45.45035" lon="6.46506">
        <ele>2204.8333733275</ele>
        <time>2021-08-05T13:59:15.622Z</time>
      </trkpt>
      <trkpt lat="45.45027" lon="6.4649">
        <ele>2201.48839995</ele>
        <time>2021-08-05T13:59:30.974Z</time>
      </trkpt>
      <trkpt lat="45.45025" lon="6.46484">
        <ele>2198.408145144</ele>
        <time>2021-08-05T13:59:46.332Z</time>
      </trkpt>
      <trkpt lat="45.45028" lon="6.4647">
        <ele>2195.3018767297</ele>
        <time>2021-08-05T14:00:01.704Z</time>
      </trkpt>
      <trkpt lat="45.45043" lon="6.46446">
        <ele>2192.0241526941</ele>
        <time>2021-08-05T14:00:17.106Z</time>
      </trkpt>
      <trkpt lat="45.45047" lon="6.46439">
        <ele>2189.1485085592</ele>
        <time>2021-08-05T14:00:32.517Z</time>
      </trkpt>
      <trkpt lat="45.45046" lon="6.46436">
        <ele>2186.4567903943</ele>
        <time>2021-08-05T14:00:47.931Z</time>
      </trkpt>
      <trkpt lat="45.4504" lon="6.46433">
        <ele>2183.9141488424</ele>
        <time>2021-08-05T14:01:03.353Z</time>
      </trkpt>
      <trkpt lat="45.45036" lon="6.46427">
        <ele>2181.4078687537</ele>
        <time>2021-08-05T14:01:18.783Z</time>
      </trkpt>
      <trkpt lat="45.45021" lon="6.46407">
        <ele>2178.9720824433</ele>
        <time>2021-08-05T14:01:34.241Z</time>
      </trkpt>
      <trkpt lat="45.45009" lon="6.464">
        <ele>2176.5162834513</ele>
        <time>2021-08-05T14:01:49.716Z</time>
      </trkpt>
      <trkpt lat="45.45004" lon="6.46392">
        <ele>2174.1379367244</ele>
        <time>2021-08-05T14:02:05.201Z</time>
      </trkpt>
      <trkpt lat="45.45001" lon="6.46379">
        <ele>2171.7932981777</ele>
        <time>2021-08-05T14:02:20.699Z</time>
      </trkpt>
      <trkpt lat="45.44991" lon="6.46353">
        <ele>2169.4185325165</ele>
        <time>2021-08-05T14:02:36.225Z</time>
      </trkpt>
      <trkpt lat="45.44987" lon="6.46352">
        <ele>2167.2411479701</ele>
        <time>2021-08-05T14:02:51.756Z</time>
      </trkpt>
      <trkpt lat="45.44979" lon="6.46353">
        <ele>2165.0862771687</ele>
        <time>2021-08-05T14:03:07.298Z</time>
      </trkpt>
      <trkpt lat="45.44975" lon="6.46351">
        <ele>2162.9970928713</ele>
        <time>2021-08-05T14:03:22.845Z</time>
      </trkpt>
      <trkpt lat="45.44963" lon="6.4633">
        <ele>2160.8536596203</ele>
        <time>2021-08-05T14:03:38.418Z</time>
      </trkpt>
      <trkpt lat="45.44951" lon="6.46306">
        <ele>2158.7513485327</ele>
        <time>2021-08-05T14:03:54.018Z</time>
      </trkpt>
      <trkpt lat="45.44947" lon="6.46287">
        <ele>2156.7441839679</ele>
        <time>2021-08-05T14:04:09.637Z</time>
      </trkpt>
      <trkpt lat="45.44947" lon="6.46275">
        <ele>2154.77498738</ele>
        <time>2021-08-05T14:04:25.267Z</time>
      </trkpt>
      <trkpt lat="45.44946" lon="6.46248">
        <ele>2152.6859458657</ele>
        <time>2021-08-05T14:04:40.923Z</time>
      </trkpt>
      <trkpt lat="45.44948" lon="6.46241">
        <ele>2150.6346122855</ele>
        <time>2021-08-05T14:04:56.586Z</time>
      </trkpt>
      <trkpt lat="45.44952" lon="6.46223">
        <ele>2148.4505184829</ele>
        <time>2021-08-05T14:05:12.266Z</time>
      </trkpt>
      <trkpt lat="45.44953" lon="6.46207">
        <ele>2146.2804096124</ele>
        <time>2021-08-05T14:05:27.962Z</time>
      </trkpt>
      <trkpt lat="45.44953" lon="6.46205">
        <ele>2144.3214407997</ele>
        <time>2021-08-05T14:05:43.659Z</time>
      </trkpt>
      <trkpt lat="45.44951" lon="6.46205">
        <ele>2142.3662382071</ele>
        <time>2021-08-05T14:05:59.359Z</time>
      </trkpt>
      <trkpt lat="45.44932" lon="6.4622">
        <ele>2140.3962244915</ele>
        <time>2021-08-05T14:06:15.088Z</time>
      </trkpt>
      <trkpt lat="45.44927" lon="6.46228">
        <ele>2138.4989839909</ele>
        <time>2021-08-05T14:06:30.827Z</time>
      </trkpt>
      <trkpt lat="45.44926" lon="6.46216">
        <ele>2136.301334237</ele>
        <time>2021-08-05T14:06:46.577Z</time>
      </trkpt>
      <trkpt lat="45.44927" lon="6.46184">
        <ele>2133.8258726078</ele>
        <time>2021-08-05T14:07:02.358Z</time>
      </trkpt>
      <trkpt lat="45.44934" lon="6.4615">
        <ele>2131.7128506704</ele>
        <time>2021-08-05T14:07:18.172Z</time>
      </trkpt>
      <trkpt lat="45.44941" lon="6.46126">
        <ele>2129.6964183123</ele>
        <time>2021-08-05T14:07:34.010Z</time>
      </trkpt>
      <trkpt lat="45.44944" lon="6.46121">
        <ele>2127.6246290322</ele>
        <time>2021-08-05T14:07:49.854Z</time>
      </trkpt>
      <trkpt lat="45.44949" lon="6.46099">
        <ele>2125.3892597896</ele>
        <time>2021-08-05T14:08:05.720Z</time>
      </trkpt>
      <trkpt lat="45.44949" lon="6.46091">
        <ele>2123.200092129</ele>
        <time>2021-08-05T14:08:21.594Z</time>
      </trkpt>
      <trkpt lat="45.44933" lon="6.46075">
        <ele>2120.8027896496</ele>
        <time>2021-08-05T14:08:37.494Z</time>
      </trkpt>
      <trkpt lat="45.4493" lon="6.46069">
        <ele>2118.4668101533</ele>
        <time>2021-08-05T14:08:53.401Z</time>
      </trkpt>
      <trkpt lat="45.44927" lon="6.46058">
        <ele>2115.9948632306</ele>
        <time>2021-08-05T14:09:09.319Z</time>
      </trkpt>
      <trkpt lat="45.44927" lon="6.46048">
        <ele>2113.5508253247</ele>
        <time>2021-08-05T14:09:25.246Z</time>
      </trkpt>
      <trkpt lat="45.44935" lon="6.4603">
        <ele>2111.0480981744</ele>
        <time>2021-08-05T14:09:41.193Z</time>
      </trkpt>
      <trkpt lat="45.44938" lon="6.46014">
        <ele>2108.4799085918</ele>
        <time>2021-08-05T14:09:57.156Z</time>
      </trkpt>
      <trkpt lat="45.44931" lon="6.45995">
        <ele>2105.8220833354</ele>
        <time>2021-08-05T14:10:13.139Z</time>
      </trkpt>
      <trkpt lat="45.44918" lon="6.45988">
        <ele>2103.1834456486</ele>
        <time>2021-08-05T14:10:29.140Z</time>
      </trkpt>
      <trkpt lat="45.44914" lon="6.45986">
        <ele>2100.4584475262</ele>
        <time>2021-08-05T14:10:45.147Z</time>
      </trkpt>
      <trkpt lat="45.44911" lon="6.45988">
        <ele>2097.6261728197</ele>
        <time>2021-08-05T14:11:01.158Z</time>
      </trkpt>
      <trkpt lat="45.44908" lon="6.4601">
        <ele>2094.7620582692</ele>
        <time>2021-08-05T14:11:17.190Z</time>
      </trkpt>
      <trkpt lat="45.44907" lon="6.46016">
        <ele>2091.8417209489</ele>
        <time>2021-08-05T14:11:33.228Z</time>
      </trkpt>
      <trkpt lat="45.4489" lon="6.46045">
        <ele>2088.6768463846</ele>
        <time>2021-08-05T14:11:49.302Z</time>
      </trkpt>
      <trkpt lat="45.44881" lon="6.46066">
        <ele>2085.4008716572</ele>
        <time>2021-08-05T14:12:05.399Z</time>
      </trkpt>
      <trkpt lat="45.44879" lon="6.46066">
        <ele>2082.2160518547</ele>
        <time>2021-08-05T14:12:21.498Z</time>
      </trkpt>
      <trkpt lat="45.44874" lon="6.46054">
        <ele>2078.9298151055</ele>
        <time>2021-08-05T14:12:37.610Z</time>
      </trkpt>
      <trkpt lat="45.44842" lon="6.45988">
        <ele>2074.7712661174</ele>
        <time>2021-08-05T14:12:53.798Z</time>
      </trkpt>
      <trkpt lat="45.44835" lon="6.4597">
        <ele>2071.2891879451</ele>
        <time>2021-08-05T14:13:10.005Z</time>
      </trkpt>
      <trkpt lat="45.44829" lon="6.45949">
        <ele>2064.4135175755</ele>
        <time>2021-08-05T14:13:26.233Z</time>
      </trkpt>
      <trkpt lat="45.44828" lon="6.45939">
        <ele>2060.9838105688</ele>
        <time>2021-08-05T14:13:42.471Z</time>
      </trkpt>
      <trkpt lat="45.44822" lon="6.45914">
        <ele>2057.3588404154</ele>
        <time>2021-08-05T14:13:58.733Z</time>
      </trkpt>
      <trkpt lat="45.44813" lon="6.4586">
        <ele>2053.3373158911</ele>
        <time>2021-08-05T14:14:15.048Z</time>
      </trkpt>
      <trkpt lat="45.44815" lon="6.45843">
        <ele>2049.8317594684</ele>
        <time>2021-08-05T14:14:31.379Z</time>
      </trkpt>
      <trkpt lat="45.44821" lon="6.45824">
        <ele>2046.3965797378</ele>
        <time>2021-08-05T14:14:47.729Z</time>
      </trkpt>
      <trkpt lat="45.4482" lon="6.45821">
        <ele>2042.9549287643</ele>
        <time>2021-08-05T14:15:04.082Z</time>
      </trkpt>
      <trkpt lat="45.44804" lon="6.45825">
        <ele>2039.283262691</ele>
        <time>2021-08-05T14:15:20.457Z</time>
      </trkpt>
      <trkpt lat="45.44801" lon="6.45825">
        <ele>2035.8668264209</ele>
        <time>2021-08-05T14:15:36.836Z</time>
      </trkpt>
      <trkpt lat="45.448" lon="6.45823">
        <ele>2032.4899360692</ele>
        <time>2021-08-05T14:15:53.217Z</time>
      </trkpt>
      <trkpt lat="45.448" lon="6.45818">
        <ele>2029.129724564</ele>
        <time>2021-08-05T14:16:09.603Z</time>
      </trkpt>
      <trkpt lat="45.44805" lon="6.45789">
        <ele>2025.6236749442</ele>
        <time>2021-08-05T14:16:26.017Z</time>
      </trkpt>
      <trkpt lat="45.44814" lon="6.45765">
        <ele>2022.1616767032</ele>
        <time>2021-08-05T14:16:42.457Z</time>
      </trkpt>
      <trkpt lat="45.44824" lon="6.45752">
        <ele>2018.8504358997</ele>
        <time>2021-08-05T14:16:58.915Z</time>
      </trkpt>
      <trkpt lat="45.44836" lon="6.45742">
        <ele>2015.6065603666</ele>
        <time>2021-08-05T14:17:15.391Z</time>
      </trkpt>
      <trkpt lat="45.44837" lon="6.45738">
        <ele>2012.3663064896</ele>
        <time>2021-08-05T14:17:31.871Z</time>
      </trkpt>
      <trkpt lat="45.44828" lon="6.45733">
        <ele>2009.0690513925</ele>
        <time>2021-08-05T14:17:48.364Z</time>
      </trkpt>
      <trkpt lat="45.44819" lon="6.45719">
        <ele>2005.6494421485</ele>
        <time>2021-08-05T14:18:04.875Z</time>
      </trkpt>
      <trkpt lat="45.44814" lon="6.45718">
        <ele>2002.475354072</ele>
        <time>2021-08-05T14:18:21.393Z</time>
      </trkpt>
      <trkpt lat="45.44799" lon="6.45716">
        <ele>1999.2487734148</ele>
        <time>2021-08-05T14:18:37.931Z</time>
      </trkpt>
      <trkpt lat="45.44761" lon="6.45695">
        <ele>1995.8452632682</ele>
        <time>2021-08-05T14:18:54.523Z</time>
      </trkpt>
      <trkpt lat="45.44759" lon="6.45688">
        <ele>1992.7704717001</ele>
        <time>2021-08-05T14:19:11.122Z</time>
      </trkpt>
      <trkpt lat="45.4476" lon="6.45672">
        <ele>1989.6785492767</ele>
        <time>2021-08-05T14:19:27.736Z</time>
      </trkpt>
      <trkpt lat="45.44752" lon="6.45671">
        <ele>1986.6805101657</ele>
        <time>2021-08-05T14:19:44.361Z</time>
      </trkpt>
      <trkpt lat="45.44737" lon="6.45663">
        <ele>1983.6476353952</ele>
        <time>2021-08-05T14:20:01.007Z</time>
      </trkpt>
      <trkpt lat="45.44716" lon="6.45653">
        <ele>1980.6075216857</ele>
        <time>2021-08-05T14:20:17.683Z</time>
      </trkpt>
      <trkpt lat="45.44695" lon="6.45638">
        <ele>1977.5519714431</ele>
        <time>2021-08-05T14:20:34.390Z</time>
      </trkpt>
      <trkpt lat="45.44689" lon="6.4563">
        <ele>1974.5934951261</ele>
        <time>2021-08-05T14:20:51.108Z</time>
      </trkpt>
      <trkpt lat="45.44673" lon="6.45649">
        <ele>1971.6302190967</ele>
        <time>2021-08-05T14:21:07.854Z</time>
      </trkpt>
      <trkpt lat="45.44668" lon="6.45659">
        <ele>1968.6549987768</ele>
        <time>2021-08-05T14:21:24.612Z</time>
      </trkpt>
      <trkpt lat="45.44668" lon="6.4567">
        <ele>1965.7413083011</ele>
        <time>2021-08-05T14:21:41.380Z</time>
      </trkpt>
      <trkpt lat="45.44661" lon="6.45688">
        <ele>1962.7922856939</ele>
        <time>2021-08-05T14:21:58.167Z</time>
      </trkpt>
      <trkpt lat="45.44651" lon="6.45713">
        <ele>1959.7751479562</ele>
        <time>2021-08-05T14:22:14.981Z</time>
      </trkpt>
      <trkpt lat="45.44643" lon="6.45733">
        <ele>1956.7760840351</ele>
        <time>2021-08-05T14:22:31.817Z</time>
      </trkpt>
      <trkpt lat="45.44636" lon="6.45744">
        <ele>1953.7893494357</ele>
        <time>2021-08-05T14:22:48.667Z</time>
      </trkpt>
      <trkpt lat="45.44614" lon="6.45763">
        <ele>1950.5550596974</ele>
        <time>2021-08-05T14:23:05.551Z</time>
      </trkpt>
      <trkpt lat="45.44592" lon="6.45786">
        <ele>1947.3109390893</ele>
        <time>2021-08-05T14:23:22.472Z</time>
      </trkpt>
      <trkpt lat="45.4458" lon="6.45807">
        <ele>1944.2133131788</ele>
        <time>2021-08-05T14:23:39.418Z</time>
      </trkpt>
      <trkpt lat="45.44573" lon="6.4582">
        <ele>1941.3268477754</ele>
        <time>2021-08-05T14:23:56.379Z</time>
      </trkpt>
      <trkpt lat="45.44567" lon="6.45824">
        <ele>1938.5178973538</ele>
        <time>2021-08-05T14:24:13.349Z</time>
      </trkpt>
      <trkpt lat="45.44561" lon="6.45825">
        <ele>1935.7583005534</ele>
        <time>2021-08-05T14:24:30.327Z</time>
      </trkpt>
      <trkpt lat="45.44551" lon="6.45816">
        <ele>1933.0943770497</ele>
        <time>2021-08-05T14:24:47.321Z</time>
      </trkpt>
      <trkpt lat="45.44537" lon="6.45814">
        <ele>1930.4091767244</ele>
        <time>2021-08-05T14:25:04.334Z</time>
      </trkpt>
      <trkpt lat="45.44512" lon="6.45813">
        <ele>1927.5608088411</ele>
        <time>2021-08-05T14:25:21.380Z</time>
      </trkpt>
      <trkpt lat="45.44502" lon="6.4581">
        <ele>1924.879461779</ele>
        <time>2021-08-05T14:25:38.440Z</time>
      </trkpt>
      <trkpt lat="45.44483" lon="6.45796">
        <ele>1922.200034616</ele>
        <time>2021-08-05T14:25:55.528Z</time>
      </trkpt>
      <trkpt lat="45.44446" lon="6.45771">
        <ele>1919.4523146577</ele>
        <time>2021-08-05T14:26:12.671Z</time>
      </trkpt>
      <trkpt lat="45.44427" lon="6.45763">
        <ele>1916.9017971401</ele>
        <time>2021-08-05T14:26:29.840Z</time>
      </trkpt>
      <trkpt lat="45.44409" lon="6.45758">
        <ele>1914.4361750104</ele>
        <time>2021-08-05T14:26:47.034Z</time>
      </trkpt>
      <trkpt lat="45.44394" lon="6.45759">
        <ele>1912.0190345638</ele>
        <time>2021-08-05T14:27:04.248Z</time>
      </trkpt>
      <trkpt lat="45.44376" lon="6.45771">
        <ele>1909.4306108257</ele>
        <time>2021-08-05T14:27:21.488Z</time>
      </trkpt>
      <trkpt lat="45.44354" lon="6.45772">
        <ele>1907.1571261388</ele>
        <time>2021-08-05T14:27:38.758Z</time>
      </trkpt>
      <trkpt lat="45.44342" lon="6.45777">
        <ele>1904.8732161792</ele>
        <time>2021-08-05T14:27:56.044Z</time>
      </trkpt>
      <trkpt lat="45.44329" lon="6.45789">
        <ele>1902.5427342973</ele>
        <time>2021-08-05T14:28:13.351Z</time>
      </trkpt>
      <trkpt lat="45.44318" lon="6.458">
        <ele>1900.2980492388</ele>
        <time>2021-08-05T14:28:30.676Z</time>
      </trkpt>
      <trkpt lat="45.44304" lon="6.45806">
        <ele>1898.2231388877</ele>
        <time>2021-08-05T14:28:48.020Z</time>
      </trkpt>
      <trkpt lat="45.44277" lon="6.45813">
        <ele>1896.0957724512</ele>
        <time>2021-08-05T14:29:05.401Z</time>
      </trkpt>
      <trkpt lat="45.44258" lon="6.45823">
        <ele>1893.8899671932</ele>
        <time>2021-08-05T14:29:22.809Z</time>
      </trkpt>
      <trkpt lat="45.44247" lon="6.45822">
        <ele>1891.9028070329</ele>
        <time>2021-08-05T14:29:40.232Z</time>
      </trkpt>
      <trkpt lat="45.44238" lon="6.45815">
        <ele>1890.0728019265</ele>
        <time>2021-08-05T14:29:57.669Z</time>
      </trkpt>
      <trkpt lat="45.44226" lon="6.45811">
        <ele>1888.2170545495</ele>
        <time>2021-08-05T14:30:15.122Z</time>
      </trkpt>
      <trkpt lat="45.44214" lon="6.4581">
        <ele>1886.4148731938</ele>
        <time>2021-08-05T14:30:32.591Z</time>
      </trkpt>
      <trkpt lat="45.442" lon="6.45812">
        <ele>1884.6479211045</ele>
        <time>2021-08-05T14:30:50.079Z</time>
      </trkpt>
      <trkpt lat="45.44187" lon="6.45811">
        <ele>1882.8952845501</ele>
        <time>2021-08-05T14:31:07.584Z</time>
      </trkpt>
      <trkpt lat="45.44176" lon="6.45809">
        <ele>1881.1891737573</ele>
        <time>2021-08-05T14:31:25.104Z</time>
      </trkpt>
      <trkpt lat="45.44167" lon="6.45812">
        <ele>1879.4112700722</ele>
        <time>2021-08-05T14:31:42.636Z</time>
      </trkpt>
      <trkpt lat="45.4415" lon="6.45814">
        <ele>1877.7072045887</ele>
        <time>2021-08-05T14:32:00.191Z</time>
      </trkpt>
      <trkpt lat="45.44126" lon="6.45823">
        <ele>1875.8651724141</ele>
        <time>2021-08-05T14:32:17.779Z</time>
      </trkpt>
      <trkpt lat="45.44116" lon="6.45825">
        <ele>1874.3054607712</ele>
        <time>2021-08-05T14:32:35.381Z</time>
      </trkpt>
      <trkpt lat="45.44106" lon="6.45824">
        <ele>1872.8204333836</ele>
        <time>2021-08-05T14:32:52.996Z</time>
      </trkpt>
      <trkpt lat="45.44101" lon="6.45825">
        <ele>1871.2729824613</ele>
        <time>2021-08-05T14:33:10.618Z</time>
      </trkpt>
      <trkpt lat="45.44091" lon="6.4583">
        <ele>1869.6693498744</ele>
        <time>2021-08-05T14:33:28.254Z</time>
      </trkpt>
      <trkpt lat="45.4407" lon="6.45833">
        <ele>1868.151937458</ele>
        <time>2021-08-05T14:33:45.918Z</time>
      </trkpt>
      <trkpt lat="45.44056" lon="6.45846">
        <ele>1866.5030807617</ele>
        <time>2021-08-05T14:34:03.604Z</time>
      </trkpt>
      <trkpt lat="45.44041" lon="6.45853">
        <ele>1865.0722205045</ele>
        <time>2021-08-05T14:34:21.311Z</time>
      </trkpt>
      <trkpt lat="45.44025" lon="6.4586">
        <ele>1863.714341519</ele>
        <time>2021-08-05T14:34:39.041Z</time>
      </trkpt>
      <trkpt lat="45.44014" lon="6.45859">
        <ele>1862.4387645784</ele>
        <time>2021-08-05T14:34:56.785Z</time>
      </trkpt>
      <trkpt lat="45.44002" lon="6.45863">
        <ele>1861.1224591245</ele>
        <time>2021-08-05T14:35:14.546Z</time>
      </trkpt>
      <trkpt lat="45.43989" lon="6.4587">
        <ele>1859.8364626726</ele>
        <time>2021-08-05T14:35:32.325Z</time>
      </trkpt>
      <trkpt lat="45.43982" lon="6.4587">
        <ele>1858.7750262956</ele>
        <time>2021-08-05T14:35:50.114Z</time>
      </trkpt>
      <trkpt lat="45.43965" lon="6.45862">
        <ele>1857.94958368</ele>
        <time>2021-08-05T14:36:07.927Z</time>
      </trkpt>
      <trkpt lat="45.43954" lon="6.45859">
        <ele>1857.1646729948</ele>
        <time>2021-08-05T14:36:25.754Z</time>
      </trkpt>
      <trkpt lat="45.43949" lon="6.45865">
        <ele>1856.3328448506</ele>
        <time>2021-08-05T14:36:43.590Z</time>
      </trkpt>
      <trkpt lat="45.4394" lon="6.45888">
        <ele>1855.3895899193</ele>
        <time>2021-08-05T14:37:01.451Z</time>
      </trkpt>
      <trkpt lat="45.43929" lon="6.45902">
        <ele>1854.7617723168</ele>
        <time>2021-08-05T14:37:19.332Z</time>
      </trkpt>
      <trkpt lat="45.43921" lon="6.45913">
        <ele>1854.2827998237</ele>
        <time>2021-08-05T14:37:37.227Z</time>
      </trkpt>
      <trkpt lat="45.43919" lon="6.45926">
        <ele>1853.8623200647</ele>
        <time>2021-08-05T14:37:55.135Z</time>
      </trkpt>
      <trkpt lat="45.43897" lon="6.45943">
        <ele>1853.6929695212</ele>
        <time>2021-08-05T14:38:13.076Z</time>
      </trkpt>
      <trkpt lat="45.43881" lon="6.4597">
        <ele>1853.5538460558</ele>
        <time>2021-08-05T14:38:31.050Z</time>
      </trkpt>
      <trkpt lat="45.43867" lon="6.4601">
        <ele>1853.4726089998</ele>
        <time>2021-08-05T14:38:49.066Z</time>
      </trkpt>
      <trkpt lat="45.43853" lon="6.46047">
        <ele>1853.5191969191</ele>
        <time>2021-08-05T14:39:07.122Z</time>
      </trkpt>
      <trkpt lat="45.43842" lon="6.46064">
        <ele>1853.793954645</ele>
        <time>2021-08-05T14:39:25.200Z</time>
      </trkpt>
      <trkpt lat="45.43827" lon="6.46079">
        <ele>1854.1865493125</ele>
        <time>2021-08-05T14:39:43.302Z</time>
      </trkpt>
      <trkpt lat="45.43823" lon="6.46083">
        <ele>1854.7326542167</ele>
        <time>2021-08-05T14:40:01.411Z</time>
      </trkpt>
      <trkpt lat="45.4381" lon="6.46087">
        <ele>1855.4554523606</ele>
        <time>2021-08-05T14:40:19.537Z</time>
      </trkpt>
      <trkpt lat="45.43798" lon="6.46091">
        <ele>1856.300661168</ele>
        <time>2021-08-05T14:40:37.680Z</time>
      </trkpt>
      <trkpt lat="45.43793" lon="6.46091">
        <ele>1857.2666545783</ele>
        <time>2021-08-05T14:40:55.829Z</time>
      </trkpt>
      <trkpt lat="45.43772" lon="6.46089">
        <ele>1858.4643862013</ele>
        <time>2021-08-05T14:41:14.006Z</time>
      </trkpt>
      <trkpt lat="45.43721" lon="6.46085">
        <ele>1859.9935575634</ele>
        <time>2021-08-05T14:41:32.252Z</time>
      </trkpt>
      <trkpt lat="45.43695" lon="6.46089">
        <ele>1861.1001250952</ele>
        <time>2021-08-05T14:41:50.532Z</time>
      </trkpt>
      <trkpt lat="45.43667" lon="6.46088">
        <ele>1862.4575705715</ele>
        <time>2021-08-05T14:42:08.850Z</time>
      </trkpt>
      <trkpt lat="45.43631" lon="6.46091">
        <ele>1864.1285577922</ele>
        <time>2021-08-05T14:42:27.216Z</time>
      </trkpt>
      <trkpt lat="45.43608" lon="6.46103">
        <ele>1865.9123388205</ele>
        <time>2021-08-05T14:42:45.615Z</time>
      </trkpt>
      <trkpt lat="45.43579" lon="6.46123">
        <ele>1867.7548053857</ele>
        <time>2021-08-05T14:43:04.057Z</time>
      </trkpt>
      <trkpt lat="45.43532" lon="6.46152">
        <ele>1869.5575969978</ele>
        <time>2021-08-05T14:43:22.567Z</time>
      </trkpt>
      <trkpt lat="45.43516" lon="6.46163">
        <ele>1871.1548799146</ele>
        <time>2021-08-05T14:43:41.101Z</time>
      </trkpt>
      <trkpt lat="45.43482" lon="6.4619">
        <ele>1872.6206581471</ele>
        <time>2021-08-05T14:43:59.687Z</time>
      </trkpt>
      <trkpt lat="45.43463" lon="6.46209">
        <ele>1874.2094404713</ele>
        <time>2021-08-05T14:44:18.304Z</time>
      </trkpt>
      <trkpt lat="45.43451" lon="6.46226">
        <ele>1875.8550809968</ele>
        <time>2021-08-05T14:44:36.943Z</time>
      </trkpt>
      <trkpt lat="45.43434" lon="6.46243">
        <ele>1877.5012597716</ele>
        <time>2021-08-05T14:44:55.610Z</time>
      </trkpt>
      <trkpt lat="45.43414" lon="6.46254">
        <ele>1879.4338414041</ele>
        <time>2021-08-05T14:45:14.306Z</time>
      </trkpt>
      <trkpt lat="45.43394" lon="6.46254">
        <ele>1881.4976638687</ele>
        <time>2021-08-05T14:45:33.028Z</time>
      </trkpt>
      <trkpt lat="45.43378" lon="6.46261">
        <ele>1883.3308769454</ele>
        <time>2021-08-05T14:45:51.773Z</time>
      </trkpt>
      <trkpt lat="45.43364" lon="6.46285">
        <ele>1884.6893245015</ele>
        <time>2021-08-05T14:46:10.547Z</time>
      </trkpt>
      <trkpt lat="45.4335" lon="6.46303">
        <ele>1886.2851300237</ele>
        <time>2021-08-05T14:46:29.346Z</time>
      </trkpt>
      <trkpt lat="45.43334" lon="6.46326">
        <ele>1887.8828315683</ele>
        <time>2021-08-05T14:46:48.175Z</time>
      </trkpt>
      <trkpt lat="45.43314" lon="6.46341">
        <ele>1889.598979293</ele>
        <time>2021-08-05T14:47:07.034Z</time>
      </trkpt>
      <trkpt lat="45.4329" lon="6.46355">
        <ele>1891.1021949068</ele>
        <time>2021-08-05T14:47:25.928Z</time>
      </trkpt>
      <trkpt lat="45.43264" lon="6.46363">
        <ele>1892.199237708</ele>
        <time>2021-08-05T14:47:44.858Z</time>
      </trkpt>
      <trkpt lat="45.43245" lon="6.4636">
        <ele>1893.2719562392</ele>
        <time>2021-08-05T14:48:03.813Z</time>
      </trkpt>
      <trkpt lat="45.43224" lon="6.4635">
        <ele>1894.5202911777</ele>
        <time>2021-08-05T14:48:22.798Z</time>
      </trkpt>
      <trkpt lat="45.43204" lon="6.46337">
        <ele>1895.7194489753</ele>
        <time>2021-08-05T14:48:41.812Z</time>
      </trkpt>
      <trkpt lat="45.43188" lon="6.46328">
        <ele>1896.8022241011</ele>
        <time>2021-08-05T14:49:00.849Z</time>
      </trkpt>
      <trkpt lat="45.43155" lon="6.46306">
        <ele>1897.8767188884</ele>
        <time>2021-08-05T14:49:19.935Z</time>
      </trkpt>
      <trkpt lat="45.43114" lon="6.46257">
        <ele>1898.7163615603</ele>
        <time>2021-08-05T14:49:39.092Z</time>
      </trkpt>
      <trkpt lat="45.43102" lon="6.46237">
        <ele>1899.4479043641</ele>
        <time>2021-08-05T14:49:58.274Z</time>
      </trkpt>
      <trkpt lat="45.43085" lon="6.46201">
        <ele>1900.2083908038</ele>
        <time>2021-08-05T14:50:17.496Z</time>
      </trkpt>
      <trkpt lat="45.43076" lon="6.46176">
        <ele>1900.941132458</ele>
        <time>2021-08-05T14:50:36.745Z</time>
      </trkpt>
      <trkpt lat="45.43064" lon="6.46157">
        <ele>1901.3987569312</ele>
        <time>2021-08-05T14:50:56.018Z</time>
      </trkpt>
      <trkpt lat="45.43055" lon="6.46144">
        <ele>1901.7332058113</ele>
        <time>2021-08-05T14:51:15.308Z</time>
      </trkpt>
      <trkpt lat="45.4304" lon="6.46125">
        <ele>1901.8533450371</ele>
        <time>2021-08-05T14:51:34.625Z</time>
      </trkpt>
      <trkpt lat="45.43037" lon="6.46117">
        <ele>1902.0972197386</ele>
        <time>2021-08-05T14:51:53.950Z</time>
      </trkpt>
      <trkpt lat="45.43029" lon="6.46094">
        <ele>1902.2171211474</ele>
        <time>2021-08-05T14:52:13.299Z</time>
      </trkpt>
      <trkpt lat="45.43025" lon="6.46069">
        <ele>1902.4537370254</ele>
        <time>2021-08-05T14:52:32.672Z</time>
      </trkpt>
      <trkpt lat="45.43015" lon="6.46037">
        <ele>1902.5952014148</ele>
        <time>2021-08-05T14:52:52.078Z</time>
      </trkpt>
      <trkpt lat="45.43004" lon="6.45999">
        <ele>1902.6736763429</ele>
        <time>2021-08-05T14:53:11.523Z</time>
      </trkpt>
      <trkpt lat="45.42994" lon="6.45977">
        <ele>1902.7732275455</ele>
        <time>2021-08-05T14:53:30.992Z</time>
      </trkpt>
      <trkpt lat="45.42984" lon="6.45956">
        <ele>1903.0392750112</ele>
        <time>2021-08-05T14:53:50.485Z</time>
      </trkpt>
      <trkpt lat="45.42971" lon="6.45938">
        <ele>1903.0816966326</ele>
        <time>2021-08-05T14:54:10.002Z</time>
      </trkpt>
      <trkpt lat="45.42944" lon="6.45907">
        <ele>1903.1577321813</ele>
        <time>2021-08-05T14:54:29.566Z</time>
      </trkpt>
      <trkpt lat="45.42929" lon="6.45883">
        <ele>1903.4692499385</ele>
        <time>2021-08-05T14:54:49.160Z</time>
      </trkpt>
      <trkpt lat="45.42901" lon="6.45859">
        <ele>1903.4746539757</ele>
        <time>2021-08-05T14:55:08.797Z</time>
      </trkpt>
      <trkpt lat="45.42889" lon="6.45844">
        <ele>1903.8218179024</ele>
        <time>2021-08-05T14:55:28.456Z</time>
      </trkpt>
      <trkpt lat="45.42875" lon="6.45837">
        <ele>1904.1934667867</ele>
        <time>2021-08-05T14:55:48.135Z</time>
      </trkpt>
      <trkpt lat="45.42864" lon="6.45824">
        <ele>1904.7884256258</ele>
        <time>2021-08-05T14:56:07.833Z</time>
      </trkpt>
      <trkpt lat="45.42853" lon="6.4579">
        <ele>1905.7205657946</ele>
        <time>2021-08-05T14:56:27.566Z</time>
      </trkpt>
      <trkpt lat="45.42848" lon="6.45773">
        <ele>1906.5930240314</ele>
        <time>2021-08-05T14:56:47.316Z</time>
      </trkpt>
      <trkpt lat="45.42844" lon="6.45768">
        <ele>1907.4700536712</ele>
        <time>2021-08-05T14:57:07.073Z</time>
      </trkpt>
      <trkpt lat="45.42835" lon="6.45758">
        <ele>1908.4859411315</ele>
        <time>2021-08-05T14:57:26.845Z</time>
      </trkpt>
      <trkpt lat="45.42829" lon="6.45755">
        <ele>1909.5159030487</ele>
        <time>2021-08-05T14:57:46.626Z</time>
      </trkpt>
      <trkpt lat="45.42812" lon="6.45747">
        <ele>1910.6517615609</ele>
        <time>2021-08-05T14:58:06.431Z</time>
      </trkpt>
      <trkpt lat="45.42795" lon="6.4574">
        <ele>1912.1133852932</ele>
        <time>2021-08-05T14:58:26.259Z</time>
      </trkpt>
      <trkpt lat="45.42784" lon="6.45736">
        <ele>1913.6590830155</ele>
        <time>2021-08-05T14:58:46.103Z</time>
      </trkpt>
      <trkpt lat="45.42767" lon="6.45734">
        <ele>1915.2530032151</ele>
        <time>2021-08-05T14:59:05.969Z</time>
      </trkpt>
      <trkpt lat="45.42742" lon="6.45733">
        <ele>1916.9552981515</ele>
        <time>2021-08-05T14:59:25.869Z</time>
      </trkpt>
      <trkpt lat="45.42717" lon="6.45727">
        <ele>1918.8540233194</ele>
        <time>2021-08-05T14:59:45.802Z</time>
      </trkpt>
      <trkpt lat="45.427" lon="6.45725">
        <ele>1920.5497476427</ele>
        <time>2021-08-05T15:00:05.758Z</time>
      </trkpt>
      <trkpt lat="45.42684" lon="6.4572">
        <ele>1922.3667256557</ele>
        <time>2021-08-05T15:00:25.736Z</time>
      </trkpt>
      <trkpt lat="45.42668" lon="6.45709">
        <ele>1924.3670836278</ele>
        <time>2021-08-05T15:00:45.738Z</time>
      </trkpt>
      <trkpt lat="45.42638" lon="6.45692">
        <ele>1926.3628920792</ele>
        <time>2021-08-05T15:01:05.783Z</time>
      </trkpt>
      <trkpt lat="45.42622" lon="6.45682">
        <ele>1928.525823222</ele>
        <time>2021-08-05T15:01:25.851Z</time>
      </trkpt>
      <trkpt lat="45.42605" lon="6.45674">
        <ele>1930.7118202054</ele>
        <time>2021-08-05T15:01:45.943Z</time>
      </trkpt>
      <trkpt lat="45.42586" lon="6.45665">
        <ele>1932.9317601969</ele>
        <time>2021-08-05T15:02:06.062Z</time>
      </trkpt>
      <trkpt lat="45.42573" lon="6.4565">
        <ele>1935.2755383973</ele>
        <time>2021-08-05T15:02:26.203Z</time>
      </trkpt>
      <trkpt lat="45.42559" lon="6.45635">
        <ele>1937.6493945567</ele>
        <time>2021-08-05T15:02:46.367Z</time>
      </trkpt>
      <trkpt lat="45.42548" lon="6.45643">
        <ele>1939.766983327</ele>
        <time>2021-08-05T15:03:06.548Z</time>
      </trkpt>
      <trkpt lat="45.42536" lon="6.45651">
        <ele>1941.9662295827</ele>
        <time>2021-08-05T15:03:26.747Z</time>
      </trkpt>
      <trkpt lat="45.42515" lon="6.45657">
        <ele>1944.1287755736</ele>
        <time>2021-08-05T15:03:46.974Z</time>
      </trkpt>
      <trkpt lat="45.42506" lon="6.45657">
        <ele>1946.5339360521</ele>
        <time>2021-08-05T15:04:07.213Z</time>
      </trkpt>
      <trkpt lat="45.42484" lon="6.45655">
        <ele>1948.9235755589</ele>
        <time>2021-08-05T15:04:27.482Z</time>
      </trkpt>
      <trkpt lat="45.42449" lon="6.45644">
        <ele>1951.7301422399</ele>
        <time>2021-08-05T15:04:47.798Z</time>
      </trkpt>
      <trkpt lat="45.42436" lon="6.45658">
        <ele>1954.4820564172</ele>
        <time>2021-08-05T15:05:08.136Z</time>
      </trkpt>
      <trkpt lat="45.4242" lon="6.45668">
        <ele>1957.2297521781</ele>
        <time>2021-08-05T15:05:28.497Z</time>
      </trkpt>
      <trkpt lat="45.424" lon="6.45667">
        <ele>1960.291222617</ele>
        <time>2021-08-05T15:05:48.885Z</time>
      </trkpt>
      <trkpt lat="45.42381" lon="6.45658">
        <ele>1963.5335418282</ele>
        <time>2021-08-05T15:06:09.300Z</time>
      </trkpt>
      <trkpt lat="45.42362" lon="6.45636">
        <ele>1967.0045564747</ele>
        <time>2021-08-05T15:06:29.748Z</time>
      </trkpt>
      <trkpt lat="45.42342" lon="6.456">
        <ele>1970.3133351544</ele>
        <time>2021-08-05T15:06:50.239Z</time>
      </trkpt>
      <trkpt lat="45.42328" lon="6.4558">
        <ele>1973.4009286446</ele>
        <time>2021-08-05T15:07:10.756Z</time>
      </trkpt>
      <trkpt lat="45.42325" lon="6.45575">
        <ele>1976.2814317185</ele>
        <time>2021-08-05T15:07:31.279Z</time>
      </trkpt>
      <trkpt lat="45.42314" lon="6.45566">
        <ele>1979.1195701814</ele>
        <time>2021-08-05T15:07:51.819Z</time>
      </trkpt>
      <trkpt lat="45.42291" lon="6.4554">
        <ele>1981.8174110396</ele>
        <time>2021-08-05T15:08:12.398Z</time>
      </trkpt>
      <trkpt lat="45.4228" lon="6.45509">
        <ele>1984.4839963429</ele>
        <time>2021-08-05T15:08:33.010Z</time>
      </trkpt>
      <trkpt lat="45.42276" lon="6.45497">
        <ele>1987.0803111083</ele>
        <time>2021-08-05T15:08:53.635Z</time>
      </trkpt>
      <trkpt lat="45.42276" lon="6.45484">
        <ele>1989.6627467952</ele>
        <time>2021-08-05T15:09:14.272Z</time>
      </trkpt>
      <trkpt lat="45.42276" lon="6.45444">
        <ele>1992.3606128619</ele>
        <time>2021-08-05T15:09:34.946Z</time>
      </trkpt>
      <trkpt lat="45.42276" lon="6.4539">
        <ele>1995.1417087796</ele>
        <time>2021-08-05T15:09:55.671Z</time>
      </trkpt>
      <trkpt lat="45.42275" lon="6.4533">
        <ele>1997.8251502639</ele>
        <time>2021-08-05T15:10:16.452Z</time>
      </trkpt>
      <trkpt lat="45.42273" lon="6.45305">
        <ele>2000.0406032554</ele>
        <time>2021-08-05T15:10:37.257Z</time>
      </trkpt>
      <trkpt lat="45.42268" lon="6.45298">
        <ele>2001.9378638819</ele>
        <time>2021-08-05T15:10:58.071Z</time>
      </trkpt>
      <trkpt lat="45.42259" lon="6.45288">
        <ele>2003.6306182413</ele>
        <time>2021-08-05T15:11:18.901Z</time>
      </trkpt>
      <trkpt lat="45.42255" lon="6.45279">
        <ele>2005.2764772879</ele>
        <time>2021-08-05T15:11:39.741Z</time>
      </trkpt>
      <trkpt lat="45.42253" lon="6.45265">
        <ele>2006.9092880629</ele>
        <time>2021-08-05T15:12:00.594Z</time>
      </trkpt>
      <trkpt lat="45.42244" lon="6.45244">
        <ele>2008.3555246784</ele>
        <time>2021-08-05T15:12:21.470Z</time>
      </trkpt>
      <trkpt lat="45.42238" lon="6.45238">
        <ele>2009.5439825765</ele>
        <time>2021-08-05T15:12:42.356Z</time>
      </trkpt>
      <trkpt lat="45.42232" lon="6.45236">
        <ele>2010.5413325144</ele>
        <time>2021-08-05T15:13:03.250Z</time>
      </trkpt>
      <trkpt lat="45.42217" lon="6.45233">
        <ele>2011.2575773722</ele>
        <time>2021-08-05T15:13:24.164Z</time>
      </trkpt>
      <trkpt lat="45.4221" lon="6.45233">
        <ele>2011.9648693269</ele>
        <time>2021-08-05T15:13:45.088Z</time>
      </trkpt>
      <trkpt lat="45.42206" lon="6.45228">
        <ele>2012.6537566658</ele>
        <time>2021-08-05T15:14:06.019Z</time>
      </trkpt>
      <trkpt lat="45.42204" lon="6.45216">
        <ele>2013.3459641614</ele>
        <time>2021-08-05T15:14:26.961Z</time>
      </trkpt>
      <trkpt lat="45.42194" lon="6.45201">
        <ele>2013.8521661906</ele>
        <time>2021-08-05T15:14:47.923Z</time>
      </trkpt>
      <trkpt lat="45.4218" lon="6.45182">
        <ele>2014.3545202435</ele>
        <time>2021-08-05T15:15:08.911Z</time>
      </trkpt>
      <trkpt lat="45.42169" lon="6.45174">
        <ele>2014.6342957296</ele>
        <time>2021-08-05T15:15:29.915Z</time>
      </trkpt>
      <trkpt lat="45.42155" lon="6.4517">
        <ele>2014.7855388481</ele>
        <time>2021-08-05T15:15:50.938Z</time>
      </trkpt>
      <trkpt lat="45.42149" lon="6.45171">
        <ele>2014.8095452393</ele>
        <time>2021-08-05T15:16:11.969Z</time>
      </trkpt>
      <trkpt lat="45.42143" lon="6.45175">
        <ele>2014.6935150187</ele>
        <time>2021-08-05T15:16:33.009Z</time>
      </trkpt>
      <trkpt lat="45.42134" lon="6.45185">
        <ele>2014.344594807</ele>
        <time>2021-08-05T15:16:54.064Z</time>
      </trkpt>
      <trkpt lat="45.42122" lon="6.45188">
        <ele>2014.0420714386</ele>
        <time>2021-08-05T15:17:15.135Z</time>
      </trkpt>
      <trkpt lat="45.42101" lon="6.45188">
        <ele>2013.6613521109</ele>
        <time>2021-08-05T15:17:36.235Z</time>
      </trkpt>
      <trkpt lat="45.42094" lon="6.45185">
        <ele>2013.3848672354</ele>
        <time>2021-08-05T15:17:57.344Z</time>
      </trkpt>
      <trkpt lat="45.4209" lon="6.4518">
        <ele>2013.1145978704</ele>
        <time>2021-08-05T15:18:18.460Z</time>
      </trkpt>
      <trkpt lat="45.42082" lon="6.45172">
        <ele>2012.827067632</ele>
        <time>2021-08-05T15:18:39.589Z</time>
      </trkpt>
      <trkpt lat="45.42075" lon="6.45158">
        <ele>2012.5969671906</ele>
        <time>2021-08-05T15:19:00.735Z</time>
      </trkpt>
      <trkpt lat="45.4206" lon="6.45135">
        <ele>2012.4051278939</ele>
        <time>2021-08-05T15:19:21.910Z</time>
      </trkpt>
      <trkpt lat="45.42051" lon="6.45126">
        <ele>2012.0458979558</ele>
        <time>2021-08-05T15:19:43.100Z</time>
      </trkpt>
      <trkpt lat="45.42036" lon="6.45118">
        <ele>2011.6272827062</ele>
        <time>2021-08-05T15:20:04.311Z</time>
      </trkpt>
      <trkpt lat="45.42021" lon="6.45113">
        <ele>2011.1276197928</ele>
        <time>2021-08-05T15:20:25.543Z</time>
      </trkpt>
      <trkpt lat="45.42014" lon="6.45111">
        <ele>2010.6337340876</ele>
        <time>2021-08-05T15:20:46.784Z</time>
      </trkpt>
      <trkpt lat="45.42007" lon="6.45113">
        <ele>2010.0661658417</ele>
        <time>2021-08-05T15:21:08.035Z</time>
      </trkpt>
      <trkpt lat="45.41992" lon="6.45115">
        <ele>2009.4538257188</ele>
        <time>2021-08-05T15:21:29.306Z</time>
      </trkpt>
      <trkpt lat="45.41986" lon="6.45115">
        <ele>2008.9483594848</ele>
        <time>2021-08-05T15:21:50.585Z</time>
      </trkpt>
      <trkpt lat="45.41978" lon="6.45112">
        <ele>2008.4914148844</ele>
        <time>2021-08-05T15:22:11.875Z</time>
      </trkpt>
      <trkpt lat="45.41969" lon="6.45104">
        <ele>2008.0989352746</ele>
        <time>2021-08-05T15:22:33.179Z</time>
      </trkpt>
      <trkpt lat="45.41959" lon="6.45095">
        <ele>2007.6522716414</ele>
        <time>2021-08-05T15:22:54.499Z</time>
      </trkpt>
      <trkpt lat="45.41943" lon="6.45073">
        <ele>2007.2713499272</ele>
        <time>2021-08-05T15:23:15.848Z</time>
      </trkpt>
      <trkpt lat="45.41932" lon="6.45052">
        <ele>2006.7776489138</ele>
        <time>2021-08-05T15:23:37.222Z</time>
      </trkpt>
      <trkpt lat="45.41923" lon="6.45037">
        <ele>2006.2352274084</ele>
        <time>2021-08-05T15:23:58.615Z</time>
      </trkpt>
      <trkpt lat="45.41918" lon="6.45017">
        <ele>2005.9198082779</ele>
        <time>2021-08-05T15:24:20.027Z</time>
      </trkpt>
      <trkpt lat="45.41913" lon="6.44987">
        <ele>2005.8055901186</ele>
        <time>2021-08-05T15:24:41.468Z</time>
      </trkpt>
      <trkpt lat="45.41907" lon="6.44971">
        <ele>2005.5587227466</ele>
        <time>2021-08-05T15:25:02.926Z</time>
      </trkpt>
      <trkpt lat="45.41898" lon="6.44957">
        <ele>2005.1835855888</ele>
        <time>2021-08-05T15:25:24.402Z</time>
      </trkpt>
      <trkpt lat="45.41889" lon="6.44941">
        <ele>2004.8461338063</ele>
        <time>2021-08-05T15:25:45.897Z</time>
      </trkpt>
      <trkpt lat="45.4188" lon="6.44919">
        <ele>2004.5668055829</ele>
        <time>2021-08-05T15:26:07.416Z</time>
      </trkpt>
      <trkpt lat="45.41874" lon="6.44901">
        <ele>2004.3709279197</ele>
        <time>2021-08-05T15:26:28.954Z</time>
      </trkpt>
      <trkpt lat="45.41866" lon="6.44889">
        <ele>2004.1500891503</ele>
        <time>2021-08-05T15:26:50.508Z</time>
      </trkpt>
      <trkpt lat="45.41856" lon="6.44879">
        <ele>2003.9495338923</ele>
        <time>2021-08-05T15:27:12.078Z</time>
      </trkpt>
      <trkpt lat="45.41844" lon="6.44875">
        <ele>2003.7199515613</ele>
        <time>2021-08-05T15:27:33.664Z</time>
      </trkpt>
      <trkpt lat="45.41838" lon="6.44868">
        <ele>2003.6308786021</ele>
        <time>2021-08-05T15:27:55.261Z</time>
      </trkpt>
      <trkpt lat="45.41822" lon="6.44851">
        <ele>2003.6297496873</ele>
        <time>2021-08-05T15:28:16.884Z</time>
      </trkpt>
      <trkpt lat="45.41811" lon="6.44844">
        <ele>2003.6213071855</ele>
        <time>2021-08-05T15:28:38.523Z</time>
      </trkpt>
      <trkpt lat="45.41805" lon="6.44838">
        <ele>2003.6723352009</ele>
        <time>2021-08-05T15:29:00.172Z</time>
      </trkpt>
      <trkpt lat="45.41799" lon="6.44833">
        <ele>2003.7507120304</ele>
        <time>2021-08-05T15:29:21.830Z</time>
      </trkpt>
      <trkpt lat="45.41792" lon="6.44831">
        <ele>2003.8199154057</ele>
        <time>2021-08-05T15:29:43.498Z</time>
      </trkpt>
      <trkpt lat="45.41783" lon="6.44828">
        <ele>2003.928129648</ele>
        <time>2021-08-05T15:30:05.178Z</time>
      </trkpt>
      <trkpt lat="45.41775" lon="6.44829">
        <ele>2004.0168127079</ele>
        <time>2021-08-05T15:30:26.869Z</time>
      </trkpt>
      <trkpt lat="45.41771" lon="6.44828">
        <ele>2004.2017805037</ele>
        <time>2021-08-05T15:30:48.565Z</time>
      </trkpt>
      <trkpt lat="45.41766" lon="6.4483">
        <ele>2004.3318409684</ele>
        <time>2021-08-05T15:31:10.268Z</time>
      </trkpt>
      <trkpt lat="45.41755" lon="6.44834">
        <ele>2004.4039593162</ele>
        <time>2021-08-05T15:31:31.987Z</time>
      </trkpt>
      <trkpt lat="45.41743" lon="6.44834">
        <ele>2004.6087188911</ele>
        <time>2021-08-05T15:31:53.722Z</time>
      </trkpt>
      <trkpt lat="45.41732" lon="6.44836">
        <ele>2004.8562270759</ele>
        <time>2021-08-05T15:32:15.471Z</time>
      </trkpt>
      <trkpt lat="45.41729" lon="6.44834">
        <ele>2005.2307422946</ele>
        <time>2021-08-05T15:32:37.225Z</time>
      </trkpt>
      <trkpt lat="45.41725" lon="6.4483">
        <ele>2005.6748677472</ele>
        <time>2021-08-05T15:32:58.985Z</time>
      </trkpt>
      <trkpt lat="45.41714" lon="6.44821">
        <ele>2006.2331760148</ele>
        <time>2021-08-05T15:33:20.762Z</time>
      </trkpt>
      <trkpt lat="45.41699" lon="6.44806">
        <ele>2006.9091104834</ele>
        <time>2021-08-05T15:33:42.564Z</time>
      </trkpt>
      <trkpt lat="45.41692" lon="6.44801">
        <ele>2007.3528669008</ele>
        <time>2021-08-05T15:34:04.376Z</time>
      </trkpt>
      <trkpt lat="45.4169" lon="6.44794">
        <ele>2007.8172555798</ele>
        <time>2021-08-05T15:34:26.195Z</time>
      </trkpt>
      <trkpt lat="45.41689" lon="6.44787">
        <ele>2008.282863004</ele>
        <time>2021-08-05T15:34:48.021Z</time>
      </trkpt>
      <trkpt lat="45.41686" lon="6.44784">
        <ele>2008.6622253906</ele>
        <time>2021-08-05T15:35:09.852Z</time>
      </trkpt>
      <trkpt lat="45.4168" lon="6.44778">
        <ele>2009.0251380294</ele>
        <time>2021-08-05T15:35:31.693Z</time>
      </trkpt>
      <trkpt lat="45.41676" lon="6.44765">
        <ele>2009.3475023559</ele>
        <time>2021-08-05T15:35:53.547Z</time>
      </trkpt>
      <trkpt lat="45.41674" lon="6.44745">
        <ele>2009.6917548192</ele>
        <time>2021-08-05T15:36:15.420Z</time>
      </trkpt>
      <trkpt lat="45.41673" lon="6.44718">
        <ele>2009.9495583762</ele>
        <time>2021-08-05T15:36:37.318Z</time>
      </trkpt>
      <trkpt lat="45.41669" lon="6.44673">
        <ele>2010.207839414</ele>
        <time>2021-08-05T15:36:59.259Z</time>
      </trkpt>
      <trkpt lat="45.41665" lon="6.44614">
        <ele>2010.3773777948</ele>
        <time>2021-08-05T15:37:21.256Z</time>
      </trkpt>
      <trkpt lat="45.4166" lon="6.44577">
        <ele>2010.4544105985</ele>
        <time>2021-08-05T15:37:43.288Z</time>
      </trkpt>
      <trkpt lat="45.41653" lon="6.44542">
        <ele>2010.4021277131</ele>
        <time>2021-08-05T15:38:05.354Z</time>
      </trkpt>
      <trkpt lat="45.41648" lon="6.44515">
        <ele>2010.318135784</ele>
        <time>2021-08-05T15:38:27.446Z</time>
      </trkpt>
      <trkpt lat="45.41646" lon="6.44494">
        <ele>2010.2526148445</ele>
        <time>2021-08-05T15:38:49.558Z</time>
      </trkpt>
      <trkpt lat="45.41651" lon="6.44468">
        <ele>2010.2950631292</ele>
        <time>2021-08-05T15:39:11.696Z</time>
      </trkpt>
      <trkpt lat="45.41654" lon="6.44458">
        <ele>2010.2315208586</ele>
        <time>2021-08-05T15:39:33.844Z</time>
      </trkpt>
      <trkpt lat="45.41659" lon="6.44452">
        <ele>2010.1422641975</ele>
        <time>2021-08-05T15:39:56.001Z</time>
      </trkpt>
      <trkpt lat="45.41659" lon="6.44444">
        <ele>2009.8824431495</ele>
        <time>2021-08-05T15:40:18.165Z</time>
      </trkpt>
      <trkpt lat="45.41657" lon="6.44437">
        <ele>2009.5212443638</ele>
        <time>2021-08-05T15:40:40.336Z</time>
      </trkpt>
      <trkpt lat="45.41651" lon="6.44424">
        <ele>2009.0313589987</ele>
        <time>2021-08-05T15:41:02.522Z</time>
      </trkpt>
      <trkpt lat="45.41651" lon="6.44409">
        <ele>2008.6431809125</ele>
        <time>2021-08-05T15:41:24.722Z</time>
      </trkpt>
      <trkpt lat="45.41651" lon="6.44401">
        <ele>2008.1766065271</ele>
        <time>2021-08-05T15:41:46.929Z</time>
      </trkpt>
      <trkpt lat="45.41648" lon="6.44394">
        <ele>2007.5926063869</ele>
        <time>2021-08-05T15:42:09.144Z</time>
      </trkpt>
      <trkpt lat="45.41644" lon="6.44386">
        <ele>2006.9247115932</ele>
        <time>2021-08-05T15:42:31.368Z</time>
      </trkpt>
      <trkpt lat="45.41632" lon="6.44356">
        <ele>2006.0520300278</ele>
        <time>2021-08-05T15:42:53.625Z</time>
      </trkpt>
      <trkpt lat="45.4163" lon="6.44345">
        <ele>2005.3234578316</ele>
        <time>2021-08-05T15:43:15.892Z</time>
      </trkpt>
      <trkpt lat="45.41625" lon="6.4433">
        <ele>2004.4780247909</ele>
        <time>2021-08-05T15:43:38.175Z</time>
      </trkpt>
      <trkpt lat="45.41623" lon="6.44315">
        <ele>2003.6568931162</ele>
        <time>2021-08-05T15:44:00.472Z</time>
      </trkpt>
      <trkpt lat="45.41626" lon="6.44302">
        <ele>2002.9774445576</ele>
        <time>2021-08-05T15:44:22.782Z</time>
      </trkpt>
      <trkpt lat="45.41633" lon="6.44291">
        <ele>2002.4034295671</ele>
        <time>2021-08-05T15:44:45.106Z</time>
      </trkpt>
      <trkpt lat="45.41632" lon="6.44279">
        <ele>2001.5618211979</ele>
        <time>2021-08-05T15:45:07.441Z</time>
      </trkpt>
      <trkpt lat="45.41632" lon="6.44266">
        <ele>2000.6555477101</ele>
        <time>2021-08-05T15:45:29.789Z</time>
      </trkpt>
      <trkpt lat="45.41625" lon="6.44261">
        <ele>1999.45962932</ele>
        <time>2021-08-05T15:45:52.147Z</time>
      </trkpt>
      <trkpt lat="45.41617" lon="6.44251">
        <ele>1998.2123589615</ele>
        <time>2021-08-05T15:46:14.519Z</time>
      </trkpt>
      <trkpt lat="45.41616" lon="6.44242">
        <ele>1997.1142597861</ele>
        <time>2021-08-05T15:46:36.900Z</time>
      </trkpt>
      <trkpt lat="45.41611" lon="6.44227">
        <ele>1995.850206189</ele>
        <time>2021-08-05T15:46:59.296Z</time>
      </trkpt>
      <trkpt lat="45.4161" lon="6.44216">
        <ele>1994.6914381104</ele>
        <time>2021-08-05T15:47:21.703Z</time>
      </trkpt>
      <trkpt lat="45.41611" lon="6.442">
        <ele>1993.534169352</ele>
        <time>2021-08-05T15:47:44.125Z</time>
      </trkpt>
      <trkpt lat="45.41616" lon="6.44194">
        <ele>1992.5783192772</ele>
        <time>2021-08-05T15:48:06.556Z</time>
      </trkpt>
      <trkpt lat="45.41613" lon="6.44184">
        <ele>1991.3847578102</ele>
        <time>2021-08-05T15:48:28.997Z</time>
      </trkpt>
      <trkpt lat="45.41613" lon="6.4417">
        <ele>1990.3063575484</ele>
        <time>2021-08-05T15:48:51.451Z</time>
      </trkpt>
      <trkpt lat="45.41617" lon="6.44141">
        <ele>1989.2742926065</ele>
        <time>2021-08-05T15:49:13.933Z</time>
      </trkpt>
      <trkpt lat="45.4162" lon="6.44112">
        <ele>1987.9447441421</ele>
        <time>2021-08-05T15:49:36.442Z</time>
      </trkpt>
      <trkpt lat="45.41629" lon="6.44071">
        <ele>1986.6865703582</ele>
        <time>2021-08-05T15:49:58.992Z</time>
      </trkpt>
      <trkpt lat="45.41631" lon="6.44053">
        <ele>1985.6165392438</ele>
        <time>2021-08-05T15:50:21.559Z</time>
      </trkpt>
      <trkpt lat="45.41637" lon="6.4403">
        <ele>1984.5956026087</ele>
        <time>2021-08-05T15:50:44.149Z</time>
      </trkpt>
      <trkpt lat="45.41639" lon="6.44005">
        <ele>1983.5720038577</ele>
        <time>2021-08-05T15:51:06.762Z</time>
      </trkpt>
      <trkpt lat="45.41645" lon="6.43986">
        <ele>1982.7920533166</ele>
        <time>2021-08-05T15:51:29.395Z</time>
      </trkpt>
      <trkpt lat="45.41651" lon="6.43964">
        <ele>1981.9519526312</ele>
        <time>2021-08-05T15:51:52.050Z</time>
      </trkpt>
      <trkpt lat="45.41651" lon="6.43956">
        <ele>1981.1602597805</ele>
        <time>2021-08-05T15:52:14.713Z</time>
      </trkpt>
      <trkpt lat="45.41656" lon="6.43948">
        <ele>1980.5182443569</ele>
        <time>2021-08-05T15:52:37.386Z</time>
      </trkpt>
      <trkpt lat="45.4166" lon="6.43936">
        <ele>1979.8924857395</ele>
        <time>2021-08-05T15:53:00.071Z</time>
      </trkpt>
      <trkpt lat="45.41666" lon="6.43924">
        <ele>1979.3999842192</ele>
        <time>2021-08-05T15:53:22.770Z</time>
      </trkpt>
      <trkpt lat="45.41669" lon="6.43913">
        <ele>1978.8608922546</ele>
        <time>2021-08-05T15:53:45.480Z</time>
      </trkpt>
      <trkpt lat="45.41672" lon="6.43897">
        <ele>1978.3041359748</ele>
        <time>2021-08-05T15:54:08.206Z</time>
      </trkpt>
      <trkpt lat="45.41681" lon="6.4388">
        <ele>1978.0165414273</ele>
        <time>2021-08-05T15:54:30.952Z</time>
      </trkpt>
      <trkpt lat="45.41684" lon="6.43866">
        <ele>1977.5986552558</ele>
        <time>2021-08-05T15:54:53.711Z</time>
      </trkpt>
      <trkpt lat="45.41691" lon="6.43822">
        <ele>1977.1719363308</ele>
        <time>2021-08-05T15:55:16.513Z</time>
      </trkpt>
      <trkpt lat="45.417" lon="6.43786">
        <ele>1976.8115863948</ele>
        <time>2021-08-05T15:55:39.351Z</time>
      </trkpt>
      <trkpt lat="45.41704" lon="6.43756">
        <ele>1976.4213919991</ele>
        <time>2021-08-05T15:56:02.217Z</time>
      </trkpt>
      <trkpt lat="45.41708" lon="6.43725">
        <ele>1976.0259329186</ele>
        <time>2021-08-05T15:56:25.113Z</time>
      </trkpt>
      <trkpt lat="45.41717" lon="6.43681">
        <ele>1975.7731244049</ele>
        <time>2021-08-05T15:56:48.052Z</time>
      </trkpt>
      <trkpt lat="45.41713" lon="6.43668">
        <ele>1975.3613970786</ele>
        <time>2021-08-05T15:57:11.004Z</time>
      </trkpt>
      <trkpt lat="45.41706" lon="6.43661">
        <ele>1974.8995868354</ele>
        <time>2021-08-05T15:57:33.968Z</time>
      </trkpt>
      <trkpt lat="45.417" lon="6.43659">
        <ele>1974.4221573899</ele>
        <time>2021-08-05T15:57:56.940Z</time>
      </trkpt>
      <trkpt lat="45.41696" lon="6.43652">
        <ele>1973.9742985718</ele>
        <time>2021-08-05T15:58:19.920Z</time>
      </trkpt>
      <trkpt lat="45.41695" lon="6.43638">
        <ele>1973.5635120746</ele>
        <time>2021-08-05T15:58:42.914Z</time>
      </trkpt>
      <trkpt lat="45.41697" lon="6.43628">
        <ele>1973.0816839135</ele>
        <time>2021-08-05T15:59:05.917Z</time>
      </trkpt>
      <trkpt lat="45.41697" lon="6.43612">
        <ele>1972.5393849228</ele>
        <time>2021-08-05T15:59:28.935Z</time>
      </trkpt>
      <trkpt lat="45.41692" lon="6.43613">
        <ele>1971.9212968973</ele>
        <time>2021-08-05T15:59:51.960Z</time>
      </trkpt>
      <trkpt lat="45.41689" lon="6.43609">
        <ele>1971.2694178465</ele>
        <time>2021-08-05T16:00:14.991Z</time>
      </trkpt>
      <trkpt lat="45.41688" lon="6.43601">
        <ele>1970.5679732131</ele>
        <time>2021-08-05T16:00:38.029Z</time>
      </trkpt>
      <trkpt lat="45.41692" lon="6.43592">
        <ele>1969.902183444</ele>
        <time>2021-08-05T16:01:01.077Z</time>
      </trkpt>
      <trkpt lat="45.41705" lon="6.43555">
        <ele>1969.1355050342</ele>
        <time>2021-08-05T16:01:24.164Z</time>
      </trkpt>
      <trkpt lat="45.41714" lon="6.43533">
        <ele>1968.2860368338</ele>
        <time>2021-08-05T16:01:47.275Z</time>
      </trkpt>
      <trkpt lat="45.41714" lon="6.43522">
        <ele>1967.3479131479</ele>
        <time>2021-08-05T16:02:10.396Z</time>
      </trkpt>
      <trkpt lat="45.41712" lon="6.43516">
        <ele>1966.3746456199</ele>
        <time>2021-08-05T16:02:33.523Z</time>
      </trkpt>
      <trkpt lat="45.41706" lon="6.43512">
        <ele>1965.3134716535</ele>
        <time>2021-08-05T16:02:56.659Z</time>
      </trkpt>
      <trkpt lat="45.41701" lon="6.43513">
        <ele>1964.2086536633</ele>
        <time>2021-08-05T16:03:19.802Z</time>
      </trkpt>
      <trkpt lat="45.41693" lon="6.43516">
        <ele>1963.0260502143</ele>
        <time>2021-08-05T16:03:42.956Z</time>
      </trkpt>
      <trkpt lat="45.41688" lon="6.4353">
        <ele>1961.8214852106</ele>
        <time>2021-08-05T16:04:06.125Z</time>
      </trkpt>
      <trkpt lat="45.41686" lon="6.43548">
        <ele>1960.6192338438</ele>
        <time>2021-08-05T16:04:29.311Z</time>
      </trkpt>
      <trkpt lat="45.41681" lon="6.43561">
        <ele>1959.2968627562</ele>
        <time>2021-08-05T16:04:52.511Z</time>
      </trkpt>
      <trkpt lat="45.41672" lon="6.43576">
        <ele>1957.8869352934</ele>
        <time>2021-08-05T16:05:15.729Z</time>
      </trkpt>
      <trkpt lat="45.41656" lon="6.43593">
        <ele>1956.3959060546</ele>
        <time>2021-08-05T16:05:38.974Z</time>
      </trkpt>
      <trkpt lat="45.41629" lon="6.43606">
        <ele>1954.6651614959</ele>
        <time>2021-08-05T16:06:02.257Z</time>
      </trkpt>
      <trkpt lat="45.41617" lon="6.43619">
        <ele>1953.1266986646</ele>
        <time>2021-08-05T16:06:25.560Z</time>
      </trkpt>
      <trkpt lat="45.41604" lon="6.43637">
        <ele>1951.5488096375</ele>
        <time>2021-08-05T16:06:48.887Z</time>
      </trkpt>
      <trkpt lat="45.41598" lon="6.43642">
        <ele>1950.0424802028</ele>
        <time>2021-08-05T16:07:12.224Z</time>
      </trkpt>
      <trkpt lat="45.41591" lon="6.43644">
        <ele>1948.5168891136</ele>
        <time>2021-08-05T16:07:35.570Z</time>
      </trkpt>
      <trkpt lat="45.41583" lon="6.43645">
        <ele>1946.9910192205</ele>
        <time>2021-08-05T16:07:58.927Z</time>
      </trkpt>
      <trkpt lat="45.41573" lon="6.43646">
        <ele>1945.4837582096</ele>
        <time>2021-08-05T16:08:22.297Z</time>
      </trkpt>
      <trkpt lat="45.41568" lon="6.43649">
        <ele>1944.0431188195</ele>
        <time>2021-08-05T16:08:45.675Z</time>
      </trkpt>
      <trkpt lat="45.41564" lon="6.43654">
        <ele>1942.6169585612</ele>
        <time>2021-08-05T16:09:09.060Z</time>
      </trkpt>
      <trkpt lat="45.41555" lon="6.4368">
        <ele>1941.1753322086</ele>
        <time>2021-08-05T16:09:32.472Z</time>
      </trkpt>
      <trkpt lat="45.41552" lon="6.43698">
        <ele>1939.8136338528</ele>
        <time>2021-08-05T16:09:55.901Z</time>
      </trkpt>
      <trkpt lat="45.41553" lon="6.43715">
        <ele>1938.4918377658</ele>
        <time>2021-08-05T16:10:19.346Z</time>
      </trkpt>
      <trkpt lat="45.41556" lon="6.43729">
        <ele>1937.2195430018</ele>
        <time>2021-08-05T16:10:42.805Z</time>
      </trkpt>
      <trkpt lat="45.41558" lon="6.43743">
        <ele>1935.9618693178</ele>
        <time>2021-08-05T16:11:06.277Z</time>
      </trkpt>
      <trkpt lat="45.41557" lon="6.43758">
        <ele>1934.702593847</ele>
        <time>2021-08-05T16:11:29.764Z</time>
      </trkpt>
      <trkpt lat="45.41552" lon="6.4378">
        <ele>1933.4227569259</ele>
        <time>2021-08-05T16:11:53.272Z</time>
      </trkpt>
      <trkpt lat="45.41553" lon="6.438">
        <ele>1932.2900757006</ele>
        <time>2021-08-05T16:12:16.799Z</time>
      </trkpt>
      <trkpt lat="45.41549" lon="6.43805">
        <ele>1931.1772863094</ele>
        <time>2021-08-05T16:12:40.333Z</time>
      </trkpt>
      <trkpt lat="45.41544" lon="6.43803">
        <ele>1930.1102765669</ele>
        <time>2021-08-05T16:13:03.874Z</time>
      </trkpt>
      <trkpt lat="45.4154" lon="6.43794">
        <ele>1929.0970271805</ele>
        <time>2021-08-05T16:13:27.425Z</time>
      </trkpt>
      <trkpt lat="45.41533" lon="6.43771">
        <ele>1928.121709136</ele>
        <time>2021-08-05T16:13:51.000Z</time>
      </trkpt>
      <trkpt lat="45.4153" lon="6.43758">
        <ele>1927.2252167251</ele>
        <time>2021-08-05T16:14:14.588Z</time>
      </trkpt>
      <trkpt lat="45.41528" lon="6.43755">
        <ele>1926.3680033855</ele>
        <time>2021-08-05T16:14:38.179Z</time>
      </trkpt>
      <trkpt lat="45.41524" lon="6.43756">
        <ele>1925.5238729705</ele>
        <time>2021-08-05T16:15:01.776Z</time>
      </trkpt>
      <trkpt lat="45.41522" lon="6.43759">
        <ele>1924.7398295157</ele>
        <time>2021-08-05T16:15:25.377Z</time>
      </trkpt>
      <trkpt lat="45.41522" lon="6.43766">
        <ele>1924.0141800624</ele>
        <time>2021-08-05T16:15:48.984Z</time>
      </trkpt>
      <trkpt lat="45.41521" lon="6.4378">
        <ele>1923.3086182891</ele>
        <time>2021-08-05T16:16:12.604Z</time>
      </trkpt>
      <trkpt lat="45.41517" lon="6.43798">
        <ele>1922.6170489382</ele>
        <time>2021-08-05T16:16:36.242Z</time>
      </trkpt>
      <trkpt lat="45.41514" lon="6.4382">
        <ele>1921.9714813991</ele>
        <time>2021-08-05T16:16:59.901Z</time>
      </trkpt>
      <trkpt lat="45.41511" lon="6.4383">
        <ele>1921.3563186626</ele>
        <time>2021-08-05T16:17:23.570Z</time>
      </trkpt>
      <trkpt lat="45.41505" lon="6.43832">
        <ele>1920.7312343356</ele>
        <time>2021-08-05T16:17:47.248Z</time>
      </trkpt>
      <trkpt lat="45.41501" lon="6.43826">
        <ele>1920.1577740104</ele>
        <time>2021-08-05T16:18:10.933Z</time>
      </trkpt>
      <trkpt lat="45.41498" lon="6.43813">
        <ele>1919.6171517787</ele>
        <time>2021-08-05T16:18:34.631Z</time>
      </trkpt>
      <trkpt lat="45.41497" lon="6.43792">
        <ele>1919.1175091474</ele>
        <time>2021-08-05T16:18:58.349Z</time>
      </trkpt>
      <trkpt lat="45.41498" lon="6.4377">
        <ele>1918.6622014455</ele>
        <time>2021-08-05T16:19:22.088Z</time>
      </trkpt>
      <trkpt lat="45.41499" lon="6.43733">
        <ele>1918.2811429722</ele>
        <time>2021-08-05T16:19:45.862Z</time>
      </trkpt>
      <trkpt lat="45.41498" lon="6.43725">
        <ele>1917.8142560526</ele>
        <time>2021-08-05T16:20:09.643Z</time>
      </trkpt>
      <trkpt lat="45.41494" lon="6.43718">
        <ele>1917.3507672725</ele>
        <time>2021-08-05T16:20:33.433Z</time>
      </trkpt>
      <trkpt lat="45.41486" lon="6.4372">
        <ele>1916.8242370131</ele>
        <time>2021-08-05T16:20:57.234Z</time>
      </trkpt>
      <trkpt lat="45.41481" lon="6.43725">
        <ele>1916.2856669134</ele>
        <time>2021-08-05T16:21:21.043Z</time>
      </trkpt>
      <trkpt lat="45.41466" lon="6.43748">
        <ele>1915.5470090518</ele>
        <time>2021-08-05T16:21:44.881Z</time>
      </trkpt>
      <trkpt lat="45.41458" lon="6.43761">
        <ele>1914.9166470302</ele>
        <time>2021-08-05T16:22:08.735Z</time>
      </trkpt>
      <trkpt lat="45.4145" lon="6.43766">
        <ele>1914.2829679696</ele>
        <time>2021-08-05T16:22:32.601Z</time>
      </trkpt>
      <trkpt lat="45.41443" lon="6.43766">
        <ele>1913.6739922039</ele>
        <time>2021-08-05T16:22:56.476Z</time>
      </trkpt>
      <trkpt lat="45.41435" lon="6.43761">
        <ele>1913.1127494165</ele>
        <time>2021-08-05T16:23:20.363Z</time>
      </trkpt>
      <trkpt lat="45.41431" lon="6.43758">
        <ele>1912.4882765566</ele>
        <time>2021-08-05T16:23:44.256Z</time>
      </trkpt>
      <trkpt lat="45.41424" lon="6.43756">
        <ele>1911.8064671937</ele>
        <time>2021-08-05T16:24:08.159Z</time>
      </trkpt>
      <trkpt lat="45.41417" lon="6.43759">
        <ele>1911.027158685</ele>
        <time>2021-08-05T16:24:32.071Z</time>
      </trkpt>
      <trkpt lat="45.41413" lon="6.43765">
        <ele>1910.1671862054</ele>
        <time>2021-08-05T16:24:55.991Z</time>
      </trkpt>
      <trkpt lat="45.41408" lon="6.43775">
        <ele>1909.2140901583</ele>
        <time>2021-08-05T16:25:19.923Z</time>
      </trkpt>
      <trkpt lat="45.414" lon="6.43783">
        <ele>1908.2477927786</ele>
        <time>2021-08-05T16:25:43.868Z</time>
      </trkpt>
      <trkpt lat="45.41395" lon="6.43785">
        <ele>1907.2817921706</ele>
        <time>2021-08-05T16:26:07.820Z</time>
      </trkpt>
      <trkpt lat="45.41387" lon="6.43784">
        <ele>1906.2796371688</ele>
        <time>2021-08-05T16:26:31.782Z</time>
      </trkpt>
      <trkpt lat="45.41379" lon="6.43786">
        <ele>1905.1952130435</ele>
        <time>2021-08-05T16:26:55.755Z</time>
      </trkpt>
      <trkpt lat="45.41376" lon="6.43791">
        <ele>1904.0103656726</ele>
        <time>2021-08-05T16:27:19.734Z</time>
      </trkpt>
      <trkpt lat="45.41374" lon="6.43802">
        <ele>1902.7008384875</ele>
        <time>2021-08-05T16:27:43.724Z</time>
      </trkpt>
      <trkpt lat="45.41369" lon="6.4382">
        <ele>1901.3238344685</ele>
        <time>2021-08-05T16:28:07.732Z</time>
      </trkpt>
      <trkpt lat="45.41361" lon="6.43846">
        <ele>1899.7778651414</ele>
        <time>2021-08-05T16:28:31.767Z</time>
      </trkpt>
      <trkpt lat="45.41354" lon="6.43882">
        <ele>1898.1791660945</ele>
        <time>2021-08-05T16:28:55.837Z</time>
      </trkpt>
      <trkpt lat="45.41347" lon="6.43902">
        <ele>1896.6136067095</ele>
        <time>2021-08-05T16:29:19.928Z</time>
      </trkpt>
      <trkpt lat="45.41338" lon="6.43913">
        <ele>1895.0874457935</ele>
        <time>2021-08-05T16:29:44.035Z</time>
      </trkpt>
      <trkpt lat="45.4133" lon="6.43915">
        <ele>1893.6034432673</ele>
        <time>2021-08-05T16:30:08.152Z</time>
      </trkpt>
      <trkpt lat="45.41327" lon="6.4392">
        <ele>1892.0525377704</ele>
        <time>2021-08-05T16:30:32.276Z</time>
      </trkpt>
      <trkpt lat="45.41323" lon="6.43919">
        <ele>1890.5031415956</ele>
        <time>2021-08-05T16:30:56.405Z</time>
      </trkpt>
      <trkpt lat="45.41315" lon="6.43913">
        <ele>1888.9362719166</ele>
        <time>2021-08-05T16:31:20.546Z</time>
      </trkpt>
      <trkpt lat="45.41311" lon="6.43912">
        <ele>1887.2486317835</ele>
        <time>2021-08-05T16:31:44.693Z</time>
      </trkpt>
      <trkpt lat="45.41305" lon="6.43912">
        <ele>1885.4858491631</ele>
        <time>2021-08-05T16:32:08.848Z</time>
      </trkpt>
      <trkpt lat="45.41294" lon="6.43918">
        <ele>1883.6693325238</ele>
        <time>2021-08-05T16:32:33.018Z</time>
      </trkpt>
      <trkpt lat="45.41282" lon="6.4393">
        <ele>1881.739593015</ele>
        <time>2021-08-05T16:32:57.208Z</time>
      </trkpt>
      <trkpt lat="45.41266" lon="6.4396">
        <ele>1879.5515374262</ele>
        <time>2021-08-05T16:33:21.433Z</time>
      </trkpt>
      <trkpt lat="45.41251" lon="6.43991">
        <ele>1877.3649991129</ele>
        <time>2021-08-05T16:33:45.694Z</time>
      </trkpt>
      <trkpt lat="45.41243" lon="6.4401">
        <ele>1875.2317998565</ele>
        <time>2021-08-05T16:34:09.975Z</time>
      </trkpt>
      <trkpt lat="45.41237" lon="6.44039">
        <ele>1872.9251406423</ele>
        <time>2021-08-05T16:34:34.285Z</time>
      </trkpt>
      <trkpt lat="45.4123" lon="6.44089">
        <ele>1870.2931651765</ele>
        <time>2021-08-05T16:34:58.643Z</time>
      </trkpt>
      <trkpt lat="45.41225" lon="6.44138">
        <ele>1867.8393267158</ele>
        <time>2021-08-05T16:35:23.047Z</time>
      </trkpt>
      <trkpt lat="45.41222" lon="6.44166">
        <ele>1865.4309872892</ele>
        <time>2021-08-05T16:35:47.478Z</time>
      </trkpt>
      <trkpt lat="45.4122" lon="6.44193">
        <ele>1862.8038901152</ele>
        <time>2021-08-05T16:36:11.934Z</time>
      </trkpt>
      <trkpt lat="45.41214" lon="6.44215">
        <ele>1860.0623460216</ele>
        <time>2021-08-05T16:36:36.412Z</time>
      </trkpt>
      <trkpt lat="45.41204" lon="6.4424">
        <ele>1857.3371243246</ele>
        <time>2021-08-05T16:37:00.917Z</time>
      </trkpt>
      <trkpt lat="45.412" lon="6.44256">
        <ele>1854.5251058499</ele>
        <time>2021-08-05T16:37:25.438Z</time>
      </trkpt>
      <trkpt lat="45.41188" lon="6.44289">
        <ele>1851.5959810485</ele>
        <time>2021-08-05T16:37:49.994Z</time>
      </trkpt>
      <trkpt lat="45.41181" lon="6.44315">
        <ele>1848.6609905478</ele>
        <time>2021-08-05T16:38:14.576Z</time>
      </trkpt>
      <trkpt lat="45.41176" lon="6.44351">
        <ele>1845.6253676377</ele>
        <time>2021-08-05T16:38:39.193Z</time>
      </trkpt>
      <trkpt lat="45.41163" lon="6.44437">
        <ele>1842.3349018692</ele>
        <time>2021-08-05T16:39:03.892Z</time>
      </trkpt>
      <trkpt lat="45.41153" lon="6.4448">
        <ele>1839.2424345999</ele>
        <time>2021-08-05T16:39:28.634Z</time>
      </trkpt>
      <trkpt lat="45.41146" lon="6.4453">
        <ele>1836.0989162331</ele>
        <time>2021-08-05T16:39:53.424Z</time>
      </trkpt>
      <trkpt lat="45.41136" lon="6.44585">
        <ele>1832.9820214152</ele>
        <time>2021-08-05T16:40:18.267Z</time>
      </trkpt>
      <trkpt lat="45.41127" lon="6.44615">
        <ele>1829.9286332212</ele>
        <time>2021-08-05T16:40:43.141Z</time>
      </trkpt>
      <trkpt lat="45.41118" lon="6.44636">
        <ele>1826.9157734614</ele>
        <time>2021-08-05T16:41:08.038Z</time>
      </trkpt>
      <trkpt lat="45.41102" lon="6.44659">
        <ele>1823.8954941825</ele>
        <time>2021-08-05T16:41:32.965Z</time>
      </trkpt>
      <trkpt lat="45.41077" lon="6.44699">
        <ele>1820.7824505446</ele>
        <time>2021-08-05T16:41:57.943Z</time>
      </trkpt>
      <trkpt lat="45.41012" lon="6.4481">
        <ele>1817.1551603897</ele>
        <time>2021-08-05T16:42:23.056Z</time>
      </trkpt>
      <trkpt lat="45.41001" lon="6.44825">
        <ele>1814.272418162</ele>
        <time>2021-08-05T16:42:48.190Z</time>
      </trkpt>
      <trkpt lat="45.40989" lon="6.44831">
        <ele>1811.5114156881</ele>
        <time>2021-08-05T16:43:13.340Z</time>
      </trkpt>
      <trkpt lat="45.40977" lon="6.44834">
        <ele>1808.7980894403</ele>
        <time>2021-08-05T16:43:38.507Z</time>
      </trkpt>
      <trkpt lat="45.40932" lon="6.4486">
        <ele>1806.0610954917</ele>
        <time>2021-08-05T16:44:03.739Z</time>
      </trkpt>
      <trkpt lat="45.40924" lon="6.44866">
        <ele>1803.4308064203</ele>
        <time>2021-08-05T16:44:28.983Z</time>
      </trkpt>
      <trkpt lat="45.40911" lon="6.44881">
        <ele>1800.6971229339</ele>
        <time>2021-08-05T16:44:54.249Z</time>
      </trkpt>
      <trkpt lat="45.409" lon="6.44898">
        <ele>1797.7752665784</ele>
        <time>2021-08-05T16:45:19.537Z</time>
      </trkpt>
      <trkpt lat="45.40889" lon="6.44908">
        <ele>1795.1188795637</ele>
        <time>2021-08-05T16:45:44.842Z</time>
      </trkpt>
      <trkpt lat="45.40875" lon="6.44913">
        <ele>1792.5475027732</ele>
        <time>2021-08-05T16:46:10.166Z</time>
      </trkpt>
      <trkpt lat="45.40852" lon="6.44914">
        <ele>1790.0596118594</ele>
        <time>2021-08-05T16:46:35.521Z</time>
      </trkpt>
      <trkpt lat="45.40823" lon="6.44914">
        <ele>1787.54417146</ele>
        <time>2021-08-05T16:47:00.915Z</time>
      </trkpt>
      <trkpt lat="45.40808" lon="6.44917">
        <ele>1785.0434052573</ele>
        <time>2021-08-05T16:47:26.329Z</time>
      </trkpt>
      <trkpt lat="45.40791" lon="6.44919">
        <ele>1782.6137347121</ele>
        <time>2021-08-05T16:47:51.766Z</time>
      </trkpt>
      <trkpt lat="45.40765" lon="6.44912">
        <ele>1778.2145035743</ele>
        <time>2021-08-05T16:48:17.238Z</time>
      </trkpt>
      <trkpt lat="45.40752" lon="6.44908">
        <ele>1776.1142620466</ele>
        <time>2021-08-05T16:48:42.728Z</time>
      </trkpt>
      <trkpt lat="45.40739" lon="6.44901">
        <ele>1774.0590079648</ele>
        <time>2021-08-05T16:49:08.236Z</time>
      </trkpt>
      <trkpt lat="45.40726" lon="6.44892">
        <ele>1772.0576805686</ele>
        <time>2021-08-05T16:49:33.763Z</time>
      </trkpt>
      <trkpt lat="45.40694" lon="6.44861">
        <ele>1769.5213513803</ele>
        <time>2021-08-05T16:49:59.342Z</time>
      </trkpt>
      <trkpt lat="45.40672" lon="6.44837">
        <ele>1767.6677987077</ele>
        <time>2021-08-05T16:50:24.958Z</time>
      </trkpt>
      <trkpt lat="45.40649" lon="6.44805">
        <ele>1766.0209049201</ele>
        <time>2021-08-05T16:50:50.617Z</time>
      </trkpt>
      <trkpt lat="45.40637" lon="6.44792">
        <ele>1764.2170600373</ele>
        <time>2021-08-05T16:51:16.296Z</time>
      </trkpt>
      <trkpt lat="45.40624" lon="6.4478">
        <ele>1762.4582748505</ele>
        <time>2021-08-05T16:51:41.996Z</time>
      </trkpt>
      <trkpt lat="45.40616" lon="6.44775">
        <ele>1760.6826607408</ele>
        <time>2021-08-05T16:52:07.708Z</time>
      </trkpt>
      <trkpt lat="45.40605" lon="6.44774">
        <ele>1758.8256129536</ele>
        <time>2021-08-05T16:52:33.434Z</time>
      </trkpt>
      <trkpt lat="45.40594" lon="6.4478">
        <ele>1756.889550292</ele>
        <time>2021-08-05T16:52:59.176Z</time>
      </trkpt>
      <trkpt lat="45.40579" lon="6.4478">
        <ele>1755.0443255187</ele>
        <time>2021-08-05T16:53:24.938Z</time>
      </trkpt>
      <trkpt lat="45.40555" lon="6.44774">
        <ele>1753.3438277843</ele>
        <time>2021-08-05T16:53:50.732Z</time>
      </trkpt>
      <trkpt lat="45.40527" lon="6.44763">
        <ele>1751.6799581575</ele>
        <time>2021-08-05T16:54:16.565Z</time>
      </trkpt>
      <trkpt lat="45.40519" lon="6.44756">
        <ele>1750.1425978575</ele>
        <time>2021-08-05T16:54:42.411Z</time>
      </trkpt>
      <trkpt lat="45.40507" lon="6.44735">
        <ele>1748.7941801892</ele>
        <time>2021-08-05T16:55:08.282Z</time>
      </trkpt>
      <trkpt lat="45.405" lon="6.44732">
        <ele>1747.1006590992</ele>
        <time>2021-08-05T16:55:34.163Z</time>
      </trkpt>
      <trkpt lat="45.40487" lon="6.44733">
        <ele>1745.2911805156</ele>
        <time>2021-08-05T16:56:00.061Z</time>
      </trkpt>
      <trkpt lat="45.40474" lon="6.44731">
        <ele>1743.5357373954</ele>
        <time>2021-08-05T16:56:25.977Z</time>
      </trkpt>
      <trkpt lat="45.40439" lon="6.44719">
        <ele>1741.6818402317</ele>
        <time>2021-08-05T16:56:51.941Z</time>
      </trkpt>
      <trkpt lat="45.40415" lon="6.44712">
        <ele>1739.7785296462</ele>
        <time>2021-08-05T16:57:17.937Z</time>
      </trkpt>
      <trkpt lat="45.40395" lon="6.44694">
        <ele>1738.2715596594</ele>
        <time>2021-08-05T16:57:43.965Z</time>
      </trkpt>
      <trkpt lat="45.40389" lon="6.4469">
        <ele>1736.4472181254</ele>
        <time>2021-08-05T16:58:10.002Z</time>
      </trkpt>
      <trkpt lat="45.4038" lon="6.44689">
        <ele>1734.4334468186</ele>
        <time>2021-08-05T16:58:36.051Z</time>
      </trkpt>
      <trkpt lat="45.40358" lon="6.44689">
        <ele>1732.1416396169</ele>
        <time>2021-08-05T16:59:02.129Z</time>
      </trkpt>
      <trkpt lat="45.40343" lon="6.44688">
        <ele>1730.0417147795</ele>
        <time>2021-08-05T16:59:28.227Z</time>
      </trkpt>
      <trkpt lat="45.40333" lon="6.44683">
        <ele>1728.0623163706</ele>
        <time>2021-08-05T16:59:54.339Z</time>
      </trkpt>
      <trkpt lat="45.40317" lon="6.44672">
        <ele>1726.0174809574</ele>
        <time>2021-08-05T17:00:20.475Z</time>
      </trkpt>
      <trkpt lat="45.40309" lon="6.44669">
        <ele>1723.8805925098</ele>
        <time>2021-08-05T17:00:46.622Z</time>
      </trkpt>
      <trkpt lat="45.40297" lon="6.44668">
        <ele>1721.639389342</ele>
        <time>2021-08-05T17:01:12.785Z</time>
      </trkpt>
      <trkpt lat="45.40276" lon="6.44665">
        <ele>1719.3659619912</ele>
        <time>2021-08-05T17:01:38.976Z</time>
      </trkpt>
      <trkpt lat="45.40228" lon="6.44641">
        <ele>1717.142904172</ele>
        <time>2021-08-05T17:02:05.235Z</time>
      </trkpt>
      <trkpt lat="45.40193" lon="6.44617">
        <ele>1714.7677192339</ele>
        <time>2021-08-05T17:02:31.546Z</time>
      </trkpt>
      <trkpt lat="45.40168" lon="6.44595">
        <ele>1712.3288639466</ele>
        <time>2021-08-05T17:02:57.896Z</time>
      </trkpt>
      <trkpt lat="45.40143" lon="6.44573">
        <ele>1710.0428212912</ele>
        <time>2021-08-05T17:03:24.285Z</time>
      </trkpt>
      <trkpt lat="45.4013" lon="6.44563">
        <ele>1707.7126767647</ele>
        <time>2021-08-05T17:03:50.694Z</time>
      </trkpt>
      <trkpt lat="45.40117" lon="6.44557">
        <ele>1705.286993839</ele>
        <time>2021-08-05T17:04:17.121Z</time>
      </trkpt>
      <trkpt lat="45.40097" lon="6.44538">
        <ele>1702.8346303347</ele>
        <time>2021-08-05T17:04:43.581Z</time>
      </trkpt>
      <trkpt lat="45.40074" lon="6.44503">
        <ele>1700.4599588403</ele>
        <time>2021-08-05T17:05:10.086Z</time>
      </trkpt>
      <trkpt lat="45.40052" lon="6.44473">
        <ele>1697.9838111043</ele>
        <time>2021-08-05T17:05:36.631Z</time>
      </trkpt>
      <trkpt lat="45.40045" lon="6.44461">
        <ele>1695.6626453582</ele>
        <time>2021-08-05T17:06:03.191Z</time>
      </trkpt>
      <trkpt lat="45.40039" lon="6.44445">
        <ele>1693.4721770662</ele>
        <time>2021-08-05T17:06:29.768Z</time>
      </trkpt>
      <trkpt lat="45.40015" lon="6.44387">
        <ele>1691.1961899337</ele>
        <time>2021-08-05T17:06:56.408Z</time>
      </trkpt>
      <trkpt lat="45.39996" lon="6.44338">
        <ele>1689.0498552017</ele>
        <time>2021-08-05T17:07:23.101Z</time>
      </trkpt>
      <trkpt lat="45.39981" lon="6.44286">
        <ele>1687.132042017</ele>
        <time>2021-08-05T17:07:49.846Z</time>
      </trkpt>
      <trkpt lat="45.39963" lon="6.4423">
        <ele>1685.1216474041</ele>
        <time>2021-08-05T17:08:16.649Z</time>
      </trkpt>
      <trkpt lat="45.39954" lon="6.44216">
        <ele>1683.3006790711</ele>
        <time>2021-08-05T17:08:43.470Z</time>
      </trkpt>
      <trkpt lat="45.39944" lon="6.44209">
        <ele>1681.5696673587</ele>
        <time>2021-08-05T17:09:10.306Z</time>
      </trkpt>
      <trkpt lat="45.39927" lon="6.44192">
        <ele>1679.9817307474</ele>
        <time>2021-08-05T17:09:37.170Z</time>
      </trkpt>
      <trkpt lat="45.39919" lon="6.44181">
        <ele>1678.7686114272</ele>
        <time>2021-08-05T17:10:04.049Z</time>
      </trkpt>
      <trkpt lat="45.39915" lon="6.4417">
        <ele>1677.8055123413</ele>
        <time>2021-08-05T17:10:30.939Z</time>
      </trkpt>
      <trkpt lat="45.39901" lon="6.44135">
        <ele>1676.9521532761</ele>
        <time>2021-08-05T17:10:57.867Z</time>
      </trkpt>
      <trkpt lat="45.39891" lon="6.44113">
        <ele>1676.1254862289</ele>
        <time>2021-08-05T17:11:24.820Z</time>
      </trkpt>
      <trkpt lat="45.39888" lon="6.44102">
        <ele>1675.5654796428</ele>
        <time>2021-08-05T17:11:51.784Z</time>
      </trkpt>
      <trkpt lat="45.39883" lon="6.44084">
        <ele>1675.1709488588</ele>
        <time>2021-08-05T17:12:18.766Z</time>
      </trkpt>
      <trkpt lat="45.3988" lon="6.44059">
        <ele>1675.0032782483</ele>
        <time>2021-08-05T17:12:45.772Z</time>
      </trkpt>
      <trkpt lat="45.3988" lon="6.44027">
        <ele>1675.1015107875</ele>
        <time>2021-08-05T17:13:12.808Z</time>
      </trkpt>
      <trkpt lat="45.39877" lon="6.44004">
        <ele>1675.4560832986</ele>
        <time>2021-08-05T17:13:39.866Z</time>
      </trkpt>
      <trkpt lat="45.39877" lon="6.4399">
        <ele>1676.0844367114</ele>
        <time>2021-08-05T17:14:06.937Z</time>
      </trkpt>
      <trkpt lat="45.39879" lon="6.43974">
        <ele>1676.9521252718</ele>
        <time>2021-08-05T17:14:34.023Z</time>
      </trkpt>
      <trkpt lat="45.39881" lon="6.4395">
        <ele>1678.0345858525</ele>
        <time>2021-08-05T17:15:01.132Z</time>
      </trkpt>
      <trkpt lat="45.39894" lon="6.43914">
        <ele>1679.4901611833</ele>
        <time>2021-08-05T17:15:28.279Z</time>
      </trkpt>
      <trkpt lat="45.39901" lon="6.43893">
        <ele>1681.09033307</ele>
        <time>2021-08-05T17:15:55.448Z</time>
      </trkpt>
      <trkpt lat="45.39899" lon="6.4386">
        <ele>1682.6224005697</ele>
        <time>2021-08-05T17:16:22.648Z</time>
      </trkpt>
      <trkpt lat="45.39893" lon="6.43837">
        <ele>1684.2891535982</ele>
        <time>2021-08-05T17:16:49.871Z</time>
      </trkpt>
      <trkpt lat="45.39885" lon="6.43823">
        <ele>1686.0724167515</ele>
        <time>2021-08-05T17:17:17.111Z</time>
      </trkpt>
      <trkpt lat="45.39877" lon="6.4381">
        <ele>1688.0748366438</ele>
        <time>2021-08-05T17:17:44.367Z</time>
      </trkpt>
      <trkpt lat="45.39875" lon="6.43797">
        <ele>1690.409138998</ele>
        <time>2021-08-05T17:18:11.635Z</time>
      </trkpt>
      <trkpt lat="45.39879" lon="6.43751">
        <ele>1693.1763739071</ele>
        <time>2021-08-05T17:18:38.947Z</time>
      </trkpt>
      <trkpt lat="45.39888" lon="6.4371">
        <ele>1696.0106879223</ele>
        <time>2021-08-05T17:19:06.299Z</time>
      </trkpt>
      <trkpt lat="45.39889" lon="6.43688">
        <ele>1698.7177570241</ele>
        <time>2021-08-05T17:19:33.672Z</time>
      </trkpt>
      <trkpt lat="45.39886" lon="6.43667">
        <ele>1701.4523299916</ele>
        <time>2021-08-05T17:20:01.065Z</time>
      </trkpt>
      <trkpt lat="45.39876" lon="6.43642">
        <ele>1704.2570361646</ele>
        <time>2021-08-05T17:20:28.485Z</time>
      </trkpt>
      <trkpt lat="45.39876" lon="6.43627">
        <ele>1707.268798858</ele>
        <time>2021-08-05T17:20:55.919Z</time>
      </trkpt>
      <trkpt lat="45.39881" lon="6.43615">
        <ele>1710.4732536143</ele>
        <time>2021-08-05T17:21:23.366Z</time>
      </trkpt>
      <trkpt lat="45.3988" lon="6.43592">
        <ele>1713.6910173917</ele>
        <time>2021-08-05T17:21:50.835Z</time>
      </trkpt>
      <trkpt lat="45.39882" lon="6.43551">
        <ele>1717.1030790782</ele>
        <time>2021-08-05T17:22:18.343Z</time>
      </trkpt>
      <trkpt lat="45.39883" lon="6.43492">
        <ele>1720.5936510284</ele>
        <time>2021-08-05T17:22:45.906Z</time>
      </trkpt>
      <trkpt lat="45.39889" lon="6.4347">
        <ele>1724.0079389062</ele>
        <time>2021-08-05T17:23:13.491Z</time>
      </trkpt>
      <trkpt lat="45.39892" lon="6.43448">
        <ele>1727.3401438212</ele>
        <time>2021-08-05T17:23:41.097Z</time>
      </trkpt>
      <trkpt lat="45.39893" lon="6.4343">
        <ele>1730.7286472082</ele>
        <time>2021-08-05T17:24:08.720Z</time>
      </trkpt>
      <trkpt lat="45.39889" lon="6.43402">
        <ele>1734.2067532537</ele>
        <time>2021-08-05T17:24:36.370Z</time>
      </trkpt>
      <trkpt lat="45.39892" lon="6.43371">
        <ele>1738.0547020865</ele>
        <time>2021-08-05T17:25:04.050Z</time>
      </trkpt>
      <trkpt lat="45.39903" lon="6.43285">
        <ele>1742.2654479731</ele>
        <time>2021-08-05T17:25:31.812Z</time>
      </trkpt>
      <trkpt lat="45.39906" lon="6.43251">
        <ele>1745.7627407404</ele>
        <time>2021-08-05T17:25:59.606Z</time>
      </trkpt>
      <trkpt lat="45.39907" lon="6.43225">
        <ele>1749.0258929349</ele>
        <time>2021-08-05T17:26:27.424Z</time>
      </trkpt>
      <trkpt lat="45.39912" lon="6.43203">
        <ele>1752.3253652283</ele>
        <time>2021-08-05T17:26:55.264Z</time>
      </trkpt>
      <trkpt lat="45.39922" lon="6.4317">
        <ele>1755.7330696484</ele>
        <time>2021-08-05T17:27:23.138Z</time>
      </trkpt>
      <trkpt lat="45.39934" lon="6.43137">
        <ele>1759.090276169</ele>
        <time>2021-08-05T17:27:51.047Z</time>
      </trkpt>
      <trkpt lat="45.39949" lon="6.43116">
        <ele>1762.2597916871</ele>
        <time>2021-08-05T17:28:18.984Z</time>
      </trkpt>
      <trkpt lat="45.39958" lon="6.4311">
        <ele>1765.0295915206</ele>
        <time>2021-08-05T17:28:46.934Z</time>
      </trkpt>
      <trkpt lat="45.39962" lon="6.43114">
        <ele>1767.6083699673</ele>
        <time>2021-08-05T17:29:14.891Z</time>
      </trkpt>
      <trkpt lat="45.39961" lon="6.43122">
        <ele>1770.0127718897</ele>
        <time>2021-08-05T17:29:42.855Z</time>
      </trkpt>
      <trkpt lat="45.39957" lon="6.43146">
        <ele>1772.3700337288</ele>
        <time>2021-08-05T17:30:10.842Z</time>
      </trkpt>
      <trkpt lat="45.39956" lon="6.43151">
        <ele>1774.6505325469</ele>
        <time>2021-08-05T17:30:38.834Z</time>
      </trkpt>
      <trkpt lat="45.39958" lon="6.43158">
        <ele>1776.9325312328</ele>
        <time>2021-08-05T17:31:06.833Z</time>
      </trkpt>
      <trkpt lat="45.39963" lon="6.43159">
        <ele>1779.1611203233</ele>
        <time>2021-08-05T17:31:34.839Z</time>
      </trkpt>
      <trkpt lat="45.39967" lon="6.43156">
        <ele>1781.2153420575</ele>
        <time>2021-08-05T17:32:02.851Z</time>
      </trkpt>
      <trkpt lat="45.39975" lon="6.43149">
        <ele>1783.1602810169</ele>
        <time>2021-08-05T17:32:30.876Z</time>
      </trkpt>
      <trkpt lat="45.39983" lon="6.43146">
        <ele>1784.9612024119</ele>
        <time>2021-08-05T17:32:58.912Z</time>
      </trkpt>
      <trkpt lat="45.39999" lon="6.43134">
        <ele>1786.6560832617</ele>
        <time>2021-08-05T17:33:26.972Z</time>
      </trkpt>
      <trkpt lat="45.4001" lon="6.43118">
        <ele>1789.3555425105</ele>
        <time>2021-08-05T17:33:55.053Z</time>
      </trkpt>
      <trkpt lat="45.40014" lon="6.43111">
        <ele>1790.3297212874</ele>
        <time>2021-08-05T17:34:23.142Z</time>
      </trkpt>
      <trkpt lat="45.40016" lon="6.43102">
        <ele>1791.1622258278</ele>
        <time>2021-08-05T17:34:51.240Z</time>
      </trkpt>
    </trkseg>
  </trk>
</gpx>